Provisional Data: Starrucca Creek near Stevens Point, PA


Please select a monitoring station.
Please select start date.
Please select start date.

Toggle Unit: C/F Toggle Unit: C/F
Sample Time Temperature (C) Temperature (F) Specific Conductivity (mS/cm) pH   Turbidity (NTU+) DO (mg/L)
9/6/2021 12:00:00 AM 16.95 62.51 0.096 7.26 3.9 8.85
9/6/2021 12:15:00 AM 16.94 62.492 0.096 7.28 3.81 8.86
9/6/2021 12:30:00 AM 16.92 62.456 0.096 7.3 3.81 8.87
9/6/2021 12:45:00 AM 16.9 62.42 0.097 7.29 3.86 8.87
9/6/2021 1:00:00 AM 16.88 62.384 0.097 7.3 3.62 8.87
9/6/2021 1:15:00 AM 16.86 62.348 0.097 7.3 3.53 8.89
9/6/2021 1:30:00 AM 16.84 62.312 0.097 7.31 3.54 8.89
9/6/2021 1:45:00 AM 16.8 62.24 0.097 7.3 3.64 8.88
9/6/2021 2:00:00 AM 16.79 62.222 0.097 7.31 3.43 8.9
9/6/2021 2:15:00 AM 16.76 62.168 0.098 7.3 3.61 8.9
9/6/2021 2:30:00 AM 16.74 62.132 0.098 7.31 3.63 8.91
9/6/2021 2:45:00 AM 16.71 62.078 0.098 7.31 3.59 8.91
9/6/2021 3:00:00 AM 16.69 62.042 0.098 7.32 3.63 8.92
9/6/2021 3:15:00 AM 16.66 61.988 0.098 7.31 3.58 8.92
9/6/2021 3:30:00 AM 16.63 61.934 0.098 7.3 3.6 8.93
9/6/2021 3:45:00 AM 16.6 61.88 0.098 7.29 3.59 8.93
9/6/2021 4:00:00 AM 16.57 61.826 0.099 7.3 3.58 8.94
9/6/2021 4:15:00 AM 16.54 61.772 0.099 7.3 3.79 8.94
9/6/2021 4:30:00 AM 16.5 61.7 0.099 7.3 3.88 8.95
9/6/2021 4:45:00 AM 16.48 61.664 0.099 7.3 3.73 8.96
9/6/2021 5:00:00 AM 16.44 61.592 0.099 7.29 3.73 8.95
9/6/2021 5:15:00 AM 16.41 61.538 0.099 7.3 3.92 8.98
9/6/2021 5:30:00 AM 16.38 61.484 0.099 7.3 3.73 8.98
9/6/2021 5:45:00 AM 16.34 61.412 0.099 7.27 3.8 8.98
9/6/2021 6:00:00 AM 16.3 61.34 0.099 7.27 3.91 8.99
9/6/2021 6:15:00 AM 16.27 61.286 0.099 7.28 3.92 8.99
9/6/2021 6:30:00 AM 16.24 61.232 0.099 7.29 3.75 9.01
9/6/2021 6:45:00 AM 16.21 61.178 0.099 7.3 3.72 9.02
9/6/2021 7:00:00 AM 16.17 61.106 0.099 7.3 3.85 9.06
9/6/2021 7:15:00 AM 16.14 61.052 0.098 7.31 3.68 9.13
9/6/2021 7:30:00 AM 16.11 60.998 0.098 7.34 3.52 9.21
9/6/2021 7:45:00 AM 16.08 60.944 0.098 7.35 3.55 9.29
9/6/2021 8:00:00 AM 16.06 60.908 0.098 7.35 3.55 9.38
9/6/2021 8:15:00 AM 16.07 60.926 0.098 7.41 3.53 9.54
9/6/2021 8:30:00 AM 16.08 60.944 0.098 7.45 3.45 9.67
9/6/2021 8:45:00 AM 16.1 60.98 0.098 7.46 3.76 9.75
9/6/2021 9:00:00 AM 16.13 61.034 0.098 7.5 3.74 9.77
9/6/2021 9:15:00 AM 16.14 61.052 0.098 7.51 3.51 9.76
9/6/2021 9:30:00 AM 16.18 61.124 0.097 7.52 3.45 9.85
9/6/2021 9:45:00 AM 16.26 61.268 0.097 7.6 3.27 9.99
9/6/2021 10:00:00 AM 16.35 61.43 0.097 7.66 3.28 10.02
9/6/2021 10:15:00 AM 16.47 61.646 0.097 7.65 3.56 10.01
9/6/2021 10:30:00 AM 16.64 61.952 0.096 7.71 3.49 10.05
9/6/2021 10:45:00 AM 16.83 62.294 0.096 7.8 3.53 10.14
9/6/2021 11:00:00 AM 16.92 62.456 0.096 7.82 3.39 10.14
9/6/2021 11:15:00 AM 17.03 62.654 0.096 7.88 3.33 10.18
9/6/2021 11:30:00 AM 17.14 62.852 0.096 7.92 3.63 10.17
9/6/2021 11:45:00 AM 17.37 63.266 0.096 8.03 3.41 10.2
9/6/2021 12:00:00 PM 17.49 63.482 0.096 8.08 3.35 10.2
9/6/2021 12:15:00 PM 17.65 63.77 0.095 8.18 3.25 10.19
9/6/2021 12:30:00 PM 17.77 63.986 0.095 8.09 3.53 10.05
9/6/2021 12:45:00 PM 17.95 64.31 0.095 8.14 3.29 10.02
9/6/2021 1:00:00 PM 18.15 64.67 0.095 8.23 3.53 9.97
9/6/2021 1:15:00 PM 18.43 65.174 0.095 8.33 3.57 9.98
9/6/2021 1:30:00 PM 18.66 65.588 0.095 8.33 3.32 9.86
9/6/2021 1:45:00 PM 18.81 65.858 0.095 8.33 3.33 9.84
9/6/2021 2:00:00 PM 18.81 65.858 0.095 8.36 3.38 9.74
9/6/2021 2:15:00 PM 18.74 65.732 0.095 8.26 3.36 9.64
9/6/2021 2:30:00 PM 18.67 65.606 0.095 8.14 3.46 9.53
9/6/2021 2:45:00 PM 18.65 65.57 0.095 8.12 3.28 9.54
9/6/2021 3:00:00 PM 18.69 65.642 0.095 8.11 3.37 9.57
9/6/2021 3:15:00 PM 18.71 65.67799 0.096 8.06 3.53 9.5
9/6/2021 3:30:00 PM 18.71 65.67799 0.096 8 3.44 9.45
9/6/2021 3:45:00 PM 18.75 65.75 0.096 8 3.42 9.44
9/6/2021 4:00:00 PM 18.77 65.786 0.096 7.97 3.52 9.42
9/6/2021 4:15:00 PM 18.74 65.732 0.096 7.88 3.22 9.38
9/6/2021 4:30:00 PM 18.68 65.624 0.097 7.83 3.55 9.34
9/6/2021 4:45:00 PM 18.6 65.48 0.097 7.75 3.43 9.3
9/6/2021 5:00:00 PM 18.55 65.39 0.097 7.67 3.88 9.23
9/6/2021 5:15:00 PM 18.55 65.39 0.097 7.68 3.28 9.21
9/6/2021 5:30:00 PM 18.54 65.372 0.097 7.64 3.44 9.15
9/6/2021 5:45:00 PM 18.56 65.408 0.097 7.62 3.51 9.09
9/6/2021 6:00:00 PM 18.53 65.354 0.098 7.6 3.35 9.02
9/6/2021 6:15:00 PM 18.48 65.264 0.098 7.57 3.52 8.95
9/6/2021 6:30:00 PM 18.4 65.12 0.098 7.5 3.37 8.92
9/6/2021 6:45:00 PM 18.29 64.922 0.099 7.48 3.41 8.88
9/6/2021 7:00:00 PM 18.18 64.724 0.099 7.43 3.41 8.84
9/6/2021 7:15:00 PM 18.07 64.526 0.099 7.41 3.68 8.81
9/6/2021 7:30:00 PM 17.98 64.364 0.099 7.41 3.75 8.79
9/6/2021 7:45:00 PM 17.88 64.184 0.099 7.41 3.54 8.76
9/6/2021 8:00:00 PM 17.76 63.968 0.1 7.39 4.02 8.74
9/6/2021 8:15:00 PM 17.64 63.752 0.1 7.37 4.13 8.74
9/6/2021 8:30:00 PM 17.52 63.536 0.1 7.35 3.86 8.75
9/6/2021 8:45:00 PM 17.39 63.302 0.1 7.34 3.85 8.75
9/6/2021 9:00:00 PM 17.28 63.104 0.1 7.34 3.81 8.77
9/6/2021 9:15:00 PM 17.18 62.924 0.1 7.33 4 8.79
9/6/2021 9:30:00 PM 17.07 62.726 0.1 7.32 3.74 8.8
9/6/2021 9:45:00 PM 16.99 62.582 0.1 7.32 3.68 8.81
9/6/2021 10:00:00 PM 16.91 62.438 0.1 7.32 3.65 8.83
9/6/2021 10:15:00 PM 16.83 62.294 0.1 7.32 3.63 8.84
9/6/2021 10:30:00 PM 16.75 62.15 0.1 7.32 3.59 8.86
9/6/2021 10:45:00 PM 16.67 62.006 0.1 7.33 3.53 8.89
9/6/2021 11:00:00 PM 16.58 61.844 0.1 7.32 3.49 8.9
9/6/2021 11:15:00 PM 16.49 61.682 0.1 7.31 3.69 8.91
9/6/2021 11:30:00 PM 16.4 61.52 0.099 7.29 3.57 8.94
9/6/2021 11:45:00 PM 16.32 61.376 0.099 7.29 3.41 8.95
9/7/2021 12:00:00 AM 16.23 61.214 0.099 7.3 3.71 8.98
9/7/2021 12:15:00 AM 16.14 61.052 0.099 7.29 3.65 8.99
9/7/2021 12:30:00 AM 16.06 60.908 0.099 7.29 3.66 9.02
9/7/2021 12:45:00 AM 15.97 60.746 0.099 7.3 4.08 9.05
9/7/2021 1:00:00 AM 15.88 60.584 0.099 7.31 3.77 9.07
9/7/2021 1:15:00 AM 15.81 60.458 0.098 7.27 3.68 9.09
9/7/2021 1:30:00 AM 15.72 60.296 0.098 7.31 3.63 9.12
9/7/2021 1:45:00 AM 15.64 60.152 0.098 7.28 3.61 9.14
9/7/2021 2:00:00 AM 15.56 60.008 0.097 7.31 3.82 9.16
9/7/2021 2:15:00 AM 15.47 59.846 0.097 7.3 3.81 9.18
9/7/2021 2:30:00 AM 15.39 59.702 0.097 7.29 3.72 9.18
9/7/2021 2:45:00 AM 15.31 59.558 0.096 7.3 3.57 9.22
9/7/2021 3:00:00 AM 15.23 59.414 0.096 7.29 3.64 9.22
9/7/2021 3:15:00 AM 15.16 59.288 0.096 7.29 3.88 9.25
9/7/2021 3:30:00 AM 15.08 59.144 0.096 7.29 3.77 9.26
9/7/2021 3:45:00 AM 15 59 0.096 7.29 3.72 9.27
9/7/2021 4:00:00 AM 14.92 58.856 0.096 7.3 3.79 9.32
9/7/2021 4:15:00 AM 14.84 58.712 0.096 7.3 3.71 9.32
9/7/2021 4:30:00 AM 14.76 58.568 0.096 7.3 3.89 9.34
9/7/2021 4:45:00 AM 14.69 58.442 0.096 7.29 4 9.35
9/7/2021 5:00:00 AM 14.6 58.28 0.096 7.3 4 9.37
9/7/2021 5:15:00 AM 14.53 58.154 0.096 7.3 3.71 9.39
9/7/2021 5:30:00 AM 14.46 58.028 0.096 7.3 3.8 9.42
9/7/2021 5:45:00 AM 14.38 57.884 0.096 7.3 3.79 9.43
9/7/2021 6:00:00 AM 14.31 57.758 0.096 7.31 3.87 9.46
9/7/2021 6:15:00 AM 14.22 57.596 0.096 7.3 3.86 9.47
9/7/2021 6:30:00 AM 14.15 57.47 0.096 7.31 4.04 9.49
9/7/2021 6:45:00 AM 14.08 57.344 0.096 7.31 3.68 9.52
9/7/2021 7:00:00 AM 14.02 57.236 0.097 7.32 3.71 9.56
9/7/2021 7:15:00 AM 13.95 57.11 0.097 7.31 3.55 9.62
9/7/2021 7:30:00 AM 13.89 57.002 0.097 7.33 3.57 9.69
9/7/2021 7:45:00 AM 13.84 56.912 0.097 7.35 3.53 9.75
9/7/2021 8:00:00 AM 13.79 56.822 0.097 7.34 3.58 9.81
9/7/2021 8:15:00 AM 13.77 56.786 0.097 7.38 3.59 9.9
9/7/2021 8:30:00 AM 13.77 56.786 0.097 7.4 3.46 9.99
9/7/2021 8:45:00 AM 13.79 56.822 0.097 7.42 3.67 10.07
9/7/2021 9:00:00 AM 13.83 56.894 0.097 7.46 3.46 10.12
9/7/2021 9:15:00 AM 13.86 56.948 0.097 7.48 3.43 10.18
9/7/2021 9:30:00 AM 13.92 57.056 0.096 7.49 3.58 10.22
9/7/2021 9:45:00 AM 14.03 57.254 0.096 7.55 3.59 10.28
9/7/2021 10:00:00 AM 14.16 57.488 0.096 7.58 3.39 10.32
9/7/2021 10:15:00 AM 14.31 57.758 0.096 7.62 3.45 10.39
9/7/2021 10:30:00 AM 14.49 58.082 0.096 7.6 3.28 10.42
9/7/2021 10:45:00 AM 14.69 58.442 0.096 7.67 3.36 10.45
9/7/2021 11:00:00 AM 14.91 58.838 0.095 7.71 3.26 10.44
9/7/2021 11:15:00 AM 15.15 59.27 0.095 7.73 3.31 10.43
9/7/2021 11:30:00 AM 15.43 59.774 0.095 7.79 3.43 10.42
9/7/2021 11:45:00 AM 15.73 60.314 0.095 7.82 3.34 10.4
9/7/2021 12:00:00 PM 16.02 60.836 0.095 7.86 3.2 10.37
9/7/2021 12:15:00 PM 16.29 61.322 0.095 7.84 3.41 10.3
9/7/2021 12:30:00 PM 16.59 61.862 0.095 7.89 3.54 10.26
9/7/2021 12:45:00 PM 16.85 62.33 0.095 7.96 3.31 10.22
9/7/2021 1:00:00 PM 17.12 62.816 0.095 7.97 3.48 10.18
9/7/2021 1:15:00 PM 17.35 63.23 0.095 8.02 3.45 10.12
9/7/2021 1:30:00 PM 17.57 63.626 0.095 8.04 3.32 10.07
9/7/2021 1:45:00 PM 17.85 64.13 0.095 8.1 3.33 10.04
9/7/2021 2:00:00 PM 18.07 64.526 0.095 8.11 3.47 9.94
9/7/2021 2:15:00 PM 18.16 64.688 0.095 8.05 3.44 9.83
9/7/2021 2:30:00 PM 18.24 64.832 0.095 8.05 3.35 9.78
9/7/2021 2:45:00 PM 18.32 64.976 0.094 8.04 3.44 9.72
9/7/2021 3:00:00 PM 18.44 65.192 0.095 8.05 3.36 9.66
9/7/2021 3:15:00 PM 18.53 65.354 0.095 8 3.53 9.58
9/7/2021 3:30:00 PM 18.62 65.516 0.095 7.95 3.44 9.53
9/7/2021 3:45:00 PM 18.69 65.642 0.095 7.86 3.29 9.43
9/7/2021 4:00:00 PM 18.73 65.714 0.095 7.89 3.45 9.43
9/7/2021 4:15:00 PM 18.77 65.786 0.095 7.89 3.65 9.44
9/7/2021 4:30:00 PM 18.78 65.804 0.096 7.77 3.29 9.4
9/7/2021 4:45:00 PM 18.8 65.84 0.096 7.77 3.32 9.33
9/7/2021 5:00:00 PM 18.83 65.894 0.096 7.73 3.43 9.32
9/7/2021 5:15:00 PM 18.81 65.858 0.096 7.67 3.44 9.23
9/7/2021 5:30:00 PM 18.78 65.804 0.097 7.6 3.47 9.18
9/7/2021 5:45:00 PM 18.75 65.75 0.097 7.6 3.39 9.11
9/7/2021 6:00:00 PM 18.67 65.606 0.098 7.53 3.5 9
9/7/2021 6:15:00 PM 18.57 65.426 0.098 7.45 3.83 8.9
9/7/2021 6:30:00 PM 18.46 65.228 0.098 7.39 3.35 8.82
9/7/2021 6:45:00 PM 18.37 65.066 0.098 7.38 3.57 8.78
9/7/2021 7:00:00 PM 18.29 64.922 0.098 7.37 3.45 8.75
9/7/2021 7:15:00 PM 18.21 64.778 0.099 7.35 3.41 8.72
9/7/2021 7:30:00 PM 18.13 64.634 0.099 7.33 3.76 8.66
9/7/2021 7:45:00 PM 18.06 64.508 0.099 7.31 3.91 8.61
9/7/2021 8:00:00 PM 17.98 64.364 0.099 7.29 3.61 8.56
9/7/2021 8:15:00 PM 17.89 64.202 0.1 7.25 3.65 8.54
9/7/2021 8:30:00 PM 17.81 64.058 0.1 7.24 3.84 8.53
9/7/2021 8:45:00 PM 17.72 63.896 0.1 7.24 3.49 8.56
9/7/2021 9:00:00 PM 17.62 63.716 0.1 7.22 3.69 8.55
9/7/2021 9:15:00 PM 17.55 63.59 0.101 7.26 3.59 8.64
9/7/2021 9:30:00 PM 17.44 63.392 0.101 7.26 3.77 8.61
9/7/2021 9:45:00 PM 17.35 63.23 0.101 7.23 3.55 8.65
9/7/2021 10:00:00 PM 17.25 63.05 0.101 7.24 4.96 8.65
9/7/2021 10:15:00 PM 17.15 62.87 0.101 7.2 3.63 8.63
9/7/2021 10:30:00 PM 17.09 62.762 0.101 7.25 3.73 8.68
9/7/2021 10:45:00 PM 17.01 62.618 0.101 7.23 3.61 8.71
9/7/2021 11:00:00 PM 16.92 62.456 0.101 7.23 4.11 8.7
9/7/2021 11:15:00 PM 16.84 62.312 0.101 7.23 3.77 8.71
9/7/2021 11:30:00 PM 16.76 62.168 0.101 7.22 3.6 8.73
9/7/2021 11:45:00 PM 16.69 62.042 0.101 7.21 3.73 8.76
9/8/2021 12:00:00 AM 16.61 61.898 0.101 7.21 3.54 8.77
9/8/2021 12:15:00 AM 16.55 61.79 0.101 7.24 3.6 8.83
9/8/2021 12:30:00 AM 16.46 61.628 0.101 7.23 3.75 8.8
9/8/2021 12:45:00 AM 16.39 61.502 0.101 7.23 3.69 8.82
9/8/2021 1:00:00 AM 16.32 61.376 0.101 7.22 3.71 8.85
9/8/2021 1:15:00 AM 16.25 61.25 0.101 7.25 3.66 8.88
9/8/2021 1:30:00 AM 16.19 61.142 0.101 7.23 3.78 8.88
9/8/2021 1:45:00 AM 16.11 60.998 0.101 7.22 3.77 8.91
9/8/2021 2:00:00 AM 16.06 60.908 0.101 7.24 3.66 8.94
9/8/2021 2:15:00 AM 15.99 60.782 0.101 7.22 3.65 8.91
9/8/2021 2:30:00 AM 15.94 60.692 0.101 7.26 3.46 8.99
9/8/2021 2:45:00 AM 15.86 60.548 0.101 7.22 3.84 8.95
9/8/2021 3:00:00 AM 15.8 60.44 0.101 7.17 3.58 8.95
9/8/2021 3:15:00 AM 15.75 60.35 0.101 7.22 3.6 8.99
9/8/2021 3:30:00 AM 15.69 60.242 0.101 7.22 3.49 8.99
9/8/2021 3:45:00 AM 15.63 60.134 0.101 7.17 3.69 8.98
9/8/2021 4:00:00 AM 15.57 60.026 0.101 7.2 3.62 9.02
9/8/2021 4:15:00 AM 15.52 59.936 0.101 7.21 3.68 9.03
9/8/2021 4:30:00 AM 15.46 59.828 0.101 7.22 3.59 9.06
9/8/2021 4:45:00 AM 15.41 59.738 0.101 7.22 3.66 9.07
9/8/2021 5:00:00 AM 15.35 59.63 0.101 7.23 3.94 9.06
9/8/2021 5:15:00 AM 15.29 59.522 0.102 7.21 3.8 9.07
9/8/2021 5:30:00 AM 15.24 59.432 0.102 7.2 3.55 9.07
9/8/2021 5:45:00 AM 15.19 59.342 0.102 7.21 3.73 9.09
9/8/2021 6:00:00 AM 15.14 59.252 0.102 7.21 3.69 9.1
9/8/2021 6:15:00 AM 15.09 59.162 0.102 7.21 3.73 9.1
9/8/2021 6:30:00 AM 15.05 59.09 0.101 7.21 3.7 9.13
9/8/2021 6:45:00 AM 15.02 59.036 0.102 7.25 3.87 9.18
9/8/2021 7:00:00 AM 14.98 58.964 0.101 7.24 3.65 9.2
9/8/2021 7:15:00 AM 14.97 58.946 0.101 7.25 3.91 9.26
9/8/2021 7:30:00 AM 14.97 58.946 0.101 7.29 3.68 9.34
9/8/2021 7:45:00 AM 14.98 58.964 0.101 7.31 3.62 9.42
9/8/2021 8:00:00 AM 14.98 58.964 0.101 7.3 3.55 9.47
9/8/2021 8:15:00 AM 15.02 59.036 0.101 7.35 3.42 9.6
9/8/2021 8:30:00 AM 15.08 59.144 0.1 7.38 3.49 9.8
9/8/2021 8:45:00 AM 15.15 59.27 0.1 7.41 3.4 9.92
9/8/2021 9:00:00 AM 15.23 59.414 0.1 7.44 3.47 10.01
9/8/2021 9:15:00 AM 15.31 59.558 0.1 7.43 3.8 10.09
9/8/2021 9:30:00 AM 15.41 59.738 0.099 7.47 3.51 10.21
9/8/2021 9:45:00 AM 15.58 60.044 0.099 7.61 3.44 10.37
9/8/2021 10:00:00 AM 15.68 60.224 0.099 7.52 3.61 10.34
9/8/2021 10:15:00 AM 15.88 60.584 0.099 7.6 3.36 10.35
9/8/2021 10:30:00 AM 16.09 60.962 0.098 7.71 3.48 10.36
9/8/2021 10:45:00 AM 16.28 61.304 0.098 7.69 3.51 10.34
9/8/2021 11:00:00 AM 16.47 61.646 0.098 7.62 3.55 10.23
9/8/2021 11:15:00 AM 16.72 62.096 0.098 7.64 3.57 10.21
9/8/2021 11:30:00 AM 16.97 62.546 0.097 7.76 3.26 10.17
9/8/2021 11:45:00 AM 17.2 62.96 0.097 7.63 3.54 10.07
9/8/2021 12:00:00 PM 17.54 63.572 0.097 7.87 3.46 10.13
9/8/2021 12:15:00 PM 17.87 64.166 0.097 7.85 3.2 10.12
9/8/2021 12:30:00 PM 18.2 64.76 0.097 8.09 3.33 10.08
9/8/2021 12:45:00 PM 18.45 65.21 0.096 8.04 3.48 10
9/8/2021 1:00:00 PM 18.73 65.714 0.096 8.11 3.51 9.94
9/8/2021 1:15:00 PM 18.95 66.11 0.096 8.09 3.36 9.86
9/8/2021 1:30:00 PM 19.29 66.722 0.096 8.49 3.41 9.93
9/8/2021 1:45:00 PM 19.42 66.956 0.096 8.26 3.57 9.79
9/8/2021 2:00:00 PM 19.6 67.28 0.096 8.22 3.51 9.66
9/8/2021 2:15:00 PM 19.82 67.676 0.096 8.49 3.54 9.71
9/8/2021 2:30:00 PM 20.04 68.07201 0.096 8.56 3.3 9.71
9/8/2021 2:45:00 PM 20.16 68.288 0.096 8.62 3.41 9.54
9/8/2021 3:00:00 PM 20.17 68.306 0.095 8.37 3.59 9.53
9/8/2021 3:15:00 PM 20.21 68.378 0.095 8.26 3.51 9.33
9/8/2021 3:30:00 PM 20.38 68.684 0.096 8.6 3.42 9.5
9/8/2021 3:45:00 PM 20.41 68.738 0.095 8.63 3.51 9.46
9/8/2021 4:00:00 PM 20.36 68.648 0.096 8.49 3.49 9.33
9/8/2021 4:15:00 PM 20.43 68.774 0.096 8.5 3.49 9.25
9/8/2021 4:30:00 PM 20.32 68.576 0.096 8.1 3.62 9.01
9/8/2021 4:45:00 PM 20.24 68.432 0.097 7.7 3.44 8.76
9/8/2021 5:00:00 PM 20.19 68.342 0.097 7.54 3.65 8.52
9/8/2021 5:15:00 PM 20.14 68.252 0.098 7.39 3.55 8.39
9/8/2021 5:30:00 PM 20.1 68.18 0.099 7.32 3.7 8.2
9/8/2021 5:45:00 PM 20 68 0.098 7.29 3.73 8.16
9/8/2021 6:00:00 PM 19.88 67.784 0.099 7.23 4.43 8.12
9/8/2021 6:15:00 PM 19.81 67.658 0.098 7.24 4.87 8.11
9/8/2021 6:30:00 PM 19.7 67.46 0.098 7.27 4.03 8.12
9/8/2021 6:45:00 PM 19.64 67.352 0.099 7.26 3.72 8.1
9/8/2021 7:00:00 PM 19.58 67.244 0.1 7.27 4.57 8.13
9/8/2021 7:15:00 PM 19.47 67.046 0.1 7.24 4.51 8.08
9/8/2021 7:30:00 PM 19.45 67.01 0.099 7.29 4.78 8.14
9/8/2021 7:45:00 PM 19.32 66.776 0.099 7.22 3.92 8.09
9/8/2021 8:00:00 PM 19.25 66.65 0.1 7.23 4 8.11
9/8/2021 8:15:00 PM 19.18 66.524 0.1 7.23 4.01 8.12
9/8/2021 8:30:00 PM 19.16 66.488 0.1 7.29 4.03 8.17
9/8/2021 8:45:00 PM 19.07 66.326 0.1 7.27 3.86 8.16
9/8/2021 9:00:00 PM 18.98 66.164 0.1 7.22 3.88 8.15
9/8/2021 9:15:00 PM 18.97 66.146 0.1 7.31 5.02 8.24
9/8/2021 9:30:00 PM 18.93 66.074 0.1 7.37 4.94 8.35
9/8/2021 9:45:00 PM 18.88 65.984 0.1 7.38 4.85 8.37
9/8/2021 10:00:00 PM 18.82 65.876 0.1 7.38 4.77 8.41
9/8/2021 10:15:00 PM 18.76 65.768 0.1 7.37 4.77 8.44
9/8/2021 10:30:00 PM 18.7 65.66 0.1 7.39 4.72 8.47
9/8/2021 10:45:00 PM 18.63 65.534 0.1 7.36 4.72 8.47
9/8/2021 11:00:00 PM 18.55 65.39 0.1 7.37 5.08 8.5
9/8/2021 11:15:00 PM 18.47 65.246 0.1 7.38 5.09 8.53
9/8/2021 11:30:00 PM 18.4 65.12 0.1 7.37 4.88 8.54
9/8/2021 11:45:00 PM 18.33 64.994 0.101 7.38 5.01 8.55
9/9/2021 12:00:00 AM 18.27 64.886 0.1 7.35 5.05 8.57
9/9/2021 12:15:00 AM 18.21 64.778 0.1 7.38 4.87 8.59
9/9/2021 12:30:00 AM 18.16 64.688 0.099 7.37 5.15 8.6
9/9/2021 12:45:00 AM 18.11 64.598 0.098 7.36 4.98 8.61
9/9/2021 1:00:00 AM 18.07 64.526 0.097 7.36 5.25 8.62
9/9/2021 1:15:00 AM 18.03 64.454 0.095 7.35 5.13 8.63
9/9/2021 1:30:00 AM 17.99 64.382 0.092 7.35 5.38 8.64
9/9/2021 1:45:00 AM 17.95 64.31 0.091 7.35 5.17 8.65
9/9/2021 2:00:00 AM 17.91 64.238 0.089 7.33 5.1 8.66
9/9/2021 2:15:00 AM 17.88 64.184 0.088 7.33 5.05 8.67
9/9/2021 2:30:00 AM 17.84 64.112 0.088 7.33 5.24 8.68
9/9/2021 2:45:00 AM 17.82 64.076 0.087 7.33 5.02 8.69
9/9/2021 3:00:00 AM 17.79 64.022 0.087 7.33 5.01 8.7
9/9/2021 3:15:00 AM 17.75 63.95 0.088 7.32 4.88 8.7
9/9/2021 3:30:00 AM 17.72 63.896 0.088 7.32 5.2 8.71
9/9/2021 3:45:00 AM 17.7 63.86 0.088 7.33 4.91 8.72
9/9/2021 4:00:00 AM 17.67 63.806 0.088 7.32 5.14 8.71
9/9/2021 4:15:00 AM 17.65 63.77 0.089 7.32 5.02 8.71
9/9/2021 4:30:00 AM 17.63 63.734 0.089 7.31 4.89 8.72
9/9/2021 4:45:00 AM 17.6 63.68 0.09 7.32 4.72 8.72
9/9/2021 5:00:00 AM 17.58 63.644 0.09 7.32 5.48 8.73
9/9/2021 5:15:00 AM 17.55 63.59 0.09 7.3 4.65 8.72
9/9/2021 5:30:00 AM 17.53 63.554 0.091 7.33 4.68 8.74
9/9/2021 5:45:00 AM 17.5 63.5 0.091 7.32 4.39 8.73
9/9/2021 6:00:00 AM 17.48 63.464 0.091 7.33 4.56 8.75
9/9/2021 6:15:00 AM 17.46 63.428 0.092 7.34 4.6 8.75
9/9/2021 6:30:00 AM 17.43 63.374 0.092 7.3 4.52 8.75
9/9/2021 6:45:00 AM 17.4 63.32 0.092 7.32 4.64 8.75
9/9/2021 7:00:00 AM 17.38 63.284 0.092 7.33 4.43 8.77
9/9/2021 7:15:00 AM 17.36 63.248 0.092 7.33 4.4 8.79
9/9/2021 7:30:00 AM 17.34 63.212 0.092 7.34 4.39 8.82
9/9/2021 7:45:00 AM 17.32 63.176 0.092 7.35 4.18 8.88
9/9/2021 8:00:00 AM 17.31 63.158 0.092 7.36 4.18 8.95
9/9/2021 8:15:00 AM 17.3 63.14 0.092 7.37 4.34 9.01
9/9/2021 8:30:00 AM 17.3 63.14 0.092 7.4 4.06 9.11
9/9/2021 8:45:00 AM 17.3 63.14 0.092 7.43 4.01 9.25
9/9/2021 9:00:00 AM 17.32 63.176 0.092 7.48 4.04 9.38
9/9/2021 9:15:00 AM 17.34 63.212 0.092 7.53 4.11 9.54
9/9/2021 9:30:00 AM 17.37 63.266 0.092 7.57 4.01 9.62
9/9/2021 9:45:00 AM 17.39 63.302 0.092 7.61 3.92 9.7
9/9/2021 10:00:00 AM 17.43 63.374 0.092 7.65 4.16 9.79
9/9/2021 10:15:00 AM 17.46 63.428 0.092 7.69 3.83 9.86
9/9/2021 10:30:00 AM 17.51 63.518 0.092 7.76 4.03 9.94
9/9/2021 10:45:00 AM 17.56 63.608 0.092 7.81 3.98 10
9/9/2021 11:00:00 AM 17.62 63.716 0.092 7.9 3.84 10.07
9/9/2021 11:15:00 AM 17.7 63.86 0.092 7.99 3.77 10.15
9/9/2021 11:30:00 AM 17.78 64.004 0.092 8.09 3.86 10.18
9/9/2021 11:45:00 AM 17.85 64.13 0.091 8.16 3.92 10.2
9/9/2021 12:00:00 PM 17.94 64.292 0.091 8.32 3.83 10.24
9/9/2021 12:15:00 PM 18.02 64.436 0.091 8.38 3.81 10.2
9/9/2021 12:30:00 PM 18.07 64.526 0.091 8.41 3.89 10.15
9/9/2021 12:45:00 PM 18.14 64.652 0.091 8.51 3.93 10.16
9/9/2021 1:00:00 PM 18.26 64.868 0.091 8.67 3.91 10.22
9/9/2021 1:15:00 PM 18.38 65.084 0.091 8.73 3.84 10.21
9/9/2021 1:30:00 PM 18.49 65.282 0.091 8.81 4.03 10.19
9/9/2021 1:45:00 PM 18.59 65.462 0.091 8.88 3.94 10.16
9/9/2021 2:00:00 PM 18.69 65.642 0.091 8.89 4.01 10.15
9/9/2021 2:15:00 PM 18.76 65.768 0.091 8.9 4.03 10.09
9/9/2021 2:30:00 PM 18.79 65.82201 0.091 8.94 3.8 10.08
9/9/2021 2:45:00 PM 18.84 65.912 0.092 8.96 4.02 10.04
9/9/2021 3:00:00 PM 18.92 66.056 0.092 8.97 3.78 10.01
9/9/2021 3:15:00 PM 19.02 66.236 0.092 8.98 3.93 9.99
9/9/2021 3:30:00 PM 19.07 66.326 0.092 8.96 3.89 9.87
9/9/2021 3:45:00 PM 19.08 66.344 0.092 8.92 3.89 9.82
9/9/2021 4:00:00 PM 19.05 66.29 0.092 8.87 4 9.78
9/9/2021 4:15:00 PM 19.06 66.308 0.092 8.87 3.91 9.75
9/9/2021 4:30:00 PM 19.11 66.398 0.092 8.88 3.92 9.73
9/9/2021 4:45:00 PM 19.14 66.452 0.092 8.86 3.84 9.69
9/9/2021 5:00:00 PM 19.16 66.488 0.093 8.81 4.04 9.61
9/9/2021 5:15:00 PM 19.13 66.434 0.093 8.74 3.76 9.51
9/9/2021 5:30:00 PM 19.1 66.38 0.093 8.59 3.75 9.4
9/9/2021 5:45:00 PM 19.07 66.326 0.093 8.48 4.36 9.28
9/9/2021 6:00:00 PM 19.03 66.254 0.093 8.3 4.09 9.16
9/9/2021 6:15:00 PM 18.99 66.182 0.093 8.07 3.98 9.09
9/9/2021 6:30:00 PM 18.94 66.092 0.094 7.94 3.95 8.96
9/9/2021 6:45:00 PM 18.88 65.984 0.094 7.8 4.01 8.83
9/9/2021 7:00:00 PM 18.81 65.858 0.094 7.68 3.8 8.74
9/9/2021 7:15:00 PM 18.72 65.696 0.095 7.57 4.27 8.62
9/9/2021 7:30:00 PM 18.65 65.57 0.095 7.52 3.88 8.55
9/9/2021 7:45:00 PM 18.6 65.48 0.095 7.49 3.87 8.53
9/9/2021 8:00:00 PM 18.53 65.354 0.095 7.44 4.27 8.5
9/9/2021 8:15:00 PM 18.46 65.228 0.096 7.41 3.93 8.47
9/9/2021 8:30:00 PM 18.39 65.102 0.096 7.39 4.14 8.47
9/9/2021 8:45:00 PM 18.32 64.976 0.096 7.38 4.15 8.47
9/9/2021 9:00:00 PM 18.24 64.832 0.096 7.36 3.86 8.47
9/9/2021 9:15:00 PM 18.18 64.724 0.097 7.36 3.92 8.49
9/9/2021 9:30:00 PM 18.12 64.616 0.097 7.34 4.02 8.49
9/9/2021 9:45:00 PM 18.06 64.508 0.097 7.34 3.85 8.51
9/9/2021 10:00:00 PM 17.99 64.382 0.097 7.34 3.88 8.53
9/9/2021 10:15:00 PM 17.93 64.274 0.097 7.34 3.87 8.54
9/9/2021 10:30:00 PM 17.86 64.148 0.097 7.33 4.2 8.55
9/9/2021 10:45:00 PM 17.8 64.04 0.097 7.31 4.04 8.56
9/9/2021 11:00:00 PM 17.73 63.914 0.097 7.33 3.88 8.58
9/9/2021 11:15:00 PM 17.67 63.806 0.097 7.34 4.03 8.6
9/9/2021 11:30:00 PM 17.63 63.734 0.097 7.34 3.86 8.61
9/9/2021 11:45:00 PM 17.57 63.626 0.097 7.34 3.87 8.64
9/10/2021 12:00:00 AM 17.5 63.5 0.097 7.34 4.23 8.66
9/10/2021 12:15:00 AM 17.42 63.356 0.097 7.34 4.07 8.67
9/10/2021 12:30:00 AM 17.36 63.248 0.097 7.34 4.11 8.69
9/10/2021 12:45:00 AM 17.3 63.14 0.097 7.34 4.12 8.71
9/10/2021 1:00:00 AM 17.24 63.032 0.097 7.35 3.89 8.73
9/10/2021 1:15:00 AM 17.19 62.942 0.097 7.35 4.08 8.73
9/10/2021 1:30:00 AM 17.13 62.834 0.097 7.34 4.46 8.74
9/10/2021 1:45:00 AM 17.07 62.726 0.097 7.35 4.2 8.77
9/10/2021 2:00:00 AM 17 62.6 0.097 7.34 4.13 8.81
9/10/2021 2:15:00 AM 16.94 62.492 0.097 7.38 4.62 8.84
9/10/2021 2:30:00 AM 16.88 62.384 0.097 7.38 4.91 8.86
9/10/2021 2:45:00 AM 16.81 62.258 0.097 7.38 4.38 8.89
9/10/2021 3:00:00 AM 16.74 62.132 0.097 7.38 4.44 8.91
9/10/2021 3:15:00 AM 16.69 62.042 0.098 7.38 4.54 8.92
9/10/2021 3:30:00 AM 16.63 61.934 0.098 7.38 4.32 8.93
9/10/2021 3:45:00 AM 16.57 61.826 0.098 7.36 4.84 8.94
9/10/2021 4:00:00 AM 16.52 61.736 0.098 7.37 4.34 8.95
9/10/2021 4:15:00 AM 16.48 61.664 0.098 7.38 4.25 8.96
9/10/2021 4:30:00 AM 16.45 61.61 0.097 7.37 4.43 8.95
9/10/2021 4:45:00 AM 16.42 61.556 0.097 7.37 4.26 8.95
9/10/2021 5:00:00 AM 16.38 61.484 0.097 7.38 4.2 8.96
9/10/2021 5:15:00 AM 16.34 61.412 0.097 7.38 4.49 8.97
9/10/2021 5:30:00 AM 16.29 61.322 0.097 7.34 4.33 8.97
9/10/2021 5:45:00 AM 16.24 61.232 0.097 7.37 4.39 8.98
9/10/2021 6:00:00 AM 16.18 61.124 0.097 7.37 4.46 8.99
9/10/2021 6:15:00 AM 16.13 61.034 0.097 7.36 4.68 9
9/10/2021 6:30:00 AM 16.08 60.944 0.097 7.36 4.49 9
9/10/2021 6:45:00 AM 16.02 60.836 0.098 7.37 4.39 9.03
9/10/2021 7:00:00 AM 15.96 60.728 0.098 7.36 4.32 9.07
9/10/2021 7:15:00 AM 15.91 60.638 0.098 7.37 4.26 9.13
9/10/2021 7:30:00 AM 15.86 60.548 0.098 7.38 4.27 9.19
9/10/2021 7:45:00 AM 15.81 60.458 0.098 7.4 4.04 9.26
9/10/2021 8:00:00 AM 15.78 60.404 0.099 7.42 3.96 9.34
9/10/2021 8:15:00 AM 15.77 60.386 0.099 7.45 4.35 9.46
9/10/2021 8:30:00 AM 15.76 60.368 0.098 7.48 3.97 9.62
9/10/2021 8:45:00 AM 15.78 60.404 0.098 7.53 3.95 9.75
9/10/2021 9:00:00 AM 15.81 60.458 0.098 7.58 3.82 9.89
9/10/2021 9:15:00 AM 15.83 60.494 0.098 7.61 3.91 9.96
9/10/2021 9:30:00 AM 15.82 60.476 0.097 7.58 3.95 9.95
9/10/2021 9:45:00 AM 15.88 60.584 0.097 7.66 3.91 10.11
9/10/2021 10:00:00 AM 15.92 60.656 0.097 7.72 3.93 10.14
9/10/2021 10:15:00 AM 15.99 60.782 0.096 7.77 3.88 10.21
9/10/2021 10:30:00 AM 16.07 60.926 0.096 7.78 3.75 10.22
9/10/2021 10:45:00 AM 16.18 61.124 0.096 7.82 3.87 10.25
9/10/2021 11:00:00 AM 16.28 61.304 0.095 7.88 3.77 10.27
9/10/2021 11:15:00 AM 16.41 61.538 0.095 7.95 4.02 10.29
9/10/2021 11:30:00 AM 16.55 61.79 0.095 8.02 3.74 10.32
9/10/2021 11:45:00 AM 16.71 62.078 0.094 8.06 3.68 10.29
9/10/2021 12:00:00 PM 16.9 62.42 0.094 8.18 3.78 10.3
9/10/2021 12:15:00 PM 17.08 62.744 0.094 8.29 3.85 10.31
9/10/2021 12:30:00 PM 17.25 63.05 0.094 8.33 3.9 10.26
9/10/2021 12:45:00 PM 17.46 63.428 0.093 8.49 3.67 10.27
9/10/2021 1:00:00 PM 17.66 63.788 0.093 8.57 3.81 10.27
9/10/2021 1:15:00 PM 17.86 64.148 0.093 8.62 3.84 10.19
9/10/2021 1:30:00 PM 18.02 64.436 0.093 8.67 3.76 10.14
9/10/2021 1:45:00 PM 18.16 64.688 0.093 8.69 3.91 10.12
9/10/2021 2:00:00 PM 18.27 64.886 0.093 8.74 3.75 10.09
9/10/2021 2:15:00 PM 18.34 65.012 0.093 8.77 3.75 9.99
9/10/2021 2:30:00 PM 18.47 65.246 0.093 8.82 3.68 10.02
9/10/2021 2:45:00 PM 18.54 65.372 0.093 8.83 3.94 9.89
9/10/2021 3:00:00 PM 18.56 65.408 0.093 8.74 3.78 9.76
9/10/2021 3:15:00 PM 18.61 65.498 0.093 8.8 3.77 9.75
9/10/2021 3:30:00 PM 18.57 65.426 0.094 8.75 3.71 9.66
9/10/2021 3:45:00 PM 18.52 65.336 0.094 8.61 3.77 9.65
9/10/2021 4:00:00 PM 18.45 65.21 0.094 8.53 3.69 9.57
9/10/2021 4:15:00 PM 18.39 65.102 0.095 8.47 3.86 9.52
9/10/2021 4:30:00 PM 18.32 64.976 0.095 8.4 3.73 9.48
9/10/2021 4:45:00 PM 18.28 64.904 0.095 8.28 3.68 9.41
9/10/2021 5:00:00 PM 18.26 64.868 0.095 8.23 3.85 9.37
9/10/2021 5:15:00 PM 18.19 64.742 0.096 8.13 3.94 9.31
9/10/2021 5:30:00 PM 18.12 64.616 0.096 8.01 3.85 9.29
9/10/2021 5:45:00 PM 18.01 64.418 0.097 7.86 3.73 9.22
9/10/2021 6:00:00 PM 17.91 64.238 0.097 7.74 3.88 9.15
9/10/2021 6:15:00 PM 17.82 64.076 0.097 7.65 3.88 9.08
9/10/2021 6:30:00 PM 17.75 63.95 0.098 7.61 3.85 9.01
9/10/2021 6:45:00 PM 17.67 63.806 0.098 7.56 3.85 8.97
9/10/2021 7:00:00 PM 17.59 63.662 0.099 7.51 3.89 8.93
9/10/2021 7:15:00 PM 17.5 63.5 0.099 7.5 3.77 8.9
9/10/2021 7:30:00 PM 17.41 63.338 0.099 7.45 3.76 8.85
9/10/2021 7:45:00 PM 17.32 63.176 0.1 7.42 4.05 8.83
9/10/2021 8:00:00 PM 17.21 62.978 0.1 7.4 3.94 8.79
9/10/2021 8:15:00 PM 17.11 62.798 0.1 7.39 3.94 8.79
9/10/2021 8:30:00 PM 17 62.6 0.1 7.37 3.74 8.8
9/10/2021 8:45:00 PM 16.89 62.402 0.1 7.36 3.95 8.79
9/10/2021 9:00:00 PM 16.78 62.204 0.1 7.35 4.18 8.82
9/10/2021 9:15:00 PM 16.68 62.024 0.1 7.35 3.98 8.86
9/10/2021 9:30:00 PM 16.57 61.826 0.099 7.35 4.13 8.86
9/10/2021 9:45:00 PM 16.47 61.646 0.099 7.36 4 8.9
9/10/2021 10:00:00 PM 16.37 61.466 0.098 7.34 4.07 8.93
9/10/2021 10:15:00 PM 16.26 61.268 0.098 7.34 4.35 8.95
9/10/2021 10:30:00 PM 16.16 61.088 0.097 7.33 4.01 8.96
9/10/2021 10:45:00 PM 16.08 60.944 0.097 7.34 4.01 9
9/10/2021 11:00:00 PM 15.98 60.764 0.097 7.33 4 9.01
9/10/2021 11:15:00 PM 15.88 60.584 0.097 7.33 5.04 9.04
9/10/2021 11:30:00 PM 15.8 60.44 0.097 7.34 4.61 9.07
9/10/2021 11:45:00 PM 15.69 60.242 0.096 7.33 4.15 9.08
9/11/2021 12:00:00 AM 15.6 60.08 0.096 7.32 4.17 9.11
9/11/2021 12:15:00 AM 15.5 59.9 0.096 7.33 5.64 9.13
9/11/2021 12:30:00 AM 15.41 59.738 0.096 7.34 4.29 9.15
9/11/2021 12:45:00 AM 15.32 59.576 0.097 7.32 4.07 9.17
9/11/2021 1:00:00 AM 15.23 59.414 0.097 7.33 4.14 9.2
9/11/2021 1:15:00 AM 15.14 59.252 0.097 7.32 3.93 9.2
9/11/2021 1:30:00 AM 15.05 59.09 0.097 7.34 4.04 9.24
9/11/2021 1:45:00 AM 14.96 58.928 0.097 7.33 4.25 9.28
9/11/2021 2:00:00 AM 14.87 58.766 0.097 7.35 4.53 9.29
9/11/2021 2:15:00 AM 14.78 58.604 0.098 7.35 4.27 9.31
9/11/2021 2:30:00 AM 14.69 58.442 0.098 7.35 3.98 9.33
9/11/2021 2:45:00 AM 14.59 58.262 0.098 7.34 4.18 9.36
9/11/2021 3:00:00 AM 14.5 58.1 0.098 7.35 4.11 9.39
9/11/2021 3:15:00 AM 14.41 57.938 0.098 7.35 3.99 9.43
9/11/2021 3:30:00 AM 14.3 57.74 0.098 7.33 3.97 9.42
9/11/2021 3:45:00 AM 14.21 57.578 0.098 7.34 3.83 9.45
9/11/2021 4:00:00 AM 14.11 57.398 0.098 7.33 3.96 9.48
9/11/2021 4:15:00 AM 14.03 57.254 0.099 7.34 3.89 9.51
9/11/2021 4:30:00 AM 13.95 57.11 0.099 7.33 3.85 9.5
9/11/2021 4:45:00 AM 13.87 56.966 0.099 7.33 4.04 9.53
9/11/2021 5:00:00 AM 13.79 56.822 0.099 7.33 4.16 9.55
9/11/2021 5:15:00 AM 13.72 56.696 0.099 7.33 4 9.57
9/11/2021 5:30:00 AM 13.64 56.552 0.099 7.32 3.91 9.56
9/11/2021 5:45:00 AM 13.58 56.444 0.099 7.3 4.04 9.57
9/11/2021 6:00:00 AM 13.51 56.318 0.099 7.33 3.84 9.62
9/11/2021 6:15:00 AM 13.45 56.21 0.099 7.33 3.83 9.63
9/11/2021 6:30:00 AM 13.38 56.084 0.099 7.31 4.18 9.64
9/11/2021 6:45:00 AM 13.31 55.958 0.098 7.3 3.84 9.66
9/11/2021 7:00:00 AM 13.25 55.85 0.098 7.32 3.92 9.71
9/11/2021 7:15:00 AM 13.21 55.778 0.098 7.33 3.98 9.8
9/11/2021 7:30:00 AM 13.17 55.706 0.098 7.33 3.97 9.89
9/11/2021 7:45:00 AM 13.14 55.652 0.098 7.37 3.88 10.03
9/11/2021 8:00:00 AM 13.11 55.598 0.098 7.33 3.94 10.09
9/11/2021 8:15:00 AM 13.1 55.58 0.098 7.38 3.82 10.19
9/11/2021 8:30:00 AM 13.11 55.598 0.097 7.43 3.78 10.31
9/11/2021 8:45:00 AM 13.14 55.652 0.097 7.47 3.81 10.41
9/11/2021 9:00:00 AM 13.17 55.706 0.097 7.47 3.72 10.47
9/11/2021 9:15:00 AM 13.2 55.76 0.097 7.47 3.55 10.54
9/11/2021 9:30:00 AM 13.28 55.904 0.097 7.49 3.69 10.6
9/11/2021 9:45:00 AM 13.4 56.12 0.097 7.57 3.64 10.75
9/11/2021 10:00:00 AM 13.53 56.354 0.096 7.64 3.59 10.83
9/11/2021 10:15:00 AM 13.67 56.606 0.096 7.6 3.79 10.85
9/11/2021 10:30:00 AM 13.87 56.966 0.096 7.72 3.52 10.99
9/11/2021 10:45:00 AM 14.06 57.308 0.096 7.75 3.7 11
9/11/2021 11:00:00 AM 14.24 57.632 0.096 7.74 3.69 10.95
9/11/2021 11:15:00 AM 14.48 58.064 0.095 7.83 3.46 10.95
9/11/2021 11:30:00 AM 14.69 58.442 0.095 7.82 3.61 10.92
9/11/2021 11:45:00 AM 14.92 58.856 0.095 7.86 3.43 10.89
9/11/2021 12:00:00 PM 15.26 59.468 0.095 8.09 3.72 10.89
9/11/2021 12:15:00 PM 15.52 59.936 0.095 8.1 3.54 10.79
9/11/2021 12:30:00 PM 15.8 60.44 0.095 8.28 3.53 10.77
9/11/2021 12:45:00 PM 16.14 61.052 0.094 8.28 3.67 10.69
9/11/2021 1:00:00 PM 16.47 61.646 0.094 8.47 3.61 10.65
9/11/2021 1:15:00 PM 16.78 62.204 0.094 8.36 3.79 10.51
9/11/2021 1:30:00 PM 17.13 62.834 0.094 8.59 3.68 10.56
9/11/2021 1:45:00 PM 17.39 63.302 0.094 8.63 3.6 10.48
9/11/2021 2:00:00 PM 17.58 63.644 0.094 8.67 3.62 10.39
9/11/2021 2:15:00 PM 17.74 63.932 0.095 8.79 3.56 10.32
9/11/2021 2:30:00 PM 17.77 63.986 0.094 8.7 3.38 10.26
9/11/2021 2:45:00 PM 17.89 64.202 0.094 8.79 3.52 10.19
9/11/2021 3:00:00 PM 18 64.4 0.094 8.94 3.61 10.23
9/11/2021 3:15:00 PM 18 64.4 0.095 8.73 3.8 10.12
9/11/2021 3:30:00 PM 18.04 64.472 0.095 8.9 3.61 10.13
9/11/2021 3:45:00 PM 17.96 64.328 0.095 8.66 3.57 9.98
9/11/2021 4:00:00 PM 17.98 64.364 0.095 8.81 3.71 9.97
9/11/2021 4:15:00 PM 18.03 64.454 0.095 8.85 3.67 9.95
9/11/2021 4:30:00 PM 18.06 64.508 0.095 8.72 3.79 9.85
9/11/2021 4:45:00 PM 18.1 64.58 0.095 8.8 3.74 9.81
9/11/2021 5:00:00 PM 18.1 64.58 0.096 8.75 3.85 9.73
9/11/2021 5:15:00 PM 18.05 64.49 0.095 8.6 3.84 9.64
9/11/2021 5:30:00 PM 18.07 64.526 0.096 8.59 3.95 9.61
9/11/2021 5:45:00 PM 18 64.4 0.096 8.29 3.56 9.45
9/11/2021 6:00:00 PM 17.96 64.328 0.096 8.33 3.68 9.41
9/11/2021 6:15:00 PM 17.94 64.292 0.097 8.1 3.87 9.33
9/11/2021 6:30:00 PM 17.85 64.13 0.097 7.85 3.65 9.2
9/11/2021 6:45:00 PM 17.77 63.986 0.098 7.72 3.61 9.12
9/11/2021 7:00:00 PM 17.71 63.878 0.098 7.59 3.73 8.99
9/11/2021 7:15:00 PM 17.65 63.77 0.099 7.58 3.85 8.91
9/11/2021 7:30:00 PM 17.58 63.644 0.1 7.52 3.76 8.86
9/11/2021 7:45:00 PM 17.5 63.5 0.1 7.43 4.03 8.74
9/11/2021 8:00:00 PM 17.41 63.338 0.101 7.39 3.73 8.68
9/11/2021 8:15:00 PM 17.34 63.212 0.101 7.4 4.03 8.69
9/11/2021 8:30:00 PM 17.24 63.032 0.102 7.36 3.92 8.66
9/11/2021 8:45:00 PM 17.16 62.888 0.102 7.35 4 8.67
9/11/2021 9:00:00 PM 17.08 62.744 0.103 7.35 4.21 8.7
9/11/2021 9:15:00 PM 16.99 62.582 0.103 7.32 3.7 8.7
9/11/2021 9:30:00 PM 16.89 62.402 0.103 7.32 3.8 8.72
9/11/2021 9:45:00 PM 16.79 62.222 0.103 7.3 3.89 8.7
9/11/2021 10:00:00 PM 16.72 62.096 0.104 7.34 3.98 8.76
9/11/2021 10:15:00 PM 16.61 61.898 0.103 7.26 3.97 8.68
9/11/2021 10:30:00 PM 16.54 61.772 0.104 7.31 3.86 8.76
9/11/2021 10:45:00 PM 16.44 61.592 0.104 7.26 3.87 8.76
9/11/2021 11:00:00 PM 16.38 61.484 0.104 7.33 3.87 8.85
9/11/2021 11:15:00 PM 16.28 61.304 0.104 7.29 3.92 8.83
9/11/2021 11:30:00 PM 16.21 61.178 0.104 7.31 3.92 8.86
9/11/2021 11:45:00 PM 16.11 60.998 0.104 7.27 3.89 8.87
9/12/2021 12:00:00 AM 16.04 60.872 0.104 7.3 3.87 8.9
9/12/2021 12:15:00 AM 15.96 60.728 0.104 7.29 3.96 8.93
9/12/2021 12:30:00 AM 15.88 60.584 0.104 7.29 4.28 8.95
9/12/2021 12:45:00 AM 15.78 60.404 0.103 7.24 3.84 8.91
9/12/2021 1:00:00 AM 15.74 60.332 0.104 7.31 3.81 9.01
9/12/2021 1:15:00 AM 15.68 60.224 0.104 7.31 4.1 9.01
9/12/2021 1:30:00 AM 15.63 60.134 0.103 7.32 3.8 9.05
9/12/2021 1:45:00 AM 15.57 60.026 0.103 7.29 3.89 9.03
9/12/2021 2:00:00 AM 15.51 59.918 0.103 7.29 4.06 9.04
9/12/2021 2:15:00 AM 15.47 59.846 0.103 7.3 3.93 9.07
9/12/2021 2:30:00 AM 15.42 59.756 0.103 7.29 4.05 9.04
9/12/2021 2:45:00 AM 15.38 59.684 0.103 7.28 3.91 9.08
9/12/2021 3:00:00 AM 15.35 59.63 0.102 7.29 3.84 9.08
9/12/2021 3:15:00 AM 15.33 59.594 0.102 7.3 3.89 9.1
9/12/2021 3:30:00 AM 15.31 59.558 0.102 7.3 3.83 9.1
9/12/2021 3:45:00 AM 15.28 59.504 0.101 7.25 3.94 9.05
9/12/2021 4:00:00 AM 15.28 59.504 0.101 7.29 4.34 9.11
9/12/2021 4:15:00 AM 15.26 59.468 0.101 7.3 3.88 9.12
9/12/2021 4:30:00 AM 15.23 59.414 0.101 7.27 3.93 9.08
9/12/2021 4:45:00 AM 15.2 59.36 0.101 7.3 4.07 9.14
9/12/2021 5:00:00 AM 15.17 59.306 0.101 7.29 4.04 9.13
9/12/2021 5:15:00 AM 15.15 59.27 0.101 7.24 4.08 9.13
9/12/2021 5:30:00 AM 15.13 59.234 0.101 7.29 3.85 9.14
9/12/2021 5:45:00 AM 15.12 59.216 0.101 7.28 3.88 9.12
9/12/2021 6:00:00 AM 15.12 59.216 0.102 7.29 4.19 9.14
9/12/2021 6:15:00 AM 15.13 59.234 0.102 7.31 4.08 9.15
9/12/2021 6:30:00 AM 15.12 59.216 0.102 7.31 3.88 9.14
9/12/2021 6:45:00 AM 15.11 59.198 0.102 7.28 3.73 9.14
9/12/2021 7:00:00 AM 15.1 59.18 0.102 7.28 3.98 9.14
9/12/2021 7:15:00 AM 15.08 59.144 0.102 7.32 3.96 9.23
9/12/2021 7:30:00 AM 15.07 59.126 0.102 7.29 3.85 9.28
9/12/2021 7:45:00 AM 15.08 59.144 0.102 7.31 3.82 9.4
9/12/2021 8:00:00 AM 15.09 59.162 0.102 7.36 3.91 9.54
9/12/2021 8:15:00 AM 15.12 59.216 0.102 7.38 3.82 9.69
9/12/2021 8:30:00 AM 15.14 59.252 0.102 7.37 4.25 9.78
9/12/2021 8:45:00 AM 15.18 59.324 0.102 7.39 3.73 9.95
9/12/2021 9:00:00 AM 15.23 59.414 0.101 7.42 4.52 10.06
9/12/2021 9:15:00 AM 15.3 59.54 0.101 7.53 3.9 10.29
9/12/2021 9:30:00 AM 15.37 59.666 0.101 7.61 3.7 10.45
9/12/2021 9:45:00 AM 15.47 59.846 0.101 7.63 3.78 10.57
9/12/2021 10:00:00 AM 15.59 60.062 0.1 7.74 3.74 10.61
9/12/2021 10:15:00 AM 15.74 60.332 0.1 7.95 3.63 10.79
9/12/2021 10:30:00 AM 15.88 60.584 0.099 7.79 3.86 10.74
9/12/2021 10:45:00 AM 16.06 60.908 0.098 8.07 3.7 10.87
9/12/2021 11:00:00 AM 16.28 61.304 0.098 8.18 3.69 10.84
9/12/2021 11:15:00 AM 16.5 61.7 0.098 8.35 3.66 10.88
9/12/2021 11:30:00 AM 16.7 62.06 0.098 8.39 3.69 10.8
9/12/2021 11:45:00 AM 17.01 62.618 0.097 8.78 3.78 10.96
9/12/2021 12:00:00 PM 17.22 62.996 0.097 8.58 3.93 10.8
9/12/2021 12:15:00 PM 17.53 63.554 0.096 9.06 3.83 10.95
9/12/2021 12:30:00 PM 17.64 63.752 0.096 8.87 3.69 10.69
9/12/2021 12:45:00 PM 17.82 64.076 0.096 9 3.79 10.64
9/12/2021 1:00:00 PM 17.97 64.346 0.096 9.03 3.9 10.51
9/12/2021 1:15:00 PM 17.99 64.382 0.095 8.82 3.72 10.41
9/12/2021 1:30:00 PM 18.21 64.778 0.096 9.28 3.63 10.63
9/12/2021 1:45:00 PM 18.31 64.958 0.096 9.21 3.71 10.49
9/12/2021 2:00:00 PM 18.46 65.228 0.097 9.37 3.68 10.41
9/12/2021 2:15:00 PM 18.51 65.318 0.096 9.19 3.81 10.29
9/12/2021 2:30:00 PM 18.55 65.39 0.096 9.18 3.78 10.04
9/12/2021 2:45:00 PM 18.66 65.588 0.097 9.31 3.69 9.97
9/12/2021 3:00:00 PM 18.62 65.516 0.096 9.12 3.84 9.79
9/12/2021 3:15:00 PM 18.76 65.768 0.097 9.29 3.97 9.95
9/12/2021 3:30:00 PM 18.76 65.768 0.097 9.12 3.83 9.83
9/12/2021 3:45:00 PM 18.85 65.93 0.097 9.23 3.96 9.88
9/12/2021 4:00:00 PM 18.86 65.948 0.096 9.17 3.79 9.85
9/12/2021 4:15:00 PM 18.95 66.11 0.097 9.29 3.89 9.95
9/12/2021 4:30:00 PM 19.02 66.236 0.097 9.3 3.83 9.95
9/12/2021 4:45:00 PM 19.01 66.218 0.096 9.34 3.72 9.81
9/12/2021 5:00:00 PM 19.07 66.326 0.097 9.29 3.91 9.78
9/12/2021 5:15:00 PM 19.08 66.344 0.097 9.2 3.84 9.61
9/12/2021 5:30:00 PM 19.06 66.308 0.097 9.09 3.66 9.4
9/12/2021 5:45:00 PM 18.95 66.11 0.097 8.81 3.76 9.12
9/12/2021 6:00:00 PM 18.92 66.056 0.098 8.74 3.86 8.96
9/12/2021 6:15:00 PM 18.88 65.984 0.098 8.38 3.69 8.79
9/12/2021 6:30:00 PM 18.85 65.93 0.099 8.08 3.83 8.7
9/12/2021 6:45:00 PM 18.81 65.858 0.099 7.86 3.76 8.59
9/12/2021 7:00:00 PM 18.83 65.894 0.1 7.77 3.77 8.51
9/12/2021 7:15:00 PM 18.82 65.876 0.1 7.67 4.02 8.46
9/12/2021 7:30:00 PM 18.79 65.82201 0.101 7.56 3.98 8.4
9/12/2021 7:45:00 PM 18.76 65.768 0.102 7.53 4.15 8.36
9/12/2021 8:00:00 PM 18.73 65.714 0.103 7.45 3.96 8.31
9/12/2021 8:15:00 PM 18.68 65.624 0.104 7.37 3.96 8.28
9/12/2021 8:30:00 PM 18.63 65.534 0.105 7.36 3.86 8.27
9/12/2021 8:45:00 PM 18.61 65.498 0.105 7.41 4.45 8.27
9/12/2021 9:00:00 PM 18.57 65.426 0.106 7.37 3.96 8.31
9/12/2021 9:15:00 PM 18.52 65.336 0.106 7.35 3.9 8.3
9/12/2021 9:30:00 PM 18.49 65.282 0.107 7.31 3.99 8.26
9/12/2021 9:45:00 PM 18.46 65.228 0.107 7.33 3.89 8.32
9/12/2021 10:00:00 PM 18.39 65.102 0.107 7.24 3.95 8.23
9/12/2021 10:15:00 PM 18.39 65.102 0.107 7.28 3.96 8.32
9/12/2021 10:30:00 PM 18.36 65.048 0.107 7.27 3.87 8.31
9/12/2021 10:45:00 PM 18.33 64.994 0.107 7.24 3.99 8.3
9/12/2021 11:00:00 PM 18.3 64.94 0.107 7.28 4.05 8.3
9/12/2021 11:15:00 PM 18.25 64.85 0.107 7.18 3.98 8.24
9/12/2021 11:30:00 PM 18.25 64.85 0.107 7.25 3.97 8.33
9/12/2021 11:45:00 PM 18.23 64.814 0.108 7.3 3.72 8.39
9/13/2021 12:00:00 AM 18.11 64.598 0.107 7.19 4.14 8.25
9/13/2021 12:15:00 AM 18.15 64.67 0.108 7.27 3.94 8.35
9/13/2021 12:30:00 AM 18.08 64.544 0.108 7.22 3.98 8.35
9/13/2021 12:45:00 AM 18.04 64.472 0.108 7.24 3.81 8.32
9/13/2021 1:00:00 AM 18.01 64.418 0.108 7.29 4.29 8.43
9/13/2021 1:15:00 AM 17.96 64.328 0.108 7.27 4.14 8.39
9/13/2021 1:30:00 AM 17.93 64.274 0.108 7.25 3.86 8.36
9/13/2021 1:45:00 AM 17.91 64.238 0.108 7.28 9.08 8.45
9/13/2021 2:00:00 AM 17.87 64.166 0.108 7.27 4.03 8.44
9/13/2021 2:15:00 AM 17.86 64.148 0.108 7.25 3.77 8.43
9/13/2021 2:30:00 AM 17.8 64.04 0.108 7.23 4 8.44
9/13/2021 2:45:00 AM 17.79 64.022 0.108 7.26 4.01 8.44
9/13/2021 3:00:00 AM 17.77 63.986 0.108 7.29 4.05 8.48
9/13/2021 3:15:00 AM 17.75 63.95 0.108 7.29 3.87 8.49
9/13/2021 3:30:00 AM 17.71 63.878 0.108 7.29 3.82 8.5
9/13/2021 3:45:00 AM 17.67 63.806 0.108 7.26 3.9 8.51
9/13/2021 4:00:00 AM 17.59 63.662 0.108 7.29 4.02 8.49
9/13/2021 4:15:00 AM 17.62 63.716 0.108 7.31 3.91 8.55
9/13/2021 4:30:00 AM 17.55 63.59 0.108 7.25 3.86 8.49
9/13/2021 4:45:00 AM 17.52 63.536 0.108 7.28 3.83 8.5
9/13/2021 5:00:00 AM 17.54 63.572 0.108 7.33 3.81 8.59
9/13/2021 5:15:00 AM 17.49 63.482 0.107 7.29 3.89 8.54
9/13/2021 5:30:00 AM 17.47 63.446 0.107 7.3 3.98 8.56
9/13/2021 5:45:00 AM 17.43 63.374 0.107 7.27 4.2 8.52
9/13/2021 6:00:00 AM 17.42 63.356 0.107 7.29 4.21 8.54
9/13/2021 6:15:00 AM 17.43 63.374 0.107 7.31 4.04 8.56
9/13/2021 6:30:00 AM 17.41 63.338 0.107 7.32 3.87 8.59
9/13/2021 6:45:00 AM 17.39 63.302 0.107 7.32 3.99 8.59
9/13/2021 7:00:00 AM 17.38 63.284 0.107 7.35 3.77 8.65
9/13/2021 7:15:00 AM 17.31 63.158 0.107 7.29 3.98 8.65
9/13/2021 7:30:00 AM 17.32 63.176 0.107 7.35 3.94 8.74
9/13/2021 7:45:00 AM 17.29 63.122 0.106 7.35 3.82 8.82
9/13/2021 8:00:00 AM 17.28 63.104 0.106 7.36 3.73 8.97
9/13/2021 8:15:00 AM 17.3 63.14 0.106 7.43 3.96 9.12
9/13/2021 8:30:00 AM 17.31 63.158 0.106 7.47 4.21 9.28
9/13/2021 8:45:00 AM 17.29 63.122 0.105 7.4 3.95 9.36
9/13/2021 9:00:00 AM 17.35 63.23 0.105 7.52 4 9.64
9/13/2021 9:15:00 AM 17.37 63.266 0.104 7.58 3.95 9.79
9/13/2021 9:30:00 AM 17.39 63.302 0.104 7.58 4.17 9.85
9/13/2021 9:45:00 AM 17.48 63.464 0.103 7.75 4 10.11
9/13/2021 10:00:00 AM 17.55 63.59 0.103 7.86 3.87 10.26
9/13/2021 10:15:00 AM 17.62 63.716 0.103 8.06 3.85 10.4
9/13/2021 10:30:00 AM 17.71 63.878 0.102 8.24 3.99 10.51
9/13/2021 10:45:00 AM 17.82 64.076 0.102 8.38 3.91 10.51
9/13/2021 11:00:00 AM 17.87 64.166 0.101 8.34 3.81 10.47
9/13/2021 11:15:00 AM 18 64.4 0.1 8.71 3.67 10.58
9/13/2021 11:30:00 AM 18.11 64.598 0.1 8.74 3.8 10.67
9/13/2021 11:45:00 AM 18.21 64.778 0.1 8.95 3.77 10.72
9/13/2021 12:00:00 PM 18.29 64.922 0.099 8.99 3.79 10.71
9/13/2021 12:15:00 PM 18.44 65.192 0.098 9.14 3.75 10.67
9/13/2021 12:30:00 PM 18.53 65.354 0.098 9.09 3.86 10.56
9/13/2021 12:45:00 PM 18.75 65.75 0.098 9.26 3.79 10.64
9/13/2021 1:00:00 PM 18.81 65.858 0.098 8.99 3.87 10.46
9/13/2021 1:15:00 PM 19 66.2 0.098 9.3 3.82 10.44
9/13/2021 1:30:00 PM 19.27 66.686 0.098 9.38 3.8 10.42
9/13/2021 1:45:00 PM 19.51 67.118 0.098 9.41 3.92 10.27
9/13/2021 2:00:00 PM 19.86 67.748 0.098 9.52 3.67 10.46
9/13/2021 2:15:00 PM 20.11 68.198 0.098 9.58 3.78 10.4
9/13/2021 2:30:00 PM 20.23 68.414 0.098 9.57 3.96 10.28
9/13/2021 2:45:00 PM 20.32 68.576 0.098 9.57 3.73 10.15
9/13/2021 3:00:00 PM 20.4 68.72 0.099 9.55 4.02 10.06
9/13/2021 3:15:00 PM 20.39 68.702 0.099 9.56 3.92 10.05
9/13/2021 3:30:00 PM 20.37 68.666 0.099 9.55 3.87 10
9/13/2021 3:45:00 PM 20.27 68.486 0.098 9.45 3.78 9.87
9/13/2021 4:00:00 PM 20.28 68.504 0.099 9.49 3.89 9.82
9/13/2021 4:15:00 PM 20.25 68.45 0.099 9.48 3.96 9.74
9/13/2021 4:30:00 PM 20.16 68.288 0.098 9.43 3.93 9.61
9/13/2021 4:45:00 PM 20.11 68.198 0.098 9.39 3.87 9.49
9/13/2021 5:00:00 PM 20.1 68.18 0.098 9.37 3.97 9.42
9/13/2021 5:15:00 PM 20.1 68.18 0.098 9.36 3.91 9.37
9/13/2021 5:30:00 PM 20.05 68.09 0.098 9.26 3.99 9.27
9/13/2021 5:45:00 PM 20.03 68.054 0.098 9.23 3.95 9.18
9/13/2021 6:00:00 PM 20 68 0.099 9.18 3.86 9.13
9/13/2021 6:15:00 PM 19.9 67.82 0.099 9.04 4.07 9.02
9/13/2021 6:30:00 PM 19.8 67.64 0.099 8.88 3.92 8.94
9/13/2021 6:45:00 PM 19.65 67.37 0.1 8.67 3.94 8.8
9/13/2021 7:00:00 PM 19.54 67.172 0.101 8.5 3.83 8.71
9/13/2021 7:15:00 PM 19.39 66.902 0.101 8.12 3.91 8.57
9/13/2021 7:30:00 PM 19.27 66.686 0.102 7.86 3.95 8.47
9/13/2021 7:45:00 PM 19.18 66.524 0.102 7.74 3.87 8.39
9/13/2021 8:00:00 PM 19.09 66.362 0.103 7.63 4.07 8.33
9/13/2021 8:15:00 PM 19.04 66.272 0.104 7.62 4.02 8.31
9/13/2021 8:30:00 PM 18.98 66.164 0.104 7.56 3.96 8.28
9/13/2021 8:45:00 PM 18.91 66.038 0.105 7.53 4 8.28
9/13/2021 9:00:00 PM 18.86 65.948 0.106 7.52 4.11 8.27
9/13/2021 9:15:00 PM 18.79 65.82201 0.106 7.47 4.15 8.25
9/13/2021 9:30:00 PM 18.74 65.732 0.107 7.49 4.19 8.28
9/13/2021 9:45:00 PM 18.65 65.57 0.108 7.44 4.41 8.28
9/13/2021 10:00:00 PM 18.59 65.462 0.108 7.45 4.05 8.25
9/13/2021 10:15:00 PM 18.51 65.318 0.109 7.44 4.06 8.31
9/13/2021 10:30:00 PM 18.44 65.192 0.109 7.42 3.99 8.3
9/13/2021 10:45:00 PM 18.36 65.048 0.109 7.43 4.02 8.34
9/13/2021 11:00:00 PM 18.28 64.904 0.109 7.38 3.99 8.33
9/13/2021 11:15:00 PM 18.21 64.778 0.109 7.37 3.98 8.36
9/13/2021 11:30:00 PM 18.12 64.616 0.109 7.38 4.04 8.36
9/13/2021 11:45:00 PM 18.06 64.508 0.11 7.4 3.95 8.4
9/14/2021 12:00:00 AM 18 64.4 0.11 7.4 4.44 8.41
9/14/2021 12:15:00 AM 17.94 64.292 0.11 7.39 4.02 8.41
9/14/2021 12:30:00 AM 17.87 64.166 0.11 7.36 3.97 8.41
9/14/2021 12:45:00 AM 17.84 64.112 0.11 7.39 3.99 8.46
9/14/2021 1:00:00 AM 17.8 64.04 0.11 7.41 4.11 8.49
9/14/2021 1:15:00 AM 17.73 63.914 0.11 7.35 4.07 8.44
9/14/2021 1:30:00 AM 17.7 63.86 0.109 7.43 4.24 8.53
9/14/2021 1:45:00 AM 17.6 63.68 0.109 7.34 4.19 8.49
9/14/2021 2:00:00 AM 17.56 63.608 0.109 7.36 3.98 8.5
9/14/2021 2:15:00 AM 17.51 63.518 0.109 7.34 4.24 8.53
9/14/2021 2:30:00 AM 17.46 63.428 0.109 7.35 3.91 8.53
9/14/2021 2:45:00 AM 17.41 63.338 0.109 7.36 4.08 8.56
9/14/2021 3:00:00 AM 17.37 63.266 0.109 7.37 4.1 8.57
9/14/2021 3:15:00 AM 17.31 63.158 0.109 7.33 4.2 8.57
9/14/2021 3:30:00 AM 17.28 63.104 0.109 7.34 4 8.58
9/14/2021 3:45:00 AM 17.23 63.014 0.108 7.35 3.92 8.53
9/14/2021 4:00:00 AM 17.2 62.96 0.109 7.33 3.95 8.57
9/14/2021 4:15:00 AM 17.18 62.924 0.109 7.37 4.26 8.59
9/14/2021 4:30:00 AM 17.13 62.834 0.108 7.34 4.02 8.59
9/14/2021 4:45:00 AM 17.12 62.816 0.108 7.38 4.07 8.66
9/14/2021 5:00:00 AM 17.09 62.762 0.108 7.37 4.04 8.62
9/14/2021 5:15:00 AM 17.06 62.708 0.108 7.36 3.94 8.63
9/14/2021 5:30:00 AM 17.03 62.654 0.108 7.36 4.02 8.64
9/14/2021 5:45:00 AM 17.01 62.618 0.108 7.35 4 8.67
9/14/2021 6:00:00 AM 16.98 62.564 0.108 7.34 4.65 8.67
9/14/2021 6:15:00 AM 16.95 62.51 0.108 7.37 4.13 8.69
9/14/2021 6:30:00 AM 16.91 62.438 0.108 7.34 4.05 8.66
9/14/2021 6:45:00 AM 16.9 62.42 0.108 7.33 4.03 8.68
9/14/2021 7:00:00 AM 16.88 62.384 0.108 7.34 4.06 8.64
9/14/2021 7:15:00 AM 16.87 62.366 0.108 7.35 4.23 8.77
9/14/2021 7:30:00 AM 16.86 62.348 0.108 7.35 4 8.84
9/14/2021 7:45:00 AM 16.85 62.33 0.108 7.38 3.96 8.97
9/14/2021 8:00:00 AM 16.84 62.312 0.108 7.38 4.48 9.04
9/14/2021 8:15:00 AM 16.84 62.312 0.107 7.39 4.32 9.21
9/14/2021 8:30:00 AM 16.85 62.33 0.107 7.49 3.86 9.44
9/14/2021 8:45:00 AM 16.86 62.348 0.106 7.51 3.89 9.6
9/14/2021 9:00:00 AM 16.9 62.42 0.106 7.59 3.97 9.78
9/14/2021 9:15:00 AM 16.95 62.51 0.106 7.65 3.8 9.98
9/14/2021 9:30:00 AM 17.01 62.618 0.105 7.7 3.78 10.13
9/14/2021 9:45:00 AM 17.07 62.726 0.105 7.71 3.87 10.26
9/14/2021 10:00:00 AM 17.2 62.96 0.105 7.87 3.96 10.41
9/14/2021 10:15:00 AM 17.25 63.05 0.104 7.7 3.96 10.32
9/14/2021 10:30:00 AM 17.42 63.356 0.103 8.1 3.87 10.54
9/14/2021 10:45:00 AM 17.54 63.572 0.103 8.09 3.78 10.57
9/14/2021 11:00:00 AM 17.66 63.788 0.102 8.1 3.87 10.54
9/14/2021 11:15:00 AM 17.89 64.202 0.102 8.58 3.85 10.69
9/14/2021 11:30:00 AM 18.01 64.418 0.102 8.46 3.81 10.62
9/14/2021 11:45:00 AM 18.18 64.724 0.101 8.66 3.72 10.68
9/14/2021 12:00:00 PM 18.52 65.336 0.101 8.93 3.91 10.68
9/14/2021 12:15:00 PM 18.69 65.642 0.1 9.01 3.85 10.66
9/14/2021 12:30:00 PM 19 66.2 0.1 9.15 3.86 10.68
9/14/2021 12:45:00 PM 19.09 66.362 0.099 8.86 3.93 10.51
9/14/2021 1:00:00 PM 19.31 66.758 0.098 9.27 3.94 10.42
9/14/2021 1:15:00 PM 19.59 67.262 0.1 9.31 3.84 10.47
9/14/2021 1:30:00 PM 19.69 67.442 0.099 9.4 3.87 10.33
9/14/2021 1:45:00 PM 19.8 67.64 0.1 9.38 4.84 10.34
9/14/2021 2:00:00 PM 19.88 67.784 0.1 9.29 3.76 10.24
9/14/2021 2:15:00 PM 20.19 68.342 0.101 9.54 3.82 10.31
9/14/2021 2:30:00 PM 20.15 68.27 0.099 9.37 3.87 10.08
9/14/2021 2:45:00 PM 20.29 68.522 0.098 9.49 3.93 10.21
9/14/2021 3:00:00 PM 20.51 68.918 0.1 9.56 3.86 10.15
9/14/2021 3:15:00 PM 20.68 69.224 0.101 9.57 3.84 10.11
9/14/2021 3:30:00 PM 20.66 69.188 0.1 9.42 3.89 9.81
9/14/2021 3:45:00 PM 20.75 69.35 0.099 9.49 3.89 9.81
9/14/2021 4:00:00 PM 20.73 69.314 0.098 9.27 3.78 9.6
9/14/2021 4:15:00 PM 20.92 69.656 0.099 9.49 3.85 9.62
9/14/2021 4:30:00 PM 21 69.8 0.1 9.56 4.19 9.66
9/14/2021 4:45:00 PM 20.85 69.53 0.099 9.34 3.73 9.34
9/14/2021 5:00:00 PM 20.83 69.494 0.099 9.28 4.01 9.29
9/14/2021 5:15:00 PM 20.85 69.53 0.099 9.3 3.98 9.24
9/14/2021 5:30:00 PM 20.78 69.404 0.099 9.23 3.83 9.05
9/14/2021 5:45:00 PM 20.72 69.296 0.099 8.83 3.88 8.84
9/14/2021 6:00:00 PM 20.74 69.332 0.1 9.2 4.08 8.87
9/14/2021 6:15:00 PM 20.57 69.026 0.1 8.98 3.88 8.69
9/14/2021 6:30:00 PM 20.53 68.954 0.1 8.71 3.87 8.53
9/14/2021 6:45:00 PM 20.48 68.864 0.101 8.63 3.89 8.52
9/14/2021 7:00:00 PM 20.43 68.774 0.102 8.49 3.9 8.41
9/14/2021 7:15:00 PM 20.3 68.54 0.101 8.21 4.08 8.29
9/14/2021 7:30:00 PM 20.24 68.432 0.103 7.74 3.85 8.15
9/14/2021 7:45:00 PM 20.19 68.342 0.104 7.78 4.03 8.12
9/14/2021 8:00:00 PM 20.07 68.126 0.104 7.57 3.89 8.05
9/14/2021 8:15:00 PM 19.91 67.838 0.105 7.46 3.89 7.98
9/14/2021 8:30:00 PM 19.95 67.91 0.106 7.5 3.81 8.01
9/14/2021 8:45:00 PM 19.84 67.712 0.107 7.39 3.89 7.94
9/14/2021 9:00:00 PM 19.8 67.64 0.107 7.44 3.9 7.97
9/14/2021 9:15:00 PM 19.73 67.514 0.108 7.43 3.87 8
9/14/2021 9:30:00 PM 19.67 67.406 0.109 7.4 4.06 7.99
9/14/2021 9:45:00 PM 19.58 67.244 0.108 7.44 3.89 8.01
9/14/2021 10:00:00 PM 19.5 67.1 0.109 7.41 3.88 8.05
9/14/2021 10:15:00 PM 19.47 67.046 0.11 7.39 4.14 8.07
9/14/2021 10:30:00 PM 19.39 66.902 0.11 7.37 3.93 8.07
9/14/2021 10:45:00 PM 19.32 66.776 0.11 7.38 3.83 8.06
9/14/2021 11:00:00 PM 19.26 66.668 0.11 7.4 3.95 8
9/14/2021 11:15:00 PM 19.18 66.524 0.11 7.37 3.9 8.11
9/14/2021 11:30:00 PM 19.13 66.434 0.11 7.36 3.92 8.16
9/14/2021 11:45:00 PM 19.05 66.29 0.11 7.35 4.3 8.16
9/15/2021 12:00:00 AM 19 66.2 0.11 7.37 4 8.19
9/15/2021 12:15:00 AM 18.9 66.02 0.11 7.32 3.97 8.16
9/15/2021 12:30:00 AM 18.86 65.948 0.11 7.37 3.88 8.2
9/15/2021 12:45:00 AM 18.81 65.858 0.111 7.36 3.89 8.21
9/15/2021 1:00:00 AM 18.72 65.696 0.11 7.29 3.81 8.19
9/15/2021 1:15:00 AM 18.64 65.552 0.111 7.3 3.87 8.17
9/15/2021 1:30:00 AM 18.59 65.462 0.111 7.29 3.88 8.18
9/15/2021 1:45:00 AM 18.55 65.39 0.111 7.33 4.02 8.25
9/15/2021 2:00:00 AM 18.47 65.246 0.111 7.28 3.89 8.17
9/15/2021 2:15:00 AM 18.46 65.228 0.111 7.35 3.72 8.28
9/15/2021 2:30:00 AM 18.41 65.138 0.11 7.36 4.43 8.29
9/15/2021 2:45:00 AM 18.38 65.084 0.11 7.35 3.83 8.3
9/15/2021 3:00:00 AM 18.35 65.03 0.11 7.39 3.96 8.34
9/15/2021 3:15:00 AM 18.3 64.94 0.11 7.32 3.97 8.31
9/15/2021 3:30:00 AM 18.28 64.904 0.11 7.39 3.91 8.34
9/15/2021 3:45:00 AM 18.26 64.868 0.11 7.38 3.96 8.36
9/15/2021 4:00:00 AM 18.24 64.832 0.11 7.38 4.01 8.36
9/15/2021 4:15:00 AM 18.2 64.76 0.11 7.38 4.02 8.35
9/15/2021 4:30:00 AM 18.18 64.724 0.11 7.38 4 8.36
9/15/2021 4:45:00 AM 18.16 64.688 0.11 7.36 3.99 8.36
9/15/2021 5:00:00 AM 18.15 64.67 0.11 7.4 4.04 8.4
9/15/2021 5:15:00 AM 18.12 64.616 0.11 7.34 3.99 8.33
9/15/2021 5:30:00 AM 18.1 64.58 0.11 7.33 3.91 8.37
9/15/2021 5:45:00 AM 18.06 64.508 0.109 7.34 4.03 8.28
9/15/2021 6:00:00 AM 18.04 64.472 0.109 7.37 4.01 8.38
9/15/2021 6:15:00 AM 18.05 64.49 0.109 7.36 3.96 8.39
9/15/2021 6:30:00 AM 18.05 64.49 0.108 7.37 4.2 8.4
9/15/2021 6:45:00 AM 18.05 64.49 0.108 7.36 4.07 8.38
9/15/2021 7:00:00 AM 18.03 64.454 0.109 7.35 4.35 8.38
9/15/2021 7:15:00 AM 18.01 64.418 0.109 7.33 4.08 8.42
9/15/2021 7:30:00 AM 18 64.4 0.109 7.38 4 8.51
9/15/2021 7:45:00 AM 18 64.4 0.109 7.41 4.02 8.67
9/15/2021 8:00:00 AM 17.98 64.364 0.109 7.38 4.02 8.77
9/15/2021 8:15:00 AM 18 64.4 0.109 7.48 4.12 8.98
9/15/2021 8:30:00 AM 18.04 64.472 0.109 7.51 4 9.17
9/15/2021 8:45:00 AM 18.08 64.544 0.108 7.56 3.92 9.34
9/15/2021 9:00:00 AM 18.12 64.616 0.108 7.57 3.95 9.48
9/15/2021 9:15:00 AM 18.2 64.76 0.107 7.68 3.87 9.68
9/15/2021 9:30:00 AM 18.27 64.886 0.107 7.72 3.81 9.79
9/15/2021 9:45:00 AM 18.38 65.084 0.106 7.79 3.94 9.87
9/15/2021 10:00:00 AM 18.55 65.39 0.106 8.02 3.92 10.08
9/15/2021 10:15:00 AM 18.69 65.642 0.105 8.14 3.82 10.2
9/15/2021 10:30:00 AM 18.76 65.768 0.105 8.09 3.8 10.16
9/15/2021 10:45:00 AM 18.96 66.128 0.104 8.42 3.78 10.28
9/15/2021 11:00:00 AM 19.15 66.47 0.104 8.48 3.76 10.34
9/15/2021 11:15:00 AM 19.32 66.776 0.103 8.67 3.62 10.38
9/15/2021 11:30:00 AM 19.52 67.136 0.103 8.65 3.76 10.29
9/15/2021 11:45:00 AM 19.8 67.64 0.102 8.97 3.83 10.38
9/15/2021 12:00:00 PM 19.99 67.982 0.101 8.94 4.02 10.37
9/15/2021 12:15:00 PM 20.36 68.648 0.101 9.17 3.77 10.39
9/15/2021 12:30:00 PM 20.7 69.26 0.1 9.3 3.85 10.29
9/15/2021 12:45:00 PM 20.93 69.674 0.101 9.28 3.78 10.13
9/15/2021 1:00:00 PM 21.18 70.124 0.099 9.42 3.88 10.08
9/15/2021 1:15:00 PM 21.56 70.808 0.1 9.52 3.76 10.16
9/15/2021 1:30:00 PM 21.79 71.222 0.101 9.54 3.68 10.1
9/15/2021 1:45:00 PM 21.88 71.384 0.101 9.54 3.86 9.89
9/15/2021 2:00:00 PM 22 71.6 0.101 9.55 3.78 9.83
9/15/2021 2:15:00 PM 21.97 71.546 0.1 9.51 3.76 9.61
9/15/2021 2:30:00 PM 21.88 71.384 0.1 9.43 3.9 9.3
9/15/2021 2:45:00 PM 21.76 71.168 0.1 9.24 3.9 8.92
9/15/2021 3:00:00 PM 21.74 71.132 0.1 9.34 3.78 8.93
9/15/2021 3:15:00 PM 21.66 70.988 0.1 9.21 3.75 8.77
9/15/2021 3:30:00 PM 21.63 70.934 0.1 9.17 3.85 8.56
9/15/2021 3:45:00 PM 21.33 70.394 0.094 8.4 5.8 8.26
9/15/2021 4:00:00 PM 21.15 70.07 0.094 7.85 5.78 8.05
9/15/2021 4:15:00 PM 21.19 70.142 0.097 8.25 18.35 8.06
9/15/2021 4:30:00 PM 21.01 69.818 0.097 7.7 12.5 7.93
9/15/2021 4:45:00 PM 21.03 69.854 0.096 7.5 9.21 7.89
9/15/2021 5:00:00 PM 21.1 69.98 0.097 7.67 6.52 7.99
9/15/2021 5:15:00 PM 20.83 69.494 0.097 7.31 5.86 7.8
9/15/2021 5:30:00 PM 20.78 69.404 0.098 7.4 5.67 7.87
9/15/2021 5:45:00 PM 20.67 69.206 0.099 7.31 5.19 7.76
9/15/2021 6:00:00 PM 20.57 69.026 0.099 7.33 5.12 7.89
9/15/2021 6:15:00 PM 20.42 68.756 0.101 7.23 4.81 7.83
9/15/2021 6:30:00 PM 20.38 68.684 0.101 7.31 4.49 7.94
9/15/2021 6:45:00 PM 20.31 68.558 0.101 7.29 4.4 7.99
9/15/2021 7:00:00 PM 20.2 68.36 0.102 7.26 4.8 7.93
9/15/2021 7:15:00 PM 20.12 68.216 0.101 7.26 4.44 7.88
9/15/2021 7:30:00 PM 20.15 68.27 0.102 7.36 4.9 7.93
9/15/2021 7:45:00 PM 20.11 68.198 0.102 7.36 5.25 7.94
9/15/2021 8:00:00 PM 20.05 68.09 0.102 7.36 5.59 7.93
9/15/2021 8:15:00 PM 20.03 68.054 0.102 7.37 4.84 7.95
9/15/2021 8:30:00 PM 20.01 68.018 0.102 7.39 5.23 7.97
9/15/2021 8:45:00 PM 19.95 67.91 0.103 7.36 5.06 7.97
9/15/2021 9:00:00 PM 19.88 67.784 0.103 7.36 5.39 7.98
9/15/2021 9:15:00 PM 19.84 67.712 0.103 7.38 5.58 8.02
9/15/2021 9:30:00 PM 19.78 67.604 0.103 7.39 5.86 8.06
9/15/2021 9:45:00 PM 19.74 67.532 0.104 7.4 6.59 8.11
9/15/2021 10:00:00 PM 19.68 67.424 0.104 7.44 7.13 8.17
9/15/2021 10:15:00 PM 19.6 67.28 0.104 7.45 6.76 8.23
9/15/2021 10:30:00 PM 19.5 67.1 0.104 7.43 7.1 8.27
9/15/2021 10:45:00 PM 19.4 66.92 0.103 7.46 7.07 8.32
9/15/2021 11:00:00 PM 19.3 66.74 0.102 7.44 7.21 8.34
9/15/2021 11:15:00 PM 19.2 66.56 0.101 7.43 7.09 8.36
9/15/2021 11:30:00 PM 19.1 66.38 0.1 7.42 7.06 8.39
9/15/2021 11:45:00 PM 19.01 66.218 0.099 7.42 7.14 8.4
9/16/2021 12:00:00 AM 18.92 66.056 0.098 7.41 7.69 8.42
9/16/2021 12:15:00 AM 18.83 65.894 0.097 7.4 9.19 8.43
9/16/2021 12:30:00 AM 18.76 65.768 0.097 7.39 9.07 8.46
9/16/2021 12:45:00 AM 18.68 65.624 0.096 7.4 9.56 8.46
9/16/2021 1:00:00 AM 18.6 65.48 0.096 7.38 10.56 8.51
9/16/2021 1:15:00 AM 18.53 65.354 0.096 7.4 8.94 8.53
9/16/2021 1:30:00 AM 18.46 65.228 0.096 7.41 9.19 8.54
9/16/2021 1:45:00 AM 18.4 65.12 0.097 7.41 9.2 8.6
9/16/2021 2:00:00 AM 18.34 65.012 0.097 7.43 8.41 8.62
9/16/2021 2:15:00 AM 18.29 64.922 0.097 7.44 8.98 8.65
9/16/2021 2:30:00 AM 18.23 64.814 0.098 7.43 8.98 8.67
9/16/2021 2:45:00 AM 18.16 64.688 0.098 7.45 9.47 8.69
9/16/2021 3:00:00 AM 18.1 64.58 0.097 7.46 10.54 8.71
9/16/2021 3:15:00 AM 18.04 64.472 0.097 7.45 11.74 8.74
9/16/2021 3:30:00 AM 17.98 64.364 0.096 7.44 11.87 8.77
9/16/2021 3:45:00 AM 17.92 64.256 0.096 7.48 14.72 8.81
9/16/2021 4:00:00 AM 17.86 64.148 0.096 7.48 17.38 8.84
9/16/2021 4:15:00 AM 17.8 64.04 0.096 7.48 18.32 8.87
9/16/2021 4:30:00 AM 17.74 63.932 0.095 7.44 15.74 8.89
9/16/2021 4:45:00 AM 17.69 63.842 0.095 7.47 14.15 8.91
9/16/2021 5:00:00 AM 17.65 63.77 0.095 7.48 13.93 8.93
9/16/2021 5:15:00 AM 17.61 63.698 0.095 7.5 13.46 8.94
9/16/2021 5:30:00 AM 17.57 63.626 0.096 7.51 13.1 8.96
9/16/2021 5:45:00 AM 17.54 63.572 0.096 7.48 13.02 8.97
9/16/2021 6:00:00 AM 17.5 63.5 0.096 7.5 12.8 8.99
9/16/2021 6:15:00 AM 17.47 63.446 0.097 7.51 12.34 8.99
9/16/2021 6:30:00 AM 17.44 63.392 0.097 7.49 12.47 9
9/16/2021 6:45:00 AM 17.4 63.32 0.097 7.51 11.84 9.01
9/16/2021 7:00:00 AM 17.37 63.266 0.097 7.51 11.16 9.02
9/16/2021 7:15:00 AM 17.35 63.23 0.096 7.51 11.06 9.05
9/16/2021 7:30:00 AM 17.33 63.194 0.096 7.52 10.27 9.08
9/16/2021 7:45:00 AM 17.31 63.158 0.096 7.53 9.55 9.13
9/16/2021 8:00:00 AM 17.3 63.14 0.095 7.54 8.99 9.19
9/16/2021 8:15:00 AM 17.3 63.14 0.095 7.56 8.52 9.25
9/16/2021 8:30:00 AM 17.3 63.14 0.094 7.55 7.68 9.31
9/16/2021 8:45:00 AM 17.3 63.14 0.094 7.56 7.74 9.36
9/16/2021 9:00:00 AM 17.3 63.14 0.094 7.61 7.12 9.39
9/16/2021 9:15:00 AM 17.31 63.158 0.093 7.63 6.79 9.42
9/16/2021 9:30:00 AM 17.33 63.194 0.093 7.65 6.8 9.49
9/16/2021 9:45:00 AM 17.35 63.23 0.093 7.68 6.72 9.55
9/16/2021 10:00:00 AM 17.36 63.248 0.093 7.67 6.19 9.56
9/16/2021 10:15:00 AM 17.38 63.284 0.092 7.71 6.03 9.61
9/16/2021 10:30:00 AM 17.41 63.338 0.092 7.75 6.03 9.69
9/16/2021 10:45:00 AM 17.46 63.428 0.092 7.82 5.86 9.81
9/16/2021 11:00:00 AM 17.51 63.518 0.092 7.89 5.94 9.89
9/16/2021 11:15:00 AM 17.58 63.644 0.092 7.97 5.94 9.98
9/16/2021 11:30:00 AM 17.67 63.806 0.092 8.04 5.84 10.04
9/16/2021 11:45:00 AM 17.74 63.932 0.091 8.12 5.48 10.1
9/16/2021 12:00:00 PM 17.81 64.058 0.091 8.2 5.53 10.12
9/16/2021 12:15:00 PM 17.95 64.31 0.091 8.24 5.31 10.14
9/16/2021 12:30:00 PM 18.2 64.76 0.091 8.35 5.34 10.12
9/16/2021 12:45:00 PM 18.28 64.904 0.092 8.34 5.36 10.09
9/16/2021 1:00:00 PM 18.4 65.12 0.091 8.43 5.11 10.08
9/16/2021 1:15:00 PM 18.49 65.282 0.091 8.46 5.2 10.05
9/16/2021 1:30:00 PM 18.73 65.714 0.091 8.55 5.08 10.01
9/16/2021 1:45:00 PM 18.92 66.056 0.091 8.58 4.85 9.96
9/16/2021 2:00:00 PM 19.08 66.344 0.091 8.59 5.09 9.9
9/16/2021 2:15:00 PM 19.21 66.578 0.091 8.6 5.12 9.87
9/16/2021 2:30:00 PM 19.29 66.722 0.091 8.63 5.02 9.89
9/16/2021 2:45:00 PM 19.31 66.758 0.092 8.61 5.28 9.87
9/16/2021 3:00:00 PM 19.33 66.794 0.092 8.61 4.67 9.85
9/16/2021 3:15:00 PM 19.36 66.848 0.092 8.59 4.99 9.79
9/16/2021 3:30:00 PM 19.37 66.866 0.092 8.51 5.17 9.71
9/16/2021 3:45:00 PM 19.36 66.848 0.092 8.4 4.68 9.61
9/16/2021 4:00:00 PM 19.34 66.812 0.092 8.31 4.69 9.55
9/16/2021 4:15:00 PM 19.34 66.812 0.092 8.21 4.64 9.5
9/16/2021 4:30:00 PM 19.37 66.866 0.092 8.16 4.9 9.49
9/16/2021 4:45:00 PM 19.41 66.938 0.093 8.11 4.68 9.47
9/16/2021 5:00:00 PM 19.42 66.956 0.093 8.02 4.71 9.39
9/16/2021 5:15:00 PM 19.4 66.92 0.093 7.89 4.63 9.21
9/16/2021 5:30:00 PM 19.39 66.902 0.093 7.8 4.83 9.1
9/16/2021 5:45:00 PM 19.39 66.902 0.094 7.74 4.58 9.05
9/16/2021 6:00:00 PM 19.38 66.884 0.094 7.68 4.73 8.99
9/16/2021 6:15:00 PM 19.35 66.83 0.094 7.63 4.77 8.9
9/16/2021 6:30:00 PM 19.29 66.722 0.095 7.57 4.51 8.82
9/16/2021 6:45:00 PM 19.23 66.614 0.095 7.52 4.38 8.76
9/16/2021 7:00:00 PM 19.17 66.506 0.095 7.5 4.74 8.73
9/16/2021 7:15:00 PM 19.11 66.398 0.095 7.48 4.59 8.69
9/16/2021 7:30:00 PM 19.05 66.29 0.096 7.43 4.95 8.66
9/16/2021 7:45:00 PM 18.99 66.182 0.096 7.43 4.94 8.64
9/16/2021 8:00:00 PM 18.94 66.092 0.096 7.43 4.97 8.64
9/16/2021 8:15:00 PM 18.9 66.02 0.096 7.42 4.93 8.64
9/16/2021 8:30:00 PM 18.85 65.93 0.096 7.41 5.02 8.63
9/16/2021 8:45:00 PM 18.82 65.876 0.096 7.4 4.95 8.63
9/16/2021 9:00:00 PM 18.78 65.804 0.096 7.37 4.95 8.64
9/16/2021 9:15:00 PM 18.74 65.732 0.096 7.39 4.96 8.65
9/16/2021 9:30:00 PM 18.7 65.66 0.096 7.39 4.77 8.65
9/16/2021 9:45:00 PM 18.66 65.588 0.096 7.36 4.91 8.65
9/16/2021 10:00:00 PM 18.62 65.516 0.097 7.38 4.99 8.66
9/16/2021 10:15:00 PM 18.58 65.444 0.097 7.39 4.93 8.67
9/16/2021 10:30:00 PM 18.54 65.372 0.098 7.39 5.29 8.67
9/16/2021 10:45:00 PM 18.5 65.3 0.098 7.39 4.95 8.67
9/16/2021 11:00:00 PM 18.46 65.228 0.098 7.36 5.12 8.68
9/16/2021 11:15:00 PM 18.43 65.174 0.098 7.38 5.09 8.68
9/16/2021 11:30:00 PM 18.39 65.102 0.098 7.39 4.82 8.7
9/16/2021 11:45:00 PM 18.36 65.048 0.098 7.37 4.65 8.7
9/17/2021 12:00:00 AM 18.33 64.994 0.097 7.39 4.87 8.7
9/17/2021 12:15:00 AM 18.29 64.922 0.097 7.38 4.87 8.71
9/17/2021 12:30:00 AM 18.25 64.85 0.097 7.38 4.89 8.71
9/17/2021 12:45:00 AM 18.21 64.778 0.097 7.38 5.01 8.71
9/17/2021 1:00:00 AM 18.18 64.724 0.097 7.38 4.98 8.72
9/17/2021 1:15:00 AM 18.14 64.652 0.097 7.39 4.69 8.72
9/17/2021 1:30:00 AM 18.12 64.616 0.097 7.39 4.84 8.73
9/17/2021 1:45:00 AM 18.09 64.562 0.097 7.39 4.91 8.73
9/17/2021 2:00:00 AM 18.07 64.526 0.097 7.39 4.68 8.73
9/17/2021 2:15:00 AM 18.04 64.472 0.097 7.39 4.68 8.74
9/17/2021 2:30:00 AM 18.02 64.436 0.097 7.38 5.29 8.73
9/17/2021 2:45:00 AM 18.01 64.418 0.097 7.4 5.06 8.74
9/17/2021 3:00:00 AM 17.99 64.382 0.097 7.35 4.68 8.74
9/17/2021 3:15:00 AM 17.98 64.364 0.097 7.39 4.96 8.74
9/17/2021 3:30:00 AM 17.98 64.364 0.097 7.39 4.65 8.74
9/17/2021 3:45:00 AM 17.97 64.346 0.097 7.39 4.62 8.74
9/17/2021 4:00:00 AM 17.96 64.328 0.097 7.36 4.61 8.74
9/17/2021 4:15:00 AM 17.95 64.31 0.097 7.39 4.64 8.75
9/17/2021 4:30:00 AM 17.95 64.31 0.097 7.4 4.7 8.75
9/17/2021 4:45:00 AM 17.93 64.274 0.097 7.38 4.88 8.74
9/17/2021 5:00:00 AM 17.92 64.256 0.097 7.38 4.49 8.73
9/17/2021 5:15:00 AM 17.91 64.238 0.097 7.38 4.77 8.74
9/17/2021 5:30:00 AM 17.9 64.22 0.097 7.38 4.67 8.74
9/17/2021 5:45:00 AM 17.89 64.202 0.097 7.38 4.51 8.75
9/17/2021 6:00:00 AM 17.88 64.184 0.097 7.37 4.67 8.75
9/17/2021 6:15:00 AM 17.86 64.148 0.097 7.37 4.78 8.75
9/17/2021 6:30:00 AM 17.85 64.13 0.097 7.37 4.71 8.76
9/17/2021 6:45:00 AM 17.84 64.112 0.097 7.35 4.69 8.75
9/17/2021 7:00:00 AM 17.83 64.094 0.097 7.36 4.57 8.76
9/17/2021 7:15:00 AM 17.82 64.076 0.097 7.35 4.38 8.78
9/17/2021 7:30:00 AM 17.81 64.058 0.097 7.33 4.67 8.8
9/17/2021 7:45:00 AM 17.81 64.058 0.097 7.36 4.52 8.86
9/17/2021 8:00:00 AM 17.82 64.076 0.097 7.37 4.2 8.97
9/17/2021 8:15:00 AM 17.83 64.094 0.097 7.39 4.18 9.09
9/17/2021 8:30:00 AM 17.86 64.148 0.097 7.44 4.15 9.21
9/17/2021 8:45:00 AM 17.89 64.202 0.097 7.46 4.35 9.28
9/17/2021 9:00:00 AM 17.9 64.22 0.097 7.47 4.03 9.3
9/17/2021 9:15:00 AM 17.94 64.292 0.097 7.53 4.14 9.38
9/17/2021 9:30:00 AM 17.96 64.328 0.096 7.51 4.11 9.43
9/17/2021 9:45:00 AM 17.99 64.382 0.096 7.55 3.71 9.48
9/17/2021 10:00:00 AM 18.02 64.436 0.096 7.56 3.96 9.53
9/17/2021 10:15:00 AM 18.06 64.508 0.096 7.55 3.94 9.58
9/17/2021 10:30:00 AM 18.11 64.598 0.096 7.62 3.79 9.67
9/17/2021 10:45:00 AM 18.14 64.652 0.096 7.64 3.88 9.71
9/17/2021 11:00:00 AM 18.19 64.742 0.096 7.68 3.75 9.81
9/17/2021 11:15:00 AM 18.23 64.814 0.096 7.72 3.91 9.88
9/17/2021 11:30:00 AM 18.3 64.94 0.095 7.78 3.81 9.94
9/17/2021 11:45:00 AM 18.36 65.048 0.095 7.85 3.76 9.97
9/17/2021 12:00:00 PM 18.4 65.12 0.095 7.84 3.63 9.96
9/17/2021 12:15:00 PM 18.45 65.21 0.095 7.87 3.66 9.91
9/17/2021 12:30:00 PM 18.49 65.282 0.095 7.88 3.85 9.82
9/17/2021 12:45:00 PM 18.58 65.444 0.094 7.99 3.79 9.96
9/17/2021 1:00:00 PM 18.63 65.534 0.094 8.02 3.76 9.9
9/17/2021 1:15:00 PM 18.71 65.67799 0.094 8.13 3.71 10.02
9/17/2021 1:30:00 PM 18.77 65.786 0.094 8.2 3.79 9.99
9/17/2021 1:45:00 PM 18.88 65.984 0.094 8.35 3.9 10.1
9/17/2021 2:00:00 PM 18.96 66.128 0.094 8.49 3.92 10.14
9/17/2021 2:15:00 PM 19.07 66.326 0.094 8.62 3.94 10.16
9/17/2021 2:30:00 PM 19.17 66.506 0.094 8.75 3.79 10.22
9/17/2021 2:45:00 PM 19.26 66.668 0.094 8.77 3.74 10.18
9/17/2021 3:00:00 PM 19.36 66.848 0.094 8.78 3.92 10.08
9/17/2021 3:15:00 PM 19.45 67.01 0.094 8.8 4.03 9.95
9/17/2021 3:30:00 PM 19.53 67.154 0.094 8.86 3.85 9.9
9/17/2021 3:45:00 PM 19.51 67.118 0.094 8.77 3.8 9.69
9/17/2021 4:00:00 PM 19.52 67.136 0.094 8.65 3.91 9.59
9/17/2021 4:15:00 PM 19.57 67.226 0.094 8.65 3.89 9.49
9/17/2021 4:30:00 PM 19.65 67.37 0.094 8.59 3.74 9.44
9/17/2021 4:45:00 PM 19.68 67.424 0.094 8.48 3.77 9.32
9/17/2021 5:00:00 PM 19.7 67.46 0.095 8.39 3.73 9.33
9/17/2021 5:15:00 PM 19.69 67.442 0.095 8.19 3.89 9.24
9/17/2021 5:30:00 PM 19.67 67.406 0.096 8.09 3.9 9.16
9/17/2021 5:45:00 PM 19.62 67.316 0.096 7.95 3.93 9.11
9/17/2021 6:00:00 PM 19.56 67.208 0.097 7.81 3.78 9.03
9/17/2021 6:15:00 PM 19.56 67.208 0.097 7.78 3.78 9.03
9/17/2021 6:30:00 PM 19.52 67.136 0.098 7.71 3.82 8.93
9/17/2021 6:45:00 PM 19.5 67.1 0.098 7.67 3.83 8.83
9/17/2021 7:00:00 PM 19.47 67.046 0.098 7.63 3.82 8.71
9/17/2021 7:15:00 PM 19.45 67.01 0.099 7.57 3.91 8.61
9/17/2021 7:30:00 PM 19.42 66.956 0.099 7.53 3.82 8.52
9/17/2021 7:45:00 PM 19.4 66.92 0.099 7.46 3.96 8.45
9/17/2021 8:00:00 PM 19.37 66.866 0.1 7.43 3.98 8.42
9/17/2021 8:15:00 PM 19.31 66.758 0.1 7.4 4.13 8.37
9/17/2021 8:30:00 PM 19.28 66.704 0.1 7.41 4.16 8.36
9/17/2021 8:45:00 PM 19.23 66.614 0.1 7.38 4.08 8.36
9/17/2021 9:00:00 PM 19.2 66.56 0.1 7.39 6.17 8.36
9/17/2021 9:15:00 PM 19.17 66.506 0.1 7.38 4.14 8.36
9/17/2021 9:30:00 PM 19.12 66.416 0.1 7.35 3.86 8.35
9/17/2021 9:45:00 PM 19.11 66.398 0.1 7.36 4.13 8.36
9/17/2021 10:00:00 PM 19.07 66.326 0.1 7.34 4.14 8.37
9/17/2021 10:15:00 PM 19.03 66.254 0.101 7.35 4.11 8.37
9/17/2021 10:30:00 PM 18.98 66.164 0.101 7.33 6.31 8.38
9/17/2021 10:45:00 PM 18.92 66.056 0.101 7.33 4.07 8.39
9/17/2021 11:00:00 PM 18.85 65.93 0.101 7.32 4.12 8.39
9/17/2021 11:15:00 PM 18.79 65.82201 0.101 7.32 4.08 8.41
9/17/2021 11:30:00 PM 18.73 65.714 0.101 7.32 3.98 8.42
9/17/2021 11:45:00 PM 18.67 65.606 0.101 7.32 4.06 8.43
9/18/2021 12:00:00 AM 18.6 65.48 0.101 7.3 15.97 8.39
9/18/2021 12:15:00 AM 18.54 65.372 0.101 7.28 3.8 8.43
9/18/2021 12:30:00 AM 18.49 65.282 0.101 7.31 3.97 8.46
9/18/2021 12:45:00 AM 18.4 65.12 0.101 7.27 3.97 8.44
9/18/2021 1:00:00 AM 18.35 65.03 0.101 7.28 3.92 8.46
9/18/2021 1:15:00 AM 18.3 64.94 0.101 7.29 3.94 8.48
9/18/2021 1:30:00 AM 18.25 64.85 0.101 7.3 3.89 8.49
9/18/2021 1:45:00 AM 18.21 64.778 0.101 7.29 3.93 8.5
9/18/2021 2:00:00 AM 18.18 64.724 0.101 7.32 4.01 8.53
9/18/2021 2:15:00 AM 18.14 64.652 0.101 7.32 4.09 8.54
9/18/2021 2:30:00 AM 18.12 64.616 0.101 7.38 4.02 8.6
9/18/2021 2:45:00 AM 18.07 64.526 0.101 7.36 4.1 8.61
9/18/2021 3:00:00 AM 18.04 64.472 0.101 7.36 4.03 8.62
9/18/2021 3:15:00 AM 18 64.4 0.101 7.37 4.22 8.64
9/18/2021 3:30:00 AM 17.96 64.328 0.101 7.37 4.13 8.64
9/18/2021 3:45:00 AM 17.95 64.31 0.101 7.39 4.03 8.66
9/18/2021 4:00:00 AM 17.91 64.238 0.101 7.39 4.07 8.67
9/18/2021 4:15:00 AM 17.88 64.184 0.101 7.37 4.26 8.67
9/18/2021 4:30:00 AM 17.86 64.148 0.101 7.4 4.15 8.69
9/18/2021 4:45:00 AM 17.84 64.112 0.101 7.39 4.2 8.68
9/18/2021 5:00:00 AM 17.81 64.058 0.101 7.39 4.03 8.69
9/18/2021 5:15:00 AM 17.79 64.022 0.101 7.39 4.19 8.69
9/18/2021 5:30:00 AM 17.77 63.986 0.101 7.37 3.9 8.69
9/18/2021 5:45:00 AM 17.75 63.95 0.101 7.38 3.92 8.69
9/18/2021 6:00:00 AM 17.73 63.914 0.102 7.39 4.08 8.71
9/18/2021 6:15:00 AM 17.71 63.878 0.102 7.39 4.23 8.71
9/18/2021 6:30:00 AM 17.68 63.824 0.102 7.39 4.18 8.71
9/18/2021 6:45:00 AM 17.66 63.788 0.102 7.39 3.97 8.72
9/18/2021 7:00:00 AM 17.64 63.752 0.102 7.39 4.18 8.73
9/18/2021 7:15:00 AM 17.62 63.716 0.103 7.39 4.14 8.74
9/18/2021 7:30:00 AM 17.61 63.698 0.103 7.4 3.81 8.77
9/18/2021 7:45:00 AM 17.6 63.68 0.103 7.39 4.14 8.84
9/18/2021 8:00:00 AM 17.6 63.68 0.103 7.41 3.8 8.94
9/18/2021 8:15:00 AM 17.62 63.716 0.103 7.45 3.88 9.11
9/18/2021 8:30:00 AM 17.63 63.734 0.103 7.46 4.07 9.26
9/18/2021 8:45:00 AM 17.65 63.77 0.103 7.5 3.74 9.33
9/18/2021 9:00:00 AM 17.67 63.806 0.102 7.51 3.59 9.44
9/18/2021 9:15:00 AM 17.72 63.896 0.102 7.55 3.75 9.56
9/18/2021 9:30:00 AM 17.79 64.022 0.102 7.57 3.48 9.74
9/18/2021 9:45:00 AM 17.86 64.148 0.101 7.63 3.53 9.88
9/18/2021 10:00:00 AM 17.93 64.274 0.101 7.67 3.52 9.88
9/18/2021 10:15:00 AM 17.96 64.328 0.1 7.61 3.56 9.86
9/18/2021 10:30:00 AM 18.06 64.508 0.099 7.72 3.46 10.03
9/18/2021 10:45:00 AM 18.2 64.76 0.099 7.84 3.54 10.12
9/18/2021 11:00:00 AM 18.32 64.976 0.099 7.94 3.63 10.17
9/18/2021 11:15:00 AM 18.45 65.21 0.098 7.98 3.51 10.18
9/18/2021 11:30:00 AM 18.56 65.408 0.098 8.01 3.68 10.08
9/18/2021 11:45:00 AM 18.69 65.642 0.098 8.06 3.46 10.03
9/18/2021 12:00:00 PM 18.85 65.93 0.097 8.06 3.6 10.02
9/18/2021 12:15:00 PM 19.02 66.236 0.097 8.17 3.48 10.03
9/18/2021 12:30:00 PM 19.22 66.596 0.097 8.29 3.52 10.04
9/18/2021 12:45:00 PM 19.44 66.992 0.096 8.47 3.5 10.03
9/18/2021 1:00:00 PM 19.63 67.334 0.096 8.52 3.43 10
9/18/2021 1:15:00 PM 19.84 67.712 0.096 8.7 4.04 9.88
9/18/2021 1:30:00 PM 20.08 68.144 0.095 8.78 3.67 9.93
9/18/2021 1:45:00 PM 20.29 68.522 0.095 8.97 3.46 9.88
9/18/2021 2:00:00 PM 20.43 68.774 0.095 8.93 3.6 9.83
9/18/2021 2:15:00 PM 20.65 69.17 0.095 9.04 3.66 9.84
9/18/2021 2:30:00 PM 20.81 69.458 0.095 9.04 3.44 9.78
9/18/2021 2:45:00 PM 20.95 69.71 0.095 9.07 3.84 9.77
9/18/2021 3:00:00 PM 21.07 69.926 0.095 9.18 3.64 9.79
9/18/2021 3:15:00 PM 21.04 69.872 0.095 9.06 3.43 9.59
9/18/2021 3:30:00 PM 21.05 69.89 0.095 9.07 3.6 9.58
9/18/2021 3:45:00 PM 21.06 69.908 0.095 9.13 3.46 9.56
9/18/2021 4:00:00 PM 21.08 69.944 0.095 9.08 3.57 9.34
9/18/2021 4:15:00 PM 21 69.8 0.095 8.87 4.13 9.06
9/18/2021 4:30:00 PM 20.91 69.638 0.096 8.72 3.94 8.92
9/18/2021 4:45:00 PM 20.82 69.476 0.096 8.54 3.81 8.91
9/18/2021 5:00:00 PM 20.76 69.368 0.096 8.42 3.64 8.91
9/18/2021 5:15:00 PM 20.77 69.386 0.095 8.46 3.72 8.98
9/18/2021 5:30:00 PM 20.73 69.314 0.096 8.24 3.64 8.92
9/18/2021 5:45:00 PM 20.72 69.296 0.097 8.15 3.98 8.83
9/18/2021 6:00:00 PM 20.66 69.188 0.097 7.95 3.49 8.77
9/18/2021 6:15:00 PM 20.62 69.116 0.098 7.82 3.52 8.7
9/18/2021 6:30:00 PM 20.59 69.062 0.098 7.76 3.58 8.62
9/18/2021 6:45:00 PM 20.56 69.008 0.098 7.68 3.45 8.53
9/18/2021 7:00:00 PM 20.52 68.936 0.099 7.59 3.66 8.38
9/18/2021 7:15:00 PM 20.49 68.882 0.1 7.56 3.78 8.27
9/18/2021 7:30:00 PM 20.43 68.774 0.1 7.49 3.68 8.18
9/18/2021 7:45:00 PM 20.39 68.702 0.1 7.47 3.73 8.12
9/18/2021 8:00:00 PM 20.35 68.63 0.101 7.46 3.98 8.09
9/18/2021 8:15:00 PM 20.28 68.504 0.101 7.44 3.67 8.05
9/18/2021 8:30:00 PM 20.2 68.36 0.102 7.41 3.9 8.06
9/18/2021 8:45:00 PM 20.11 68.198 0.102 7.39 3.67 8.05
9/18/2021 9:00:00 PM 20.02 68.036 0.102 7.37 3.89 8.06
9/18/2021 9:15:00 PM 19.92 67.856 0.102 7.38 3.78 8.06
9/18/2021 9:30:00 PM 19.81 67.658 0.102 7.36 3.79 8.09
9/18/2021 9:45:00 PM 19.72 67.496 0.102 7.37 3.96 8.12
9/18/2021 10:00:00 PM 19.61 67.298 0.103 7.35 3.91 8.12
9/18/2021 10:15:00 PM 19.5 67.1 0.103 7.36 4.14 8.16
9/18/2021 10:30:00 PM 19.39 66.902 0.103 7.35 4.18 8.19
9/18/2021 10:45:00 PM 19.27 66.686 0.103 7.34 3.83 8.19
9/18/2021 11:00:00 PM 19.15 66.47 0.102 7.36 4.61 8.22
9/18/2021 11:15:00 PM 19.05 66.29 0.103 7.36 3.64 8.27
9/18/2021 11:30:00 PM 18.93 66.074 0.103 7.36 4.03 8.28
9/18/2021 11:45:00 PM 18.82 65.876 0.103 7.36 3.86 8.31
9/19/2021 12:00:00 AM 18.69 65.642 0.103 7.36 4.03 8.33
9/19/2021 12:15:00 AM 18.57 65.426 0.103 7.33 3.83 8.36
9/19/2021 12:30:00 AM 18.46 65.228 0.103 7.35 4.48 8.38
9/19/2021 12:45:00 AM 18.35 65.03 0.103 7.35 4.25 8.41
9/19/2021 1:00:00 AM 18.26 64.868 0.103 7.36 3.7 8.43
9/19/2021 1:15:00 AM 18.17 64.706 0.103 7.36 3.8 8.44
9/19/2021 1:30:00 AM 18.1 64.58 0.103 7.37 3.71 8.46
9/19/2021 1:45:00 AM 18.02 64.436 0.103 7.36 3.99 8.48
9/19/2021 2:00:00 AM 17.92 64.256 0.103 7.35 3.75 8.48
9/19/2021 2:15:00 AM 17.86 64.148 0.103 7.37 3.79 8.52
9/19/2021 2:30:00 AM 17.78 64.004 0.103 7.35 3.82 8.52
9/19/2021 2:45:00 AM 17.72 63.896 0.103 7.38 3.74 8.55
9/19/2021 3:00:00 AM 17.67 63.806 0.103 7.34 4.18 8.57
9/19/2021 3:15:00 AM 17.59 63.662 0.103 7.37 4.28 8.57
9/19/2021 3:30:00 AM 17.52 63.536 0.103 7.34 3.9 8.6
9/19/2021 3:45:00 AM 17.45 63.41 0.103 7.38 3.89 8.62
9/19/2021 4:00:00 AM 17.38 63.284 0.103 7.37 3.93 8.61
9/19/2021 4:15:00 AM 17.31 63.158 0.103 7.37 3.79 8.64
9/19/2021 4:30:00 AM 17.25 63.05 0.103 7.38 3.87 8.65
9/19/2021 4:45:00 AM 17.17 62.906 0.103 7.37 3.82 8.65
9/19/2021 5:00:00 AM 17.1 62.78 0.103 7.4 3.92 8.7
9/19/2021 5:15:00 AM 17.03 62.654 0.103 7.38 3.88 8.7
9/19/2021 5:30:00 AM 16.96 62.528 0.103 7.4 3.92 8.74
9/19/2021 5:45:00 AM 16.89 62.402 0.103 7.38 5.48 8.73
9/19/2021 6:00:00 AM 16.83 62.294 0.103 7.39 3.88 8.77
9/19/2021 6:15:00 AM 16.76 62.168 0.103 7.4 4 8.79
9/19/2021 6:30:00 AM 16.7 62.06 0.103 7.4 3.76 8.79
9/19/2021 6:45:00 AM 16.64 61.952 0.103 7.39 3.76 8.81
9/19/2021 7:00:00 AM 16.58 61.844 0.103 7.41 3.88 8.83
9/19/2021 7:15:00 AM 16.51 61.718 0.103 7.4 3.68 8.89
9/19/2021 7:30:00 AM 16.46 61.628 0.103 7.38 3.78 8.96
9/19/2021 7:45:00 AM 16.42 61.556 0.103 7.4 3.7 9.05
9/19/2021 8:00:00 AM 16.38 61.484 0.103 7.43 3.76 9.13
9/19/2021 8:15:00 AM 16.35 61.43 0.103 7.45 3.54 9.24
9/19/2021 8:30:00 AM 16.34 61.412 0.102 7.44 3.54 9.37
9/19/2021 8:45:00 AM 16.34 61.412 0.102 7.49 3.57 9.55
9/19/2021 9:00:00 AM 16.34 61.412 0.102 7.53 3.59 9.61
9/19/2021 9:15:00 AM 16.33 61.394 0.102 7.56 3.51 9.63
9/19/2021 9:30:00 AM 16.36 61.448 0.102 7.55 3.56 9.72
9/19/2021 9:45:00 AM 16.44 61.592 0.101 7.6 3.64 9.82
9/19/2021 10:00:00 AM 16.52 61.736 0.101 7.65 3.49 9.92
9/19/2021 10:15:00 AM 16.63 61.934 0.101 7.7 3.52 10
9/19/2021 10:30:00 AM 16.75 62.15 0.1 7.76 3.5 10.09
9/19/2021 10:45:00 AM 16.85 62.33 0.1 7.78 3.53 10.12
9/19/2021 11:00:00 AM 17.01 62.618 0.1 7.84 3.46 10.17
9/19/2021 11:15:00 AM 17.15 62.87 0.099 7.87 3.48 10.19
9/19/2021 11:30:00 AM 17.33 63.194 0.099 7.94 3.45 10.21
9/19/2021 11:45:00 AM 17.53 63.554 0.098 8 3.41 10.23
9/19/2021 12:00:00 PM 17.73 63.914 0.098 8.07 3.57 10.24
9/19/2021 12:15:00 PM 17.95 64.31 0.098 8.13 3.4 10.21
9/19/2021 12:30:00 PM 18.23 64.814 0.098 8.34 3.36 10.23
9/19/2021 12:45:00 PM 18.44 65.192 0.097 8.45 3.34 10.17
9/19/2021 1:00:00 PM 18.59 65.462 0.097 8.4 3.43 10.08
9/19/2021 1:15:00 PM 18.85 65.93 0.097 8.76 3.49 10.13
9/19/2021 1:30:00 PM 18.96 66.128 0.096 8.57 3.38 9.98
9/19/2021 1:45:00 PM 19.12 66.416 0.096 8.82 3.59 9.97
9/19/2021 2:00:00 PM 19.25 66.65 0.096 8.9 3.57 9.9
9/19/2021 2:15:00 PM 19.37 66.866 0.097 9.04 3.62 9.87
9/19/2021 2:30:00 PM 19.38 66.884 0.096 8.84 3.42 9.73
9/19/2021 2:45:00 PM 19.44 66.992 0.096 8.94 3.46 9.65
9/19/2021 3:00:00 PM 19.5 67.1 0.097 9.02 3.89 9.61
9/19/2021 3:15:00 PM 19.47 67.046 0.097 8.84 3.37 9.49
9/19/2021 3:30:00 PM 19.43 66.974 0.097 8.75 3.5 9.4
9/19/2021 3:45:00 PM 19.42 66.956 0.098 8.77 3.34 9.37
9/19/2021 4:00:00 PM 19.36 66.848 0.098 8.59 3.31 9.29
9/19/2021 4:15:00 PM 19.33 66.794 0.098 8.53 3.36 9.26
9/19/2021 4:30:00 PM 19.26 66.668 0.098 8.36 3.32 9.18
9/19/2021 4:45:00 PM 19.2 66.56 0.099 8.16 3.5 9.12
9/19/2021 5:00:00 PM 19.16 66.488 0.099 8.16 3.53 9.11
9/19/2021 5:15:00 PM 19.08 66.344 0.1 8.06 3.49 9.07
9/19/2021 5:30:00 PM 19 66.2 0.1 7.92 3.44 9
9/19/2021 5:45:00 PM 18.86 65.948 0.101 7.69 3.3 8.9
9/19/2021 6:00:00 PM 18.79 65.82201 0.101 7.73 3.5 8.89
9/19/2021 6:15:00 PM 18.63 65.534 0.102 7.52 3.4 8.73
9/19/2021 6:30:00 PM 18.52 65.336 0.102 7.55 3.37 8.74
9/19/2021 6:45:00 PM 18.38 65.084 0.102 7.45 3.59 8.63
9/19/2021 7:00:00 PM 18.33 64.994 0.102 7.46 3.4 8.64
9/19/2021 7:15:00 PM 18.23 64.814 0.103 7.44 3.63 8.6
9/19/2021 7:30:00 PM 18.13 64.634 0.103 7.42 3.53 8.55
9/19/2021 7:45:00 PM 18.03 64.454 0.104 7.4 3.95 8.52
9/19/2021 8:00:00 PM 17.92 64.256 0.104 7.41 3.66 8.51
9/19/2021 8:15:00 PM 17.82 64.076 0.105 7.42 3.72 8.52
9/19/2021 8:30:00 PM 17.68 63.824 0.105 7.4 3.94 8.54
9/19/2021 8:45:00 PM 17.55 63.59 0.105 7.36 3.66 8.53
9/19/2021 9:00:00 PM 17.44 63.392 0.105 7.39 3.58 8.58
9/19/2021 9:15:00 PM 17.31 63.158 0.105 7.36 3.79 8.57
9/19/2021 9:30:00 PM 17.2 62.96 0.105 7.35 3.75 8.58
9/19/2021 9:45:00 PM 17.09 62.762 0.105 7.36 3.66 8.64
9/19/2021 10:00:00 PM 16.98 62.564 0.105 7.34 3.74 8.65
9/19/2021 10:15:00 PM 16.9 62.42 0.105 7.41 3.99 8.75
9/19/2021 10:30:00 PM 16.78 62.204 0.105 7.37 3.7 8.71
9/19/2021 10:45:00 PM 16.68 62.024 0.105 7.37 3.68 8.76
9/19/2021 11:00:00 PM 16.58 61.844 0.105 7.35 3.52 8.77
9/19/2021 11:15:00 PM 16.48 61.664 0.105 7.35 3.7 8.8
9/19/2021 11:30:00 PM 16.38 61.484 0.105 7.36 3.99 8.8
9/19/2021 11:45:00 PM 16.29 61.322 0.105 7.39 3.73 8.85
9/20/2021 12:00:00 AM 16.18 61.124 0.105 7.37 3.83 8.88
9/20/2021 12:15:00 AM 16.08 60.944 0.105 7.38 3.64 8.92
9/20/2021 12:30:00 AM 15.98 60.764 0.105 7.37 3.82 8.92
9/20/2021 12:45:00 AM 15.88 60.584 0.105 7.37 3.91 8.94
9/20/2021 1:00:00 AM 15.78 60.404 0.105 7.33 3.83 8.95
9/20/2021 1:15:00 AM 15.68 60.224 0.105 7.4 3.72 9.04
9/20/2021 1:30:00 AM 15.58 60.044 0.105 7.4 3.82 9.04
9/20/2021 1:45:00 AM 15.49 59.882 0.105 7.42 3.74 9.13
9/20/2021 2:00:00 AM 15.39 59.702 0.105 7.4 3.64 9.11
9/20/2021 2:15:00 AM 15.29 59.522 0.105 7.39 3.82 9.15
9/20/2021 2:30:00 AM 15.2 59.36 0.105 7.37 3.6 9.1
9/20/2021 2:45:00 AM 15.11 59.198 0.105 7.4 3.81 9.17
9/20/2021 3:00:00 AM 15.01 59.018 0.105 7.4 3.65 9.2
9/20/2021 3:15:00 AM 14.92 58.856 0.105 7.36 3.87 9.21
9/20/2021 3:30:00 AM 14.83 58.694 0.105 7.38 3.7 9.23
9/20/2021 3:45:00 AM 14.73 58.514 0.105 7.38 4.01 9.25
9/20/2021 4:00:00 AM 14.63 58.334 0.105 7.39 3.68 9.27
9/20/2021 4:15:00 AM 14.54 58.172 0.105 7.4 3.88 9.32
9/20/2021 4:30:00 AM 14.45 58.01 0.105 7.41 3.81 9.35
9/20/2021 4:45:00 AM 14.36 57.848 0.105 7.38 3.89 9.33
9/20/2021 5:00:00 AM 14.27 57.686 0.105 7.36 3.62 9.37
9/20/2021 5:15:00 AM 14.18 57.524 0.105 7.35 3.71 9.39
9/20/2021 5:30:00 AM 14.08 57.344 0.105 7.38 3.82 9.45
9/20/2021 5:45:00 AM 14 57.2 0.105 7.36 3.76 9.45
9/20/2021 6:00:00 AM 13.93 57.074 0.105 7.33 3.66 9.46
9/20/2021 6:15:00 AM 13.86 56.948 0.105 7.34 3.62 9.48
9/20/2021 6:30:00 AM 13.79 56.822 0.105 7.36 3.56 9.53
9/20/2021 6:45:00 AM 13.71 56.678 0.105 7.33 3.67 9.51
9/20/2021 7:00:00 AM 13.64 56.552 0.105 7.35 3.36 9.55
9/20/2021 7:15:00 AM 13.57 56.426 0.105 7.37 3.58 9.63
9/20/2021 7:30:00 AM 13.51 56.318 0.105 7.35 3.31 9.65
9/20/2021 7:45:00 AM 13.45 56.21 0.105 7.39 3.02 9.76
9/20/2021 8:00:00 AM 13.4 56.12 0.105 7.4 3.15 9.81
9/20/2021 8:15:00 AM 13.36 56.048 0.105 7.43 3.14 9.94
9/20/2021 8:30:00 AM 13.37 56.066 0.105 7.46 3.19 10.1
9/20/2021 8:45:00 AM 13.38 56.084 0.104 7.47 3.06 10.16
9/20/2021 9:00:00 AM 13.39 56.102 0.104 7.49 4.08 10.21
9/20/2021 9:15:00 AM 13.42 56.156 0.104 7.5 3.23 10.32
9/20/2021 9:30:00 AM 13.47 56.246 0.104 7.55 3.06 10.41
9/20/2021 9:45:00 AM 13.57 56.426 0.103 7.6 3.43 10.52
9/20/2021 10:00:00 AM 13.7 56.66 0.103 7.63 3.08 10.63
9/20/2021 10:15:00 AM 13.83 56.894 0.103 7.63 2.94 10.69
9/20/2021 10:30:00 AM 14 57.2 0.103 7.7 3.06 10.75
9/20/2021 10:45:00 AM 14.19 57.542 0.102 7.72 3.01 10.78
9/20/2021 11:00:00 AM 14.39 57.902 0.102 7.76 3.02 10.83
9/20/2021 11:15:00 AM 14.62 58.316 0.101 7.78 3.04 10.85
9/20/2021 11:30:00 AM 14.9 58.82 0.101 7.86 3.17 10.9
9/20/2021 11:45:00 AM 15.12 59.216 0.101 7.79 2.95 10.78
9/20/2021 12:00:00 PM 15.44 59.792 0.1 7.94 2.89 10.81
9/20/2021 12:15:00 PM 15.8 60.44 0.1 8.13 3.07 10.79
9/20/2021 12:30:00 PM 16.14 61.052 0.099 8.34 3.09 10.78
9/20/2021 12:45:00 PM 16.49 61.682 0.099 8.66 3.29 10.79
9/20/2021 1:00:00 PM 16.79 62.222 0.099 8.58 3.01 10.78
9/20/2021 1:15:00 PM 17.09 62.762 0.098 8.81 3.01 10.8
9/20/2021 1:30:00 PM 17.26 63.068 0.098 8.87 3 10.76
9/20/2021 1:45:00 PM 17.5 63.5 0.098 9.04 3.08 10.66
9/20/2021 2:00:00 PM 17.65 63.77 0.098 8.88 3.08 10.49
9/20/2021 2:15:00 PM 17.8 64.04 0.097 9.01 3.33 10.37
9/20/2021 2:30:00 PM 17.99 64.382 0.098 9.12 2.95 10.32
9/20/2021 2:45:00 PM 18.1 64.58 0.097 9.08 3.25 10.14
9/20/2021 3:00:00 PM 18.15 64.67 0.098 8.96 3.12 10.02
9/20/2021 3:15:00 PM 18.12 64.616 0.097 8.76 3.4 9.73
9/20/2021 3:30:00 PM 18.16 64.688 0.097 8.88 2.94 9.8
9/20/2021 3:45:00 PM 18.17 64.706 0.098 8.96 2.97 9.81
9/20/2021 4:00:00 PM 18.19 64.742 0.099 8.84 3 9.65
9/20/2021 4:15:00 PM 18.19 64.742 0.099 8.78 3.02 9.48
9/20/2021 4:30:00 PM 18.16 64.688 0.099 8.8 3.09 9.53
9/20/2021 4:45:00 PM 18.16 64.688 0.099 8.63 3 9.53
9/20/2021 5:00:00 PM 18.06 64.508 0.099 8.09 3.06 9.43
9/20/2021 5:15:00 PM 18.01 64.418 0.1 7.9 3.11 9.27
9/20/2021 5:30:00 PM 18.03 64.454 0.1 8.17 3.39 9.27
9/20/2021 5:45:00 PM 17.94 64.292 0.101 7.86 3.02 9.22
9/20/2021 6:00:00 PM 17.92 64.256 0.101 7.9 3.09 9.2
9/20/2021 6:15:00 PM 17.79 64.022 0.102 7.55 3.02 9.03
9/20/2021 6:30:00 PM 17.72 63.896 0.102 7.54 2.99 8.94
9/20/2021 6:45:00 PM 17.72 63.896 0.103 7.61 3.11 8.94
9/20/2021 7:00:00 PM 17.57 63.626 0.103 7.41 3.14 8.78
9/20/2021 7:15:00 PM 17.57 63.626 0.104 7.49 3.11 8.83
9/20/2021 7:30:00 PM 17.44 63.392 0.104 7.36 3.29 8.63
9/20/2021 7:45:00 PM 17.42 63.356 0.105 7.42 3.4 8.65
9/20/2021 8:00:00 PM 17.33 63.194 0.105 7.36 3.2 8.63
9/20/2021 8:15:00 PM 17.28 63.104 0.106 7.4 3.21 8.63
9/20/2021 8:30:00 PM 17.18 62.924 0.106 7.34 3.41 8.58
9/20/2021 8:45:00 PM 17.08 62.744 0.107 7.31 3.24 8.58
9/20/2021 9:00:00 PM 17.03 62.654 0.107 7.35 3.51 8.63
9/20/2021 9:15:00 PM 16.92 62.456 0.107 7.31 3.43 8.57
9/20/2021 9:30:00 PM 16.86 62.348 0.107 7.32 3.43 8.63
9/20/2021 9:45:00 PM 16.78 62.204 0.107 7.38 3.55 8.66
9/20/2021 10:00:00 PM 16.7 62.06 0.107 7.29 3.2 8.63
9/20/2021 10:15:00 PM 16.65 61.97 0.108 7.32 3.27 8.69
9/20/2021 10:30:00 PM 16.54 61.772 0.107 7.28 3.36 8.69
9/20/2021 10:45:00 PM 16.5 61.7 0.107 7.34 3.42 8.72
9/20/2021 11:00:00 PM 16.43 61.574 0.107 7.32 3.25 8.77
9/20/2021 11:15:00 PM 16.35 61.43 0.107 7.33 3.31 8.78
9/20/2021 11:30:00 PM 16.27 61.286 0.107 7.27 3.22 8.73
9/20/2021 11:45:00 PM 16.23 61.214 0.107 7.3 3.21 8.83
9/21/2021 12:00:00 AM 16.18 61.124 0.107 7.32 3.28 8.8
9/21/2021 12:15:00 AM 16.15 61.07 0.108 7.38 3.21 8.88
9/21/2021 12:30:00 AM 16.09 60.962 0.107 7.34 3.33 8.86
9/21/2021 12:45:00 AM 16.04 60.872 0.107 7.34 3.28 8.9
9/21/2021 1:00:00 AM 16.01 60.818 0.108 7.37 3.15 8.94
9/21/2021 1:15:00 AM 15.94 60.692 0.107 7.34 3.3 8.93
9/21/2021 1:30:00 AM 15.87 60.566 0.107 7.34 3.31 8.95
9/21/2021 1:45:00 AM 15.81 60.458 0.107 7.36 3.2 8.96
9/21/2021 2:00:00 AM 15.73 60.314 0.107 7.28 3.39 8.94
9/21/2021 2:15:00 AM 15.68 60.224 0.107 7.37 3.39 9.03
9/21/2021 2:30:00 AM 15.59 60.062 0.107 7.31 3.31 8.96
9/21/2021 2:45:00 AM 15.52 59.936 0.107 7.33 3.27 9.01
9/21/2021 3:00:00 AM 15.45 59.81 0.107 7.33 3.44 9.02
9/21/2021 3:15:00 AM 15.39 59.702 0.107 7.35 3.13 9.11
9/21/2021 3:30:00 AM 15.32 59.576 0.107 7.31 3.37 9.08
9/21/2021 3:45:00 AM 15.26 59.468 0.107 7.31 3.26 9.07
9/21/2021 4:00:00 AM 15.19 59.342 0.107 7.32 3.1 9.09
9/21/2021 4:15:00 AM 15.15 59.27 0.107 7.34 3.32 9.1
9/21/2021 4:30:00 AM 15.12 59.216 0.107 7.34 3.33 9.14
9/21/2021 4:45:00 AM 15.09 59.162 0.107 7.35 3.39 9.16
9/21/2021 5:00:00 AM 15.06 59.108 0.107 7.3 3.65 9.13
9/21/2021 5:15:00 AM 15.05 59.09 0.107 7.34 3.39 9.16
9/21/2021 5:30:00 AM 15.05 59.09 0.107 7.38 3.34 9.23
9/21/2021 5:45:00 AM 15.03 59.054 0.107 7.31 3.36 9.18
9/21/2021 6:00:00 AM 15.03 59.054 0.107 7.34 3.45 9.19
9/21/2021 6:15:00 AM 15.03 59.054 0.107 7.4 3.29 9.23
9/21/2021 6:30:00 AM 14.99 58.982 0.107 7.37 3.33 9.22
9/21/2021 6:45:00 AM 14.97 58.946 0.107 7.42 3.49 9.26
9/21/2021 7:00:00 AM 14.91 58.838 0.107 7.33 3.25 9.22
9/21/2021 7:15:00 AM 14.88 58.784 0.107 7.37 3.53 9.27
9/21/2021 7:30:00 AM 14.85 58.73 0.107 7.41 3.33 9.39
9/21/2021 7:45:00 AM 14.8 58.64 0.107 7.34 3.3 9.38
9/21/2021 8:00:00 AM 14.77 58.586 0.107 7.38 3.2 9.47
9/21/2021 8:15:00 AM 14.75 58.55 0.106 7.4 3.31 9.55
9/21/2021 8:30:00 AM 14.77 58.586 0.106 7.45 3.2 9.73
9/21/2021 8:45:00 AM 14.8 58.64 0.106 7.39 3.13 9.87
9/21/2021 9:00:00 AM 14.83 58.694 0.106 7.49 3.46 10.01
9/21/2021 9:15:00 AM 14.88 58.784 0.105 7.5 3.23 10.13
9/21/2021 9:30:00 AM 14.96 58.928 0.105 7.6 3.26 10.23
9/21/2021 9:45:00 AM 15.05 59.09 0.104 7.64 3.47 10.47
9/21/2021 10:00:00 AM 15.18 59.324 0.104 7.72 3.08 10.76
9/21/2021 10:15:00 AM 15.28 59.504 0.104 7.8 3.09 10.91
9/21/2021 10:30:00 AM 15.38 59.684 0.103 7.87 3.33 10.99
9/21/2021 10:45:00 AM 15.52 59.936 0.103 7.91 3.25 11.06
9/21/2021 11:00:00 AM 15.67 60.206 0.102 8.24 3.13 11.17
9/21/2021 11:15:00 AM 15.76 60.368 0.101 8.01 3.1 11.04
9/21/2021 11:30:00 AM 15.9 60.62 0.1 8.45 3.3 10.97
9/21/2021 11:45:00 AM 16 60.8 0.1 8.69 3.16 11.06
9/21/2021 12:00:00 PM 16.18 61.124 0.099 8.62 3.08 10.96
9/21/2021 12:15:00 PM 16.32 61.376 0.099 8.53 3.08 10.96
9/21/2021 12:30:00 PM 16.55 61.79 0.099 9.05 3.09 10.88
9/21/2021 12:45:00 PM 16.56 61.808 0.098 8.63 3.18 10.76
9/21/2021 1:00:00 PM 16.71 62.078 0.098 8.8 3.09 10.89
9/21/2021 1:15:00 PM 16.89 62.402 0.098 9 3.07 10.85
9/21/2021 1:30:00 PM 17.04 62.672 0.098 9.34 3.43 10.99
9/21/2021 1:45:00 PM 17.06 62.708 0.098 9.15 3.22 10.78
9/21/2021 2:00:00 PM 17.19 62.942 0.098 9.35 3.28 10.84
9/21/2021 2:15:00 PM 17.21 62.978 0.097 9.14 3.84 10.7
9/21/2021 2:30:00 PM 17.34 63.212 0.098 9.46 3.49 10.7
9/21/2021 2:45:00 PM 17.36 63.248 0.098 9.34 3.21 10.63
9/21/2021 3:00:00 PM 17.31 63.158 0.097 9.26 3.66 10.47
9/21/2021 3:15:00 PM 17.32 63.176 0.098 8.9 3.52 10.16
9/21/2021 3:30:00 PM 17.35 63.23 0.097 9.06 3.4 10.06
9/21/2021 3:45:00 PM 17.38 63.284 0.093 9 2.43 10.19
9/21/2021 4:00:00 PM 17.35 63.23 0.093 8.64 2.19 10.08
9/21/2021 4:15:00 PM 17.41 63.338 0.093 8.83 2.17 10.14
9/21/2021 4:30:00 PM 17.53 63.554 0.094 9.12 2.21 10.23
9/21/2021 4:45:00 PM 17.46 63.428 0.093 8.97 2.19 10
9/21/2021 5:00:00 PM 17.49 63.482 0.093 9.01 2.36 9.87
9/21/2021 5:15:00 PM 17.54 63.572 0.094 8.95 2.49 9.84
9/21/2021 5:30:00 PM 17.48 63.464 0.094 8.76 2.32 9.64
9/21/2021 5:45:00 PM 17.36 63.248 0.093 8.58 2.24 9.42
9/21/2021 6:00:00 PM 17.46 63.428 0.095 8.59 2.27 9.46
9/21/2021 6:15:00 PM 17.42 63.356 0.095 8.58 2.24 9.33
9/21/2021 6:30:00 PM 17.44 63.392 0.095 8.63 2.21 9.36
9/21/2021 6:45:00 PM 17.44 63.392 0.095 8.5 2.31 9.26
9/21/2021 7:00:00 PM 17.31 63.158 0.096 8.11 2.18 9.06
9/21/2021 7:15:00 PM 17.31 63.158 0.097 7.72 2.3 8.94
9/21/2021 7:30:00 PM 17.21 62.978 0.098 7.39 2.41 8.66
9/21/2021 7:45:00 PM 17.18 62.924 0.098 7.35 2.28 8.63
9/21/2021 8:00:00 PM 17.08 62.744 0.098 7.37 2.37 8.66
9/21/2021 8:15:00 PM 17.2 62.96 0.1 7.29 2.19 8.62
9/21/2021 8:30:00 PM 17.07 62.726 0.1 7.22 2.38 8.57
9/21/2021 8:45:00 PM 17.09 62.762 0.102 7.19 2.31 8.55
9/21/2021 9:00:00 PM 17.08 62.744 0.103 7.2 2.2 8.58
9/21/2021 9:15:00 PM 16.99 62.582 0.102 7.2 2.34 8.6
9/21/2021 9:30:00 PM 17.03 62.654 0.104 7.23 2.27 8.64
9/21/2021 9:45:00 PM 16.91 62.438 0.104 7.14 2.34 8.53
9/21/2021 10:00:00 PM 16.92 62.456 0.105 7.18 2.14 8.64
9/21/2021 10:15:00 PM 16.85 62.33 0.105 7.15 2.42 8.6
9/21/2021 10:30:00 PM 16.8 62.24 0.105 7.1 2.22 8.58
9/21/2021 10:45:00 PM 16.65 61.97 0.104 7.08 2.39 8.52
9/21/2021 11:00:00 PM 16.7 62.06 0.105 7.15 2.25 8.54
9/21/2021 11:15:00 PM 16.69 62.042 0.106 7.14 2.51 8.69
9/21/2021 11:30:00 PM 16.66 61.988 0.105 7.16 2.21 8.71
9/21/2021 11:45:00 PM 16.57 61.826 0.105 7.13 2.28 8.72
9/22/2021 12:00:00 AM 16.51 61.718 0.105 7.1 2.4 8.59
9/22/2021 12:15:00 AM 16.5 61.7 0.105 7.12 2.26 8.68
9/22/2021 12:30:00 AM 16.45 61.61 0.105 7.09 2.22 8.71
9/22/2021 12:45:00 AM 16.39 61.502 0.105 7.06 2.46 8.63
9/22/2021 1:00:00 AM 16.41 61.538 0.105 7.13 2.61 8.73
9/22/2021 1:15:00 AM 16.41 61.538 0.105 7.14 2.29 8.73
9/22/2021 1:30:00 AM 16.35 61.43 0.105 7.09 2.37 8.66
9/22/2021 1:45:00 AM 16.39 61.502 0.106 7.13 2.3 8.72
9/22/2021 2:00:00 AM 16.32 61.376 0.106 7.07 2.31 8.7
9/22/2021 2:15:00 AM 16.37 61.466 0.106 7.14 2.35 8.73
9/22/2021 2:30:00 AM 16.35 61.43 0.105 7.13 2.42 8.75
9/22/2021 2:45:00 AM 16.33 61.394 0.106 7.15 2.32 8.76
9/22/2021 3:00:00 AM 16.24 61.232 0.105 7.04 2.24 8.59
9/22/2021 3:15:00 AM 16.32 61.376 0.106 7.15 2.25 8.8
9/22/2021 3:30:00 AM 16.23 61.214 0.105 7.05 2.45 8.64
9/22/2021 3:45:00 AM 16.29 61.322 0.105 7.14 2.44 8.74
9/22/2021 4:00:00 AM 16.28 61.304 0.105 7.12 2.25 8.7
9/22/2021 4:15:00 AM 16.28 61.304 0.105 7.11 2.16 8.77
9/22/2021 4:30:00 AM 16.23 61.214 0.105 7.13 2.25 8.74
9/22/2021 4:45:00 AM 16.23 61.214 0.105 7.11 2.27 8.76
9/22/2021 5:00:00 AM 16.24 61.232 0.105 7.09 2.31 8.73
9/22/2021 5:15:00 AM 16.26 61.268 0.105 7.16 2.4 8.81
9/22/2021 5:30:00 AM 16.21 61.178 0.105 7.13 2.22 8.72
9/22/2021 5:45:00 AM 16.19 61.142 0.105 7.08 2.32 8.75
9/22/2021 6:00:00 AM 16.23 61.214 0.105 7.18 2.28 8.84
9/22/2021 6:15:00 AM 16.19 61.142 0.105 7.11 2.37 8.79
9/22/2021 6:30:00 AM 16.14 61.052 0.104 7.07 2.28 8.65
9/22/2021 6:45:00 AM 16.19 61.142 0.105 7.16 2.34 8.82
9/22/2021 7:00:00 AM 16.18 61.124 0.105 7.15 2.33 8.85
9/22/2021 7:15:00 AM 16.15 61.07 0.104 7.16 2.31 8.86
9/22/2021 7:30:00 AM 16.13 61.034 0.105 7.12 2.33 8.88
9/22/2021 7:45:00 AM 16.15 61.07 0.105 7.21 2.2 9
9/22/2021 8:00:00 AM 16.11 60.998 0.104 7.1 2.35 9.05
9/22/2021 8:15:00 AM 16.16 61.088 0.104 7.18 2.23 9.32
9/22/2021 8:30:00 AM 16.11 60.998 0.103 7.15 2.19 9.29
9/22/2021 8:45:00 AM 16.25 61.25 0.103 7.26 2.19 9.46
9/22/2021 9:00:00 AM 16.32 61.376 0.103 7.27 2.19 9.74
9/22/2021 9:15:00 AM 16.45 61.61 0.103 7.35 2.23 10
9/22/2021 9:30:00 AM 16.47 61.646 0.102 7.31 2.08 9.96
9/22/2021 9:45:00 AM 16.63 61.934 0.102 7.6 2.04 10.3
9/22/2021 10:00:00 AM 16.76 62.168 0.102 7.67 2.17 10.44
9/22/2021 10:15:00 AM 16.88 62.384 0.101 7.76 2.14 10.58
9/22/2021 10:30:00 AM 17.03 62.654 0.101 7.9 2.15 10.66
9/22/2021 10:45:00 AM 17.22 62.996 0.1 8.18 2.17 10.77
9/22/2021 11:00:00 AM 17.34 63.212 0.1 8.3 2.11 10.72
9/22/2021 11:15:00 AM 17.38 63.284 0.099 8.34 2.22 10.57
9/22/2021 11:30:00 AM 17.59 63.662 0.099 8.48 2.16 10.51
9/22/2021 11:45:00 AM 17.64 63.752 0.098 8.44 2.21 10.41
9/22/2021 12:00:00 PM 17.65 63.77 0.098 8.38 2.21 10.35
9/22/2021 12:15:00 PM 17.77 63.986 0.098 8.61 2.16 10.51
9/22/2021 12:30:00 PM 17.88 64.184 0.097 8.78 2.11 10.58
9/22/2021 12:45:00 PM 18 64.4 0.096 8.82 2.16 10.51
9/22/2021 1:00:00 PM 17.99 64.382 0.096 8.54 2.16 10.25
9/22/2021 1:15:00 PM 18.14 64.652 0.096 8.88 2.14 10.49
9/22/2021 1:30:00 PM 18.2 64.76 0.096 8.81 2.09 10.34
9/22/2021 1:45:00 PM 18.38 65.084 0.096 9.06 2.15 10.39
9/22/2021 2:00:00 PM 18.34 65.012 0.095 8.99 2.21 10.3
9/22/2021 2:15:00 PM 18.39 65.102 0.095 8.99 2.12 10.28
9/22/2021 2:30:00 PM 18.3 64.94 0.094 8.72 2.31 10.01
9/22/2021 2:45:00 PM 18.57 65.426 0.095 9.09 2.17 10.18
9/22/2021 3:00:00 PM 18.64 65.552 0.096 9.17 2.22 10
9/22/2021 3:15:00 PM 18.52 65.336 0.095 8.99 2.23 9.69
9/22/2021 3:30:00 PM 18.66 65.588 0.096 9.06 2.27 9.53
9/22/2021 3:45:00 PM 18.59 65.462 0.095 9.04 2.13 9.62
9/22/2021 4:00:00 PM 18.53 65.354 0.094 8.98 2.14 9.53
9/22/2021 4:15:00 PM 18.55 65.39 0.095 8.75 2.13 9.42
9/22/2021 4:30:00 PM 18.5 65.3 0.095 8.52 2.19 9.25
9/22/2021 4:45:00 PM 18.6 65.48 0.095 8.68 2.33 9.38
9/22/2021 5:00:00 PM 18.7 65.66 0.095 8.92 2.2 9.51
9/22/2021 5:15:00 PM 18.63 65.534 0.095 8.5 2.14 9.28
9/22/2021 5:30:00 PM 18.62 65.516 0.095 8.81 2.26 9.31
9/22/2021 5:45:00 PM 18.61 65.498 0.095 8.38 2.35 9
9/22/2021 6:00:00 PM 18.65 65.57 0.097 8.4 2.14 8.96
9/22/2021 6:15:00 PM 18.61 65.498 0.097 8.11 2.24 8.81
9/22/2021 6:30:00 PM 18.62 65.516 0.097 7.96 2.3 8.7
9/22/2021 6:45:00 PM 18.61 65.498 0.099 7.58 2.05 8.5
9/22/2021 7:00:00 PM 18.52 65.336 0.098 7.63 2.37 8.52
9/22/2021 7:15:00 PM 18.49 65.282 0.099 7.35 2.21 8.35
9/22/2021 7:30:00 PM 18.39 65.102 0.099 7.26 2.34 8.21
9/22/2021 7:45:00 PM 18.4 65.12 0.1 7.24 2.35 8.23
9/22/2021 8:00:00 PM 18.51 65.318 0.102 7.31 2.38 8.25
9/22/2021 8:15:00 PM 18.35 65.03 0.102 7.16 2.39 8.08
9/22/2021 8:30:00 PM 18.43 65.174 0.103 7.23 2.43 8.14
9/22/2021 8:45:00 PM 18.5 65.3 0.104 7.34 2.42 8.25
9/22/2021 9:00:00 PM 18.34 65.012 0.104 7.15 2.36 8.1
9/22/2021 9:15:00 PM 18.45 65.21 0.104 7.27 2.21 8.21
9/22/2021 9:30:00 PM 18.39 65.102 0.105 7.24 2.36 8.16
9/22/2021 9:45:00 PM 18.31 64.958 0.105 7.21 2.42 8.22
9/22/2021 10:00:00 PM 18.33 64.994 0.106 7.23 2.49 8.23
9/22/2021 10:15:00 PM 18.16 64.688 0.104 7.13 2.29 8.02
9/22/2021 10:30:00 PM 18.27 64.886 0.104 7.25 2.62 8.25
9/22/2021 10:45:00 PM 18.29 64.922 0.106 7.17 2.39 8.2
9/22/2021 11:00:00 PM 18.32 64.976 0.106 7.23 2.63 8.23
9/22/2021 11:15:00 PM 18.28 64.904 0.106 7.24 2.47 8.23
9/22/2021 11:30:00 PM 18.3 64.94 0.106 7.27 2.28 8.28
9/22/2021 11:45:00 PM 18.3 64.94 0.106 7.3 2.35 8.33
9/23/2021 12:00:00 AM 18.16 64.688 0.105 7.25 2.31 8.28
9/23/2021 12:15:00 AM 18.21 64.778 0.106 7.24 2.42 8.3
9/23/2021 12:30:00 AM 18.19 64.742 0.106 7.24 2.32 8.29
9/23/2021 12:45:00 AM 18.1 64.58 0.105 7.23 2.37 8.14
9/23/2021 1:00:00 AM 18.06 64.508 0.106 7.15 2.5 8.17
9/23/2021 1:15:00 AM 18.13 64.634 0.106 7.26 2.43 8.31
9/23/2021 1:30:00 AM 18 64.4 0.105 7.13 2.48 8.22
9/23/2021 1:45:00 AM 18.04 64.472 0.106 7.18 2.46 8.26
9/23/2021 2:00:00 AM 17.92 64.256 0.105 7.15 2.59 8.19
9/23/2021 2:15:00 AM 18.02 64.436 0.105 7.24 2.43 8.33
9/23/2021 2:30:00 AM 17.9 64.22 0.105 7.27 2.44 8.33
9/23/2021 2:45:00 AM 17.89 64.202 0.105 7.17 2.44 8.29
9/23/2021 3:00:00 AM 17.85 64.13 0.104 7.08 2.35 8.13
9/23/2021 3:15:00 AM 17.94 64.292 0.105 7.18 2.52 8.28
9/23/2021 3:30:00 AM 18.02 64.436 0.106 7.23 2.41 8.33
9/23/2021 3:45:00 AM 18.01 64.418 0.106 7.25 2.43 8.34
9/23/2021 4:00:00 AM 17.91 64.238 0.105 7.21 2.53 8.27
9/23/2021 4:15:00 AM 17.93 64.274 0.105 7.21 2.5 8.29
9/23/2021 4:30:00 AM 17.94 64.292 0.105 7.16 2.28 8.27
9/23/2021 4:45:00 AM 17.93 64.274 0.106 7.16 2.41 8.3
9/23/2021 5:00:00 AM 17.92 64.256 0.106 7.16 2.49 8.3
9/23/2021 5:15:00 AM 17.88 64.184 0.106 7.08 2.65 8.1
9/23/2021 5:30:00 AM 17.95 64.31 0.105 7.25 2.36 8.37
9/23/2021 5:45:00 AM 17.81 64.058 0.104 7.1 2.75 8.22
9/23/2021 6:00:00 AM 17.92 64.256 0.105 7.17 2.82 8.31
9/23/2021 6:15:00 AM 17.87 64.166 0.105 7.15 2.46 8.3
9/23/2021 6:30:00 AM 17.8 64.04 0.104 7.21 2.62 8.34
9/23/2021 6:45:00 AM 17.8 64.04 0.105 7.13 2.51 8.26
9/23/2021 7:00:00 AM 17.86 64.148 0.105 7.19 2.46 8.25
9/23/2021 7:15:00 AM 17.92 64.256 0.105 7.24 2.37 8.39
9/23/2021 7:30:00 AM 17.89 64.202 0.105 7.21 2.55 8.39
9/23/2021 7:45:00 AM 17.77 63.986 0.104 7.12 2.53 8.31
9/23/2021 8:00:00 AM 17.91 64.238 0.105 7.19 2.51 8.51
9/23/2021 8:15:00 AM 17.97 64.346 0.105 7.26 2.38 8.77
9/23/2021 8:30:00 AM 18.03 64.454 0.105 7.33 2.3 8.98
9/23/2021 8:45:00 AM 17.95 64.31 0.104 7.21 2.45 8.87
9/23/2021 9:00:00 AM 18.04 64.472 0.104 7.36 2.33 9.1
9/23/2021 9:15:00 AM 18.1 64.58 0.103 7.39 2.46 9.36
9/23/2021 9:30:00 AM 18.07 64.526 0.103 7.35 2.3 9.4
9/23/2021 9:45:00 AM 18.15 64.67 0.103 7.42 2.29 9.51
9/23/2021 10:00:00 AM 18.13 64.634 0.102 7.49 2.25 9.58
9/23/2021 10:15:00 AM 18.26 64.868 0.103 7.5 2.2 9.64
9/23/2021 10:30:00 AM 18.25 64.85 0.101 7.34 2.3 9.58
9/23/2021 10:45:00 AM 18.32 64.976 0.101 7.7 2.25 9.74
9/23/2021 11:00:00 AM 18.3 64.94 0.101 7.42 2.14 9.53
9/23/2021 11:15:00 AM 18.41 65.138 0.102 7.5 2.44 9.53
9/23/2021 11:30:00 AM 18.41 65.138 0.101 7.48 2.2 9.45
9/23/2021 11:45:00 AM 18.46 65.228 0.101 7.57 2.1 9.47
9/23/2021 12:00:00 PM 18.31 64.958 0.1 7.31 2.26 9.19
9/23/2021 12:15:00 PM 18.38 65.084 0.099 7.4 2.36 9.13
9/23/2021 12:30:00 PM 18.37 65.066 0.1 7.26 2.47 9.04
9/23/2021 12:45:00 PM 18.38 65.084 0.099 7.23 2.45 8.97
9/23/2021 1:00:00 PM 18.43 65.174 0.099 7.34 2.67 8.93
9/23/2021 1:15:00 PM 18.39 65.102 0.097 7.22 3.59 8.78
9/23/2021 1:30:00 PM 18.55 65.39 0.097 7.4 3.77 8.83
9/23/2021 1:45:00 PM 18.53 65.354 0.097 7.31 4.15 8.7
9/23/2021 2:00:00 PM 18.56 65.408 0.096 7.37 5.35 8.68
9/23/2021 2:15:00 PM 18.54 65.372 0.096 7.33 4.6 8.62
9/23/2021 2:30:00 PM 18.55 65.39 0.096 7.35 4.28 8.64
9/23/2021 2:45:00 PM 18.55 65.39 0.095 7.34 4.47 8.63
9/23/2021 3:00:00 PM 18.54 65.372 0.096 7.37 3.85 8.68
9/23/2021 3:15:00 PM 18.54 65.372 0.095 7.38 4.02 8.69
9/23/2021 3:30:00 PM 18.54 65.372 0.095 7.42 4.21 8.71
9/23/2021 3:45:00 PM 18.53 65.354 0.094 7.4 4.92 8.69
9/23/2021 4:00:00 PM 18.53 65.354 0.094 7.42 5.92 8.68
9/23/2021 4:15:00 PM 18.52 65.336 0.092 7.43 7.67 8.73
9/23/2021 4:30:00 PM 18.51 65.318 0.091 7.44 9.63 8.76
9/23/2021 4:45:00 PM 18.49 65.282 0.09 7.46 15.58 8.8
9/23/2021 5:00:00 PM 18.43 65.174 0.088 7.44 22.81 8.79
9/23/2021 5:15:00 PM 18.36 65.048 0.085 7.4 36.87 8.76
9/23/2021 5:30:00 PM 18.28 64.904 0.084 7.37 48.81 8.76
9/23/2021 5:45:00 PM 18.2 64.76 0.085 7.35 58.53 8.8
9/23/2021 6:00:00 PM 18.14 64.652 0.084 7.33 67.81 8.83
9/23/2021 6:15:00 PM 18.11 64.598 0.085 7.26 90.88 8.84
9/23/2021 6:30:00 PM 18.09 64.562 0.082 7.24 114.63 8.87
9/23/2021 6:45:00 PM 18.07 64.526 0.078 7.23 126.14 8.89
9/23/2021 7:00:00 PM 18.1 64.58 0.075 7.22 148.51 8.9
9/23/2021 7:15:00 PM 18.12 64.616 0.071 7.15 149.35 8.91
9/23/2021 7:30:00 PM 18.12 64.616 0.068 7.11 138.93 8.92
9/23/2021 7:45:00 PM 18.11 64.598 0.065 7.09 120.74 8.93
9/23/2021 8:00:00 PM 18.09 64.562 0.063 7.1 106.59 8.95
9/23/2021 8:15:00 PM 18.05 64.49 0.062 7.07 101.46 8.97
9/23/2021 8:30:00 PM 18.01 64.418 0.062 7.08 89.11 8.99
9/23/2021 8:45:00 PM 17.96 64.328 0.062 7.1 75.33 9
9/23/2021 9:00:00 PM 17.93 64.274 0.062 7.12 65.09 9.01
9/23/2021 9:15:00 PM 17.9 64.22 0.063 7.12 57.59 9.02
9/23/2021 9:30:00 PM 17.88 64.184 0.064 7.13 52.97 9.03
9/23/2021 9:45:00 PM 17.86 64.148 0.065 7.14 51.9 9.03
9/23/2021 10:00:00 PM 17.84 64.112 0.065 7.16 48.77 9.04
9/23/2021 10:15:00 PM 17.82 64.076 0.066 7.16 45.09 9.04
9/23/2021 10:30:00 PM 17.8 64.04 0.066 7.19 42.69 9.05
9/23/2021 10:45:00 PM 17.77 63.986 0.066 7.19 38.45 9.05
9/23/2021 11:00:00 PM 17.74 63.932 0.067 7.19 34.9 9.06
9/23/2021 11:15:00 PM 17.7 63.86 0.067 7.19 31.7 9.07
9/23/2021 11:30:00 PM 17.66 63.788 0.067 7.21 30.01 9.07
9/23/2021 11:45:00 PM 17.61 63.698 0.067 7.2 28.26 9.08
9/24/2021 12:00:00 AM 17.56 63.608 0.067 7.19 26.75 9.09
9/24/2021 12:15:00 AM 17.5 63.5 0.067 7.19 24.71 9.1
9/24/2021 12:30:00 AM 17.44 63.392 0.068 7.19 23.58 9.11
9/24/2021 12:45:00 AM 17.38 63.284 0.068 7.2 22.49 9.12
9/24/2021 1:00:00 AM 17.31 63.158 0.068 7.21 21.53 9.13
9/24/2021 1:15:00 AM 17.24 63.032 0.068 7.2 20.87 9.14
9/24/2021 1:30:00 AM 17.17 62.906 0.068 7.2 20.19 9.15
9/24/2021 1:45:00 AM 17.1 62.78 0.068 7.2 20.31 9.16
9/24/2021 2:00:00 AM 17.02 62.636 0.068 7.2 19.34 9.18
9/24/2021 2:15:00 AM 16.95 62.51 0.068 7.2 18.13 9.19
9/24/2021 2:30:00 AM 16.87 62.366 0.068 7.2 17.29 9.2
9/24/2021 2:45:00 AM 16.8 62.24 0.068 7.21 17.64 9.22
9/24/2021 3:00:00 AM 16.72 62.096 0.068 7.22 16.81 9.23
9/24/2021 3:15:00 AM 16.65 61.97 0.068 7.22 16.8 9.25
9/24/2021 3:30:00 AM 16.57 61.826 0.069 7.22 16.58 9.26
9/24/2021 3:45:00 AM 16.51 61.718 0.069 7.22 16.08 9.28
9/24/2021 4:00:00 AM 16.45 61.61 0.069 7.22 15.64 9.29
9/24/2021 4:15:00 AM 16.37 61.466 0.069 7.22 15.15 9.3
9/24/2021 4:30:00 AM 16.31 61.358 0.069 7.22 14.48 9.32
9/24/2021 4:45:00 AM 16.23 61.214 0.069 7.21 14 9.33
9/24/2021 5:00:00 AM 16.15 61.07 0.069 7.22 13.61 9.35
9/24/2021 5:15:00 AM 16.07 60.926 0.069 7.21 13.14 9.36
9/24/2021 5:30:00 AM 15.99 60.782 0.07 7.21 13.29 9.38
9/24/2021 5:45:00 AM 15.91 60.638 0.07 7.22 13.77 9.39
9/24/2021 6:00:00 AM 15.83 60.494 0.07 7.22 13.26 9.41
9/24/2021 6:15:00 AM 15.75 60.35 0.07 7.22 12.34 9.43
9/24/2021 6:30:00 AM 15.67 60.206 0.07 7.23 12.28 9.44
9/24/2021 6:45:00 AM 15.6 60.08 0.07 7.23 12.03 9.46
9/24/2021 7:00:00 AM 15.52 59.936 0.07 7.22 11.64 9.48
9/24/2021 7:15:00 AM 15.44 59.792 0.07 7.22 11.01 9.5
9/24/2021 7:30:00 AM 15.37 59.666 0.07 7.23 10.69 9.53
9/24/2021 7:45:00 AM 15.3 59.54 0.07 7.24 9.99 9.55
9/24/2021 8:00:00 AM 15.23 59.414 0.071 7.24 9.7 9.59
9/24/2021 8:15:00 AM 15.17 59.306 0.071 7.26 9.32 9.62
9/24/2021 8:30:00 AM 15.13 59.234 0.071 7.26 9.16 9.66
9/24/2021 8:45:00 AM 15.09 59.162 0.071 7.26 8.69 9.68
9/24/2021 9:00:00 AM 15.07 59.126 0.071 7.29 8.53 9.72
9/24/2021 9:15:00 AM 15.06 59.108 0.071 7.29 8.35 9.75
9/24/2021 9:30:00 AM 15.08 59.144 0.071 7.31 8.17 9.79
9/24/2021 9:45:00 AM 15.12 59.216 0.071 7.33 7.77 9.83
9/24/2021 10:00:00 AM 15.18 59.324 0.071 7.35 7.72 9.87
9/24/2021 10:15:00 AM 15.24 59.432 0.071 7.38 7.65 9.91
9/24/2021 10:30:00 AM 15.31 59.558 0.071 7.4 7.34 9.93
9/24/2021 10:45:00 AM 15.39 59.702 0.071 7.43 7.07 9.96
9/24/2021 11:00:00 AM 15.5 59.9 0.071 7.45 7.29 9.98
9/24/2021 11:15:00 AM 15.61 60.098 0.072 7.47 6.95 9.99
9/24/2021 11:30:00 AM 15.72 60.296 0.072 7.5 6.9 9.99
9/24/2021 11:45:00 AM 15.85 60.53 0.072 7.52 6.65 10
9/24/2021 12:00:00 PM 16.01 60.818 0.072 7.55 6.62 10.01
9/24/2021 12:15:00 PM 16.09 60.962 0.072 7.56 6.58 10
9/24/2021 12:30:00 PM 16.23 61.214 0.072 7.59 6.65 10
9/24/2021 12:45:00 PM 16.38 61.484 0.072 7.61 6.77 9.97
9/24/2021 1:00:00 PM 16.48 61.664 0.072 7.61 6.64 9.96
9/24/2021 1:15:00 PM 16.54 61.772 0.072 7.61 7.4 9.94
9/24/2021 1:30:00 PM 16.64 61.952 0.072 7.63 30.95 9.93
9/24/2021 1:45:00 PM 16.68 62.024 0.064 7.62 6.26 9.88
9/24/2021 2:00:00 PM 16.71 62.078 0.072 7.6 7.55 9.85
9/24/2021 2:15:00 PM 16.77 62.186 0.073 7.59 6.25 9.81
9/24/2021 2:30:00 PM 16.81 62.258 0.073 7.58 6.16 9.76
9/24/2021 2:45:00 PM 16.83 62.294 0.073 7.55 6.16 9.71
9/24/2021 3:00:00 PM 16.84 62.312 0.073 7.53 6.19 9.67
9/24/2021 3:15:00 PM 16.86 62.348 0.073 7.51 6.1 9.63
9/24/2021 3:30:00 PM 16.86 62.348 0.073 7.49 5.91 9.59
9/24/2021 3:45:00 PM 16.87 62.366 0.073 7.47 6.09 9.58
9/24/2021 4:00:00 PM 16.85 62.33 0.073 7.44 6.16 9.54
9/24/2021 4:15:00 PM 16.86 62.348 0.073 7.44 5.86 9.55
9/24/2021 4:30:00 PM 16.8 62.24 0.073 7.42 5.97 9.5
9/24/2021 4:45:00 PM 16.74 62.132 0.073 7.39 5.76 9.47
9/24/2021 5:00:00 PM 16.73 62.114 0.073 7.41 5.8 9.49
9/24/2021 5:15:00 PM 16.69 62.042 0.065 7.39 5.68 9.46
9/24/2021 5:30:00 PM 16.61 61.898 0.074 7.37 5.73 9.42
9/24/2021 5:45:00 PM 16.55 61.79 0.074 7.35 5.66 9.39
9/24/2021 6:00:00 PM 16.52 61.736 0.074 7.34 5.76 9.38
9/24/2021 6:15:00 PM 16.46 61.628 0.074 7.33 5.65 9.36
9/24/2021 6:30:00 PM 16.39 61.502 0.074 7.32 6.01 9.35
9/24/2021 6:45:00 PM 16.32 61.376 0.074 7.3 6.07 9.34
9/24/2021 7:00:00 PM 16.26 61.268 0.074 7.29 6.18 9.33
9/24/2021 7:15:00 PM 16.19 61.142 0.074 7.29 6.47 9.32
9/24/2021 7:30:00 PM 16.12 61.016 0.075 7.29 6.27 9.32
9/24/2021 7:45:00 PM 16.06 60.908 0.075 7.28 6.47 9.32
9/24/2021 8:00:00 PM 16 60.8 0.075 7.27 6.37 9.33
9/24/2021 8:15:00 PM 15.93 60.674 0.075 7.27 6.42 9.34
9/24/2021 8:30:00 PM 15.86 60.548 0.075 7.27 6.28 9.35
9/24/2021 8:45:00 PM 15.79 60.422 0.075 7.27 6.47 9.37
9/24/2021 9:00:00 PM 15.72 60.296 0.075 7.26 6.39 9.38
9/24/2021 9:15:00 PM 15.65 60.17 0.075 7.27 6.44 9.4
9/24/2021 9:30:00 PM 15.58 60.044 0.075 7.26 6.18 9.41
9/24/2021 9:45:00 PM 15.51 59.918 0.075 7.26 6.24 9.43
9/24/2021 10:00:00 PM 15.45 59.81 0.075 7.26 6.12 9.44
9/24/2021 10:15:00 PM 15.38 59.684 0.075 7.26 6.29 9.45
9/24/2021 10:30:00 PM 15.31 59.558 0.075 7.25 6.2 9.46
9/24/2021 10:45:00 PM 15.25 59.45 0.075 7.26 6.16 9.48
9/24/2021 11:00:00 PM 15.18 59.324 0.075 7.25 6.05 9.5
9/24/2021 11:15:00 PM 15.12 59.216 0.075 7.25 6.11 9.51
9/24/2021 11:30:00 PM 15.06 59.108 0.075 7.25 5.93 9.52
9/24/2021 11:45:00 PM 15 59 0.075 7.25 5.74 9.54
9/25/2021 12:00:00 AM 14.94 58.892 0.075 7.25 6.1 9.55
9/25/2021 12:15:00 AM 14.88 58.784 0.075 7.25 5.9 9.56
9/25/2021 12:30:00 AM 14.82 58.676 0.075 7.24 6.13 9.58
9/25/2021 12:45:00 AM 14.76 58.568 0.075 7.25 5.81 9.59
9/25/2021 1:00:00 AM 14.7 58.46 0.075 7.24 5.71 9.61
9/25/2021 1:15:00 AM 14.64 58.352 0.075 7.25 5.79 9.62
9/25/2021 1:30:00 AM 14.58 58.244 0.075 7.24 5.69 9.63
9/25/2021 1:45:00 AM 14.52 58.136 0.075 7.23 6.03 9.64
9/25/2021 2:00:00 AM 14.46 58.028 0.075 7.24 5.77 9.65
9/25/2021 2:15:00 AM 14.39 57.902 0.076 7.23 5.72 9.67
9/25/2021 2:30:00 AM 14.33 57.794 0.076 7.24 5.87 9.68
9/25/2021 2:45:00 AM 14.26 57.668 0.076 7.24 5.92 9.7
9/25/2021 3:00:00 AM 14.2 57.56 0.076 7.24 5.85 9.71
9/25/2021 3:15:00 AM 14.14 57.452 0.076 7.23 7.71 9.72
9/25/2021 3:30:00 AM 14.08 57.344 0.076 7.24 5.78 9.74
9/25/2021 3:45:00 AM 14.02 57.236 0.076 7.23 5.66 9.75
9/25/2021 4:00:00 AM 13.96 57.128 0.076 7.23 5.3 9.76
9/25/2021 4:15:00 AM 13.91 57.038 0.076 7.24 5.62 9.78
9/25/2021 4:30:00 AM 13.85 56.93 0.076 7.24 5.76 9.79
9/25/2021 4:45:00 AM 13.79 56.822 0.076 7.23 5.43 9.81
9/25/2021 5:00:00 AM 13.74 56.732 0.076 7.24 5.63 9.82
9/25/2021 5:15:00 AM 13.68 56.624 0.076 7.24 5.67 9.83
9/25/2021 5:30:00 AM 13.62 56.516 0.076 7.23 5.39 9.85
9/25/2021 5:45:00 AM 13.57 56.426 0.076 7.24 5.54 9.86
9/25/2021 6:00:00 AM 13.51 56.318 0.076 7.24 5.41 9.87
9/25/2021 6:15:00 AM 13.46 56.228 0.076 7.24 5.25 9.89
9/25/2021 6:30:00 AM 13.41 56.138 0.076 7.24 5.4 9.9
9/25/2021 6:45:00 AM 13.35 56.03 0.076 7.24 5.56 9.91
9/25/2021 7:00:00 AM 13.3 55.94 0.077 7.24 5.32 9.93
9/25/2021 7:15:00 AM 13.25 55.85 0.077 7.23 5.06 9.96
9/25/2021 7:30:00 AM 13.21 55.778 0.077 7.23 5.08 9.99
9/25/2021 7:45:00 AM 13.17 55.706 0.077 7.22 4.91 10.03
9/25/2021 8:00:00 AM 13.13 55.634 0.077 7.23 4.96 10.07
9/25/2021 8:15:00 AM 13.12 55.616 0.077 7.24 4.69 10.13
9/25/2021 8:30:00 AM 13.12 55.616 0.077 7.25 4.72 10.18
9/25/2021 8:45:00 AM 13.12 55.616 0.077 7.28 4.68 10.22
9/25/2021 9:00:00 AM 13.14 55.652 0.077 7.29 4.47 10.27
9/25/2021 9:15:00 AM 13.18 55.724 0.077 7.3 4.49 10.33
9/25/2021 9:30:00 AM 13.25 55.85 0.076 7.34 5.49 10.38
9/25/2021 9:45:00 AM 13.34 56.012 0.077 7.36 5 10.42
9/25/2021 10:00:00 AM 13.46 56.228 0.076 7.4 4.41 10.47
9/25/2021 10:15:00 AM 13.61 56.498 0.076 7.45 4.17 10.51
9/25/2021 10:30:00 AM 13.74 56.732 0.076 7.47 4.07 10.54
9/25/2021 10:45:00 AM 13.87 56.966 0.076 7.5 4.03 10.56
9/25/2021 11:00:00 AM 14.04 57.272 0.076 7.55 4.31 10.55
9/25/2021 11:15:00 AM 14.23 57.614 0.077 7.57 4.06 10.54
9/25/2021 11:30:00 AM 14.41 57.938 0.077 7.6 4.12 10.52
9/25/2021 11:45:00 AM 14.61 58.298 0.077 7.62 4.03 10.51
9/25/2021 12:00:00 PM 14.83 58.694 0.077 7.65 4.06 10.49
9/25/2021 12:15:00 PM 15.06 59.108 0.077 7.69 3.99 10.46
9/25/2021 12:30:00 PM 15.29 59.522 0.076 7.73 3.92 10.45
9/25/2021 12:45:00 PM 15.48 59.864 0.076 7.76 4.03 10.44
9/25/2021 1:00:00 PM 15.61 60.098 0.077 7.8 3.89 10.4
9/25/2021 1:15:00 PM 15.73 60.314 0.077 7.8 3.89 10.38
9/25/2021 1:30:00 PM 15.86 60.548 0.077 7.82 4.05 10.35
9/25/2021 1:45:00 PM 15.96 60.728 0.077 7.82 3.88 10.31
9/25/2021 2:00:00 PM 16.03 60.854 0.077 7.81 3.87 10.27
9/25/2021 2:15:00 PM 16.09 60.962 0.077 7.82 3.97 10.25
9/25/2021 2:30:00 PM 16.19 61.142 0.077 7.82 3.82 10.22
9/25/2021 2:45:00 PM 16.27 61.286 0.077 7.83 3.95 10.19
9/25/2021 3:00:00 PM 16.34 61.412 0.077 7.82 3.82 10.16
9/25/2021 3:15:00 PM 16.4 61.52 0.077 7.8 3.73 10.13
9/25/2021 3:30:00 PM 16.46 61.628 0.077 7.79 3.92 10.08
9/25/2021 3:45:00 PM 16.51 61.718 0.077 7.76 3.77 10.04
9/25/2021 4:00:00 PM 16.55 61.79 0.077 7.75 4.17 9.99
9/25/2021 4:15:00 PM 16.57 61.826 0.077 7.69 3.76 9.92
9/25/2021 4:30:00 PM 16.58 61.844 0.077 7.65 3.69 9.85
9/25/2021 4:45:00 PM 16.58 61.844 0.077 7.61 3.8 9.78
9/25/2021 5:00:00 PM 16.54 61.772 0.078 7.55 3.93 9.69
9/25/2021 5:15:00 PM 16.5 61.7 0.078 7.51 3.82 9.64
9/25/2021 5:30:00 PM 16.47 61.646 0.078 7.47 3.8 9.59
9/25/2021 5:45:00 PM 16.43 61.574 0.078 7.44 3.91 9.52
9/25/2021 6:00:00 PM 16.37 61.466 0.078 7.4 3.91 9.46
9/25/2021 6:15:00 PM 16.32 61.376 0.078 7.38 3.72 9.43
9/25/2021 6:30:00 PM 16.27 61.286 0.078 7.37 11.68 9.4
9/25/2021 6:45:00 PM 16.22 61.196 0.078 7.34 3.73 9.36
9/25/2021 7:00:00 PM 16.16 61.088 0.079 7.32 4 9.31
9/25/2021 7:15:00 PM 16.1 60.98 0.079 7.29 4.09 9.28
9/25/2021 7:30:00 PM 16.05 60.89 0.079 7.28 4.16 9.26
9/25/2021 7:45:00 PM 16 60.8 0.079 7.26 4.17 9.25
9/25/2021 8:00:00 PM 15.94 60.692 0.079 7.26 4.29 9.25
9/25/2021 8:15:00 PM 15.89 60.602 0.079 7.25 4.15 9.25
9/25/2021 8:30:00 PM 15.82 60.476 0.079 7.24 4.26 9.26
9/25/2021 8:45:00 PM 15.76 60.368 0.079 7.24 4.18 9.26
9/25/2021 9:00:00 PM 15.69 60.242 0.079 7.23 4.3 9.28
9/25/2021 9:15:00 PM 15.63 60.134 0.079 7.24 4.35 9.29
9/25/2021 9:30:00 PM 15.57 60.026 0.079 7.23 4.32 9.3
9/25/2021 9:45:00 PM 15.51 59.918 0.079 7.23 4.28 9.31
9/25/2021 10:00:00 PM 15.46 59.828 0.079 7.23 4.33 9.33
9/25/2021 10:15:00 PM 15.4 59.72 0.079 7.23 4.4 9.34
9/25/2021 10:30:00 PM 15.33 59.594 0.079 7.22 4.42 9.35
9/25/2021 10:45:00 PM 15.27 59.486 0.079 7.23 4.28 9.36
9/25/2021 11:00:00 PM 15.21 59.378 0.079 7.24 4.35 9.38
9/25/2021 11:15:00 PM 15.14 59.252 0.079 7.23 4.29 9.39
9/25/2021 11:30:00 PM 15.08 59.144 0.079 7.23 4.34 9.41
9/25/2021 11:45:00 PM 15.02 59.036 0.079 7.22 4.4 9.42
9/26/2021 12:00:00 AM 14.97 58.946 0.079 7.22 4.43 9.44
9/26/2021 12:15:00 AM 14.91 58.838 0.079 7.23 5.09 9.45
9/26/2021 12:30:00 AM 14.86 58.748 0.08 7.24 4.98 9.45
9/26/2021 12:45:00 AM 14.8 58.64 0.08 7.23 4.43 9.47
9/26/2021 1:00:00 AM 14.75 58.55 0.08 7.23 4.47 9.48
9/26/2021 1:15:00 AM 14.7 58.46 0.08 7.24 4.47 9.49
9/26/2021 1:30:00 AM 14.65 58.37 0.08 7.23 4.43 9.5
9/26/2021 1:45:00 AM 14.61 58.298 0.08 7.23 4.38 9.51
9/26/2021 2:00:00 AM 14.57 58.226 0.08 7.23 4.28 9.53
9/26/2021 2:15:00 AM 14.53 58.154 0.08 7.23 4.29 9.53
9/26/2021 2:30:00 AM 14.5 58.1 0.08 7.23 4.45 9.55
9/26/2021 2:45:00 AM 14.47 58.046 0.08 7.24 4.24 9.55
9/26/2021 3:00:00 AM 14.44 57.992 0.08 7.23 4.19 9.56
9/26/2021 3:15:00 AM 14.42 57.956 0.08 7.22 4.31 9.56
9/26/2021 3:30:00 AM 14.4 57.92 0.08 7.23 4.31 9.57
9/26/2021 3:45:00 AM 14.38 57.884 0.08 7.23 4.32 9.58
9/26/2021 4:00:00 AM 14.36 57.848 0.08 7.24 4.29 9.58
9/26/2021 4:15:00 AM 14.34 57.812 0.08 7.24 4.52 9.59
9/26/2021 4:30:00 AM 14.31 57.758 0.08 7.24 4.31 9.59
9/26/2021 4:45:00 AM 14.29 57.722 0.08 7.24 4.41 9.6
9/26/2021 5:00:00 AM 14.27 57.686 0.08 7.24 4.25 9.6
9/26/2021 5:15:00 AM 14.25 57.65 0.08 7.24 4.39 9.61
9/26/2021 5:30:00 AM 14.21 57.578 0.08 7.25 4.53 9.62
9/26/2021 5:45:00 AM 14.18 57.524 0.08 7.24 4.36 9.62
9/26/2021 6:00:00 AM 14.14 57.452 0.08 7.24 4.42 9.63
9/26/2021 6:15:00 AM 14.1 57.38 0.08 7.25 4.35 9.63
9/26/2021 6:30:00 AM 14.06 57.308 0.08 7.24 4.41 9.64
9/26/2021 6:45:00 AM 14.02 57.236 0.08 7.23 4.37 9.65
9/26/2021 7:00:00 AM 13.96 57.128 0.08 7.24 4.48 9.67
9/26/2021 7:15:00 AM 13.91 57.038 0.08 7.25 4.44 9.7
9/26/2021 7:30:00 AM 13.86 56.948 0.08 7.25 4.42 9.74
9/26/2021 7:45:00 AM 13.82 56.876 0.08 7.25 4.07 9.79
9/26/2021 8:00:00 AM 13.78 56.804 0.08 7.27 3.82 9.84
9/26/2021 8:15:00 AM 13.75 56.75 0.08 7.29 3.86 9.89
9/26/2021 8:30:00 AM 13.74 56.732 0.08 7.29 3.96 9.96
9/26/2021 8:45:00 AM 13.74 56.732 0.08 7.32 3.78 10.04
9/26/2021 9:00:00 AM 13.75 56.75 0.08 7.34 3.9 10.09
9/26/2021 9:15:00 AM 13.79 56.822 0.08 7.37 3.73 10.16
9/26/2021 9:30:00 AM 13.85 56.93 0.08 7.41 3.63 10.23
9/26/2021 9:45:00 AM 13.92 57.056 0.08 7.45 3.54 10.31
9/26/2021 10:00:00 AM 14 57.2 0.08 7.48 3.56 10.37
9/26/2021 10:15:00 AM 14.11 57.398 0.079 7.51 3.61 10.42
9/26/2021 10:30:00 AM 14.25 57.65 0.079 7.57 3.47 10.46
9/26/2021 10:45:00 AM 14.39 57.902 0.079 7.61 3.38 10.5
9/26/2021 11:00:00 AM 14.52 58.136 0.079 7.64 3.43 10.5
9/26/2021 11:15:00 AM 14.68 58.424 0.079 7.69 3.33 10.54
9/26/2021 11:30:00 AM 14.88 58.784 0.079 7.77 3.29 10.58
9/26/2021 11:45:00 AM 15.13 59.234 0.079 7.86 3.41 10.63
9/26/2021 12:00:00 PM 15.27 59.486 0.079 7.88 3.36 10.59
9/26/2021 12:15:00 PM 15.41 59.738 0.079 7.94 3.39 10.59
9/26/2021 12:30:00 PM 15.5 59.9 0.079 7.96 10.18 10.57
9/26/2021 12:45:00 PM 15.5 59.9 0.079 7.96 3.36 10.52
9/26/2021 1:00:00 PM 15.61 60.098 0.079 7.98 3.38 10.51
9/26/2021 1:15:00 PM 15.81 60.458 0.079 8.03 3.34 10.47
9/26/2021 1:30:00 PM 15.94 60.692 0.079 7.98 3.3 10.37
9/26/2021 1:45:00 PM 15.96 60.728 0.079 7.91 3.3 10.29
9/26/2021 2:00:00 PM 15.97 60.746 0.08 7.91 3.2 10.28
9/26/2021 2:15:00 PM 15.96 60.728 0.08 7.91 3.34 10.29
9/26/2021 2:30:00 PM 15.95 60.71 0.08 7.91 3.92 10.3
9/26/2021 2:45:00 PM 15.91 60.638 0.08 7.85 3.25 10.25
9/26/2021 3:00:00 PM 15.99 60.782 0.08 7.93 3.3 10.28
9/26/2021 3:15:00 PM 16.06 60.908 0.08 7.91 3.43 10.18
9/26/2021 3:30:00 PM 16.14 61.052 0.08 7.88 3.36 10.13
9/26/2021 3:45:00 PM 16.18 61.124 0.08 7.83 3.44 10.06
9/26/2021 4:00:00 PM 16.16 61.088 0.08 7.73 3.36 9.98
9/26/2021 4:15:00 PM 16.15 61.07 0.081 7.7 3.59 9.93
9/26/2021 4:30:00 PM 16.14 61.052 0.081 7.66 3.42 9.86
9/26/2021 4:45:00 PM 16.1 60.98 0.081 7.59 3.48 9.76
9/26/2021 5:00:00 PM 16.08 60.944 0.081 7.56 3.48 9.73
9/26/2021 5:15:00 PM 16.07 60.926 0.081 7.51 3.59 9.71
9/26/2021 5:30:00 PM 16.07 60.926 0.081 7.5 3.43 9.7
9/26/2021 5:45:00 PM 16.02 60.836 0.081 7.48 3.4 9.64
9/26/2021 6:00:00 PM 15.95 60.71 0.081 7.45 3.43 9.57
9/26/2021 6:15:00 PM 15.89 60.602 0.081 7.42 18.73 9.51
9/26/2021 6:30:00 PM 15.82 60.476 0.082 7.39 3.33 9.46
9/26/2021 6:45:00 PM 15.74 60.332 0.082 7.37 3.48 9.43
9/26/2021 7:00:00 PM 15.66 60.188 0.082 7.34 3.63 9.39
9/26/2021 7:15:00 PM 15.55 59.99 0.082 7.32 3.59 9.36
9/26/2021 7:30:00 PM 15.45 59.81 0.082 7.31 3.84 9.35
9/26/2021 7:45:00 PM 15.35 59.63 0.082 7.29 3.81 9.35
9/26/2021 8:00:00 PM 15.27 59.486 0.082 7.27 3.84 9.35
9/26/2021 8:15:00 PM 15.2 59.36 0.082 7.27 3.91 9.36
9/26/2021 8:30:00 PM 15.14 59.252 0.083 7.27 5.03 9.36
9/26/2021 8:45:00 PM 15.09 59.162 0.083 7.26 7.69 9.38
9/26/2021 9:00:00 PM 15.03 59.054 0.083 7.25 3.76 9.38
9/26/2021 9:15:00 PM 14.98 58.964 0.083 7.26 3.83 9.39
9/26/2021 9:30:00 PM 14.93 58.874 0.083 7.26 3.78 9.41
9/26/2021 9:45:00 PM 14.87 58.766 0.083 7.26 3.72 9.43
9/26/2021 10:00:00 PM 14.81 58.658 0.083 7.25 3.73 9.44
9/26/2021 10:15:00 PM 14.74 58.532 0.083 7.26 3.74 9.46
9/26/2021 10:30:00 PM 14.67 58.406 0.083 7.25 3.77 9.47
9/26/2021 10:45:00 PM 14.59 58.262 0.083 7.25 3.83 9.48
9/26/2021 11:00:00 PM 14.5 58.1 0.083 7.24 4.11 9.5
9/26/2021 11:15:00 PM 14.41 57.938 0.083 7.25 10.17 9.53
9/26/2021 11:30:00 PM 14.33 57.794 0.083 7.24 4.36 9.54
9/26/2021 11:45:00 PM 14.25 57.65 0.083 7.24 3.83 9.56
9/27/2021 12:00:00 AM 14.16 57.488 0.083 7.24 3.9 9.58
9/27/2021 12:15:00 AM 14.09 57.362 0.083 7.23 3.85 9.59
9/27/2021 12:30:00 AM 14.01 57.218 0.083 7.23 3.73 9.61
9/27/2021 12:45:00 AM 13.95 57.11 0.083 7.23 8.23 9.63
9/27/2021 1:00:00 AM 13.89 57.002 0.083 7.24 5.58 9.64
9/27/2021 1:15:00 AM 13.83 56.894 0.083 7.24 5.62 9.66
9/27/2021 1:30:00 AM 13.76 56.768 0.083 7.24 4.67 9.68
9/27/2021 1:45:00 AM 13.7 56.66 0.083 7.24 4.8 9.7
9/27/2021 2:00:00 AM 13.65 56.57 0.083 7.24 5.2 9.71
9/27/2021 2:15:00 AM 13.61 56.498 0.083 7.24 4.15 9.71
9/27/2021 2:30:00 AM 13.56 56.408 0.083 7.25 5.83 9.73
9/27/2021 2:45:00 AM 13.52 56.336 0.083 7.25 4.47 9.75
9/27/2021 3:00:00 AM 13.48 56.264 0.083 7.25 4.08 9.76
9/27/2021 3:15:00 AM 13.44 56.192 0.083 7.25 3.91 9.77
9/27/2021 3:30:00 AM 13.4 56.12 0.083 7.24 3.88 9.77
9/27/2021 3:45:00 AM 13.37 56.066 0.083 7.25 3.99 9.78
9/27/2021 4:00:00 AM 13.33 55.994 0.083 7.25 3.7 9.79
9/27/2021 4:15:00 AM 13.31 55.958 0.083 7.26 3.83 9.8
9/27/2021 4:30:00 AM 13.28 55.904 0.083 7.25 3.9 9.81
9/27/2021 4:45:00 AM 13.26 55.868 0.083 7.25 3.86 9.82
9/27/2021 5:00:00 AM 13.23 55.814 0.083 7.24 3.95 9.81
9/27/2021 5:15:00 AM 13.21 55.778 0.083 7.24 3.78 9.82
9/27/2021 5:30:00 AM 13.18 55.724 0.083 7.24 3.89 9.83
9/27/2021 5:45:00 AM 13.17 55.706 0.083 7.25 4.06 9.84
9/27/2021 6:00:00 AM 13.15 55.67 0.083 7.25 3.81 9.85
9/27/2021 6:15:00 AM 13.14 55.652 0.084 7.25 3.89 9.85
9/27/2021 6:30:00 AM 13.12 55.616 0.084 7.26 3.77 9.86
9/27/2021 6:45:00 AM 13.11 55.598 0.084 7.25 3.93 9.86
9/27/2021 7:00:00 AM 13.11 55.598 0.084 7.25 3.85 9.87
9/27/2021 7:15:00 AM 13.1 55.58 0.084 7.25 3.88 9.88
9/27/2021 7:30:00 AM 13.1 55.58 0.084 7.27 3.95 9.93
9/27/2021 7:45:00 AM 13.1 55.58 0.084 7.27 3.85 9.95
9/27/2021 8:00:00 AM 13.11 55.598 0.084 7.28 3.88 10.01
9/27/2021 8:15:00 AM 13.14 55.652 0.084 7.32 3.66 10.16
9/27/2021 8:30:00 AM 13.17 55.706 0.084 7.33 3.61 10.24
9/27/2021 8:45:00 AM 13.2 55.76 0.084 7.38 3.69 10.31
9/27/2021 9:00:00 AM 13.23 55.814 0.084 7.38 3.55 10.32
9/27/2021 9:15:00 AM 13.28 55.904 0.084 7.43 3.51 10.45
9/27/2021 9:30:00 AM 13.32 55.976 0.083 7.45 3.53 10.5
9/27/2021 9:45:00 AM 13.41 56.138 0.083 7.52 3.49 10.66
9/27/2021 10:00:00 AM 13.54 56.372 0.083 7.58 3.4 10.74
9/27/2021 10:15:00 AM 13.67 56.606 0.083 7.67 3.41 10.83
9/27/2021 10:30:00 AM 13.8 56.84 0.083 7.73 3.29 10.85
9/27/2021 10:45:00 AM 13.97 57.146 0.082 7.79 3.44 10.88
9/27/2021 11:00:00 AM 14.17 57.506 0.082 7.89 3.37 10.89
9/27/2021 11:15:00 AM 14.39 57.902 0.082 8.01 3.34 10.94
9/27/2021 11:30:00 AM 14.57 58.226 0.082 8.12 3.33 10.94
9/27/2021 11:45:00 AM 14.74 58.532 0.081 8.25 3.28 10.96
9/27/2021 12:00:00 PM 14.92 58.856 0.081 8.26 3.5 10.87
9/27/2021 12:15:00 PM 15.14 59.252 0.081 8.34 3.36 10.84
9/27/2021 12:30:00 PM 15.35 59.63 0.081 8.42 3.3 10.8
9/27/2021 12:45:00 PM 15.54 59.972 0.081 8.48 3.27 10.76
9/27/2021 1:00:00 PM 15.71 60.278 0.081 8.54 3.28 10.74
9/27/2021 1:15:00 PM 15.9 60.62 0.081 8.55 3.28 10.7
9/27/2021 1:30:00 PM 16.07 60.926 0.081 8.59 3.32 10.67
9/27/2021 1:45:00 PM 16.21 61.178 0.081 8.62 3.5 10.59
9/27/2021 2:00:00 PM 16.34 61.412 0.081 8.61 3.28 10.51
9/27/2021 2:15:00 PM 16.46 61.628 0.081 8.57 3.41 10.44
9/27/2021 2:30:00 PM 16.54 61.772 0.081 8.56 3.43 10.4
9/27/2021 2:45:00 PM 16.58 61.844 0.081 8.54 3.29 10.37
9/27/2021 3:00:00 PM 16.6 61.88 0.081 8.51 3.42 10.29
9/27/2021 3:15:00 PM 16.68 62.024 0.081 8.5 3.38 10.26
9/27/2021 3:30:00 PM 16.76 62.168 0.082 8.52 3.32 10.23
9/27/2021 3:45:00 PM 16.75 62.15 0.082 8.4 3.24 10.14
9/27/2021 4:00:00 PM 16.76 62.168 0.082 8.36 3.37 10.09
9/27/2021 4:15:00 PM 16.77 62.186 0.082 8.27 3.44 10.02
9/27/2021 4:30:00 PM 16.79 62.222 0.082 8.18 3.33 9.97
9/27/2021 4:45:00 PM 16.8 62.24 0.082 8.07 3.44 9.9
9/27/2021 5:00:00 PM 16.81 62.258 0.082 8.01 3.15 9.87
9/27/2021 5:15:00 PM 16.82 62.276 0.083 7.94 3.3 9.83
9/27/2021 5:30:00 PM 16.8 62.24 0.083 7.83 3.4 9.76
9/27/2021 5:45:00 PM 16.76 62.168 0.083 7.75 3.44 9.69
9/27/2021 6:00:00 PM 16.72 62.096 0.083 7.66 3.29 9.59
9/27/2021 6:15:00 PM 16.67 62.006 0.083 7.6 3.92 9.5
9/27/2021 6:30:00 PM 16.62 61.916 0.084 7.52 3.4 9.4
9/27/2021 6:45:00 PM 16.57 61.826 0.084 7.47 3.44 9.3
9/27/2021 7:00:00 PM 16.51 61.718 0.084 7.42 3.48 9.21
9/27/2021 7:15:00 PM 16.45 61.61 0.084 7.38 3.56 9.15
9/27/2021 7:30:00 PM 16.39 61.502 0.084 7.35 3.61 9.11
9/27/2021 7:45:00 PM 16.33 61.394 0.084 7.33 3.55 9.08
9/27/2021 8:00:00 PM 16.27 61.286 0.084 7.31 3.51 9.07
9/27/2021 8:15:00 PM 16.22 61.196 0.085 7.3 3.61 9.06
9/27/2021 8:30:00 PM 16.16 61.088 0.085 7.29 3.73 9.06
9/27/2021 8:45:00 PM 16.1 60.98 0.085 7.28 3.6 9.07
9/27/2021 9:00:00 PM 16.05 60.89 0.085 7.26 3.74 9.07
9/27/2021 9:15:00 PM 16.01 60.818 0.085 7.26 3.53 9.09
9/27/2021 9:30:00 PM 15.97 60.746 0.085 7.27 3.58 9.1
9/27/2021 9:45:00 PM 15.93 60.674 0.085 7.26 3.87 9.1
9/27/2021 10:00:00 PM 15.9 60.62 0.085 7.25 3.59 9.11
9/27/2021 10:15:00 PM 15.86 60.548 0.085 7.23 3.5 9.11
9/27/2021 10:30:00 PM 15.83 60.494 0.085 7.24 3.31 9.11
9/27/2021 10:45:00 PM 15.8 60.44 0.085 7.24 3.7 9.12
9/27/2021 11:00:00 PM 15.78 60.404 0.085 7.25 5.34 9.13
9/27/2021 11:15:00 PM 15.76 60.368 0.085 7.24 4.37 9.13
9/27/2021 11:30:00 PM 15.73 60.314 0.085 7.23 3.71 9.14
9/27/2021 11:45:00 PM 15.69 60.242 0.085 7.23 3.82 9.14
9/28/2021 12:00:00 AM 15.66 60.188 0.085 7.22 3.81 9.15
9/28/2021 12:15:00 AM 15.63 60.134 0.085 7.23 3.87 9.16
9/28/2021 12:30:00 AM 15.61 60.098 0.085 7.22 3.78 9.16
9/28/2021 12:45:00 AM 15.58 60.044 0.085 7.23 3.81 9.17
9/28/2021 1:00:00 AM 15.55 59.99 0.085 7.22 4.02 9.17
9/28/2021 1:15:00 AM 15.53 59.954 0.085 7.23 3.81 9.18
9/28/2021 1:30:00 AM 15.51 59.918 0.086 7.22 3.77 9.18
9/28/2021 1:45:00 AM 15.48 59.864 0.086 7.22 3.65 9.18
9/28/2021 2:00:00 AM 15.46 59.828 0.086 7.22 3.92 9.19
9/28/2021 2:15:00 AM 15.42 59.756 0.086 7.21 3.95 9.18
9/28/2021 2:30:00 AM 15.39 59.702 0.086 7.22 3.9 9.2
9/28/2021 2:45:00 AM 15.36 59.648 0.086 7.21 3.93 9.2
9/28/2021 3:00:00 AM 15.33 59.594 0.086 7.21 3.86 9.2
9/28/2021 3:15:00 AM 15.31 59.558 0.086 7.22 3.69 9.21
9/28/2021 3:30:00 AM 15.29 59.522 0.086 7.22 3.93 9.23
9/28/2021 3:45:00 AM 15.27 59.486 0.086 7.23 3.8 9.23
9/28/2021 4:00:00 AM 15.25 59.45 0.086 7.21 4.23 9.23
9/28/2021 4:15:00 AM 15.23 59.414 0.086 7.2 3.68 9.22
9/28/2021 4:30:00 AM 15.21 59.378 0.086 7.21 3.67 9.24
9/28/2021 4:45:00 AM 15.2 59.36 0.086 7.22 3.82 9.24
9/28/2021 5:00:00 AM 15.18 59.324 0.086 7.2 3.95 9.23
9/28/2021 5:15:00 AM 15.17 59.306 0.086 7.19 3.98 9.23
9/28/2021 5:30:00 AM 15.16 59.288 0.086 7.2 4.01 9.23
9/28/2021 5:45:00 AM 15.14 59.252 0.086 7.19 3.9 9.23
9/28/2021 6:00:00 AM 15.13 59.234 0.086 7.2 3.89 9.25
9/28/2021 6:15:00 AM 15.1 59.18 0.086 7.19 3.86 9.25
9/28/2021 6:30:00 AM 15.07 59.126 0.086 7.2 3.9 9.25
9/28/2021 6:45:00 AM 15.04 59.072 0.086 7.2 4.04 9.26
9/28/2021 7:00:00 AM 15.02 59.036 0.086 7.2 3.94 9.27
9/28/2021 7:15:00 AM 14.99 58.982 0.086 7.19 3.87 9.29
9/28/2021 7:30:00 AM 14.98 58.964 0.086 7.21 4.13 9.37
9/28/2021 7:45:00 AM 14.97 58.946 0.086 7.23 3.84 9.44
9/28/2021 8:00:00 AM 14.97 58.946 0.086 7.25 3.81 9.54
9/28/2021 8:15:00 AM 14.97 58.946 0.086 7.24 4.36 9.57
9/28/2021 8:30:00 AM 14.99 58.982 0.086 7.27 4.11 9.63
9/28/2021 8:45:00 AM 15.01 59.018 0.085 7.28 3.66 9.71
9/28/2021 9:00:00 AM 15.04 59.072 0.085 7.28 3.56 9.78
9/28/2021 9:15:00 AM 15.08 59.144 0.085 7.32 3.55 9.89
9/28/2021 9:30:00 AM 15.12 59.216 0.085 7.34 3.51 9.92
9/28/2021 9:45:00 AM 15.15 59.27 0.085 7.34 3.54 9.86
9/28/2021 10:00:00 AM 15.16 59.288 0.085 7.3 3.47 9.74
9/28/2021 10:15:00 AM 15.18 59.324 0.085 7.29 3.44 9.65
9/28/2021 10:30:00 AM 15.19 59.342 0.085 7.28 3.54 9.58
9/28/2021 10:45:00 AM 15.2 59.36 0.085 7.27 3.72 9.53
9/28/2021 11:00:00 AM 15.22 59.396 0.085 7.27 4.52 9.49
9/28/2021 11:15:00 AM 15.22 59.396 0.085 7.27 3.37 9.47
9/28/2021 11:30:00 AM 15.23 59.414 0.085 7.25 3.6 9.45
9/28/2021 11:45:00 AM 15.24 59.432 0.085 7.26 3.53 9.51
9/28/2021 12:00:00 PM 15.25 59.45 0.085 7.28 3.65 9.6
9/28/2021 12:15:00 PM 15.27 59.486 0.085 7.31 3.55 9.7
9/28/2021 12:30:00 PM 15.31 59.558 0.085 7.34 3.66 9.81
9/28/2021 12:45:00 PM 15.33 59.594 0.085 7.38 3.51 9.89
9/28/2021 1:00:00 PM 15.39 59.702 0.084 7.41 3.47 10.04
9/28/2021 1:15:00 PM 15.48 59.864 0.084 7.51 3.42 10.29
9/28/2021 1:30:00 PM 15.57 60.026 0.084 7.6 3.51 10.38
9/28/2021 1:45:00 PM 15.64 60.152 0.084 7.65 3.65 10.38
9/28/2021 2:00:00 PM 15.69 60.242 0.083 7.79 3.66 10.46
9/28/2021 2:15:00 PM 15.74 60.332 0.083 7.77 3.69 10.45
9/28/2021 2:30:00 PM 15.84 60.512 0.083 7.92 3.76 10.55
9/28/2021 2:45:00 PM 15.92 60.656 0.083 8.04 3.64 10.5
9/28/2021 3:00:00 PM 15.95 60.71 0.083 7.9 3.59 10.33
9/28/2021 3:15:00 PM 15.97 60.746 0.083 7.94 3.59 10.24
9/28/2021 3:30:00 PM 15.97 60.746 0.083 7.88 3.78 10.17
9/28/2021 3:45:00 PM 16.01 60.818 0.083 7.98 3.9 10.23
9/28/2021 4:00:00 PM 16.04 60.872 0.083 8.04 3.87 10.21
9/28/2021 4:15:00 PM 16.04 60.872 0.083 8 4 10.14
9/28/2021 4:30:00 PM 16.02 60.836 0.083 7.98 3.95 10.13
9/28/2021 4:45:00 PM 15.98 60.764 0.084 7.86 3.94 10.02
9/28/2021 5:00:00 PM 15.92 60.656 0.084 7.76 3.96 9.9
9/28/2021 5:15:00 PM 15.85 60.53 0.084 7.65 3.85 9.76
9/28/2021 5:30:00 PM 15.81 60.458 0.084 7.62 3.92 9.74
9/28/2021 5:45:00 PM 15.82 60.476 0.084 7.6 4.14 9.75
9/28/2021 6:00:00 PM 15.78 60.404 0.085 7.57 3.96 9.72
9/28/2021 6:15:00 PM 15.7 60.26 0.085 7.52 3.98 9.66
9/28/2021 6:30:00 PM 15.62 60.116 0.085 7.48 4.12 9.58
9/28/2021 6:45:00 PM 15.54 59.972 0.085 7.45 3.8 9.52
9/28/2021 7:00:00 PM 15.47 59.846 0.086 7.4 3.88 9.45
9/28/2021 7:15:00 PM 15.39 59.702 0.086 7.38 3.92 9.42
9/28/2021 7:30:00 PM 15.32 59.576 0.086 7.36 4 9.39
9/28/2021 7:45:00 PM 15.24 59.432 0.086 7.34 4.17 9.39
9/28/2021 8:00:00 PM 15.16 59.288 0.086 7.33 4.05 9.38
9/28/2021 8:15:00 PM 15.07 59.126 0.086 7.32 4.21 9.39
9/28/2021 8:30:00 PM 14.99 58.982 0.086 7.31 4.26 9.39
9/28/2021 8:45:00 PM 14.9 58.82 0.086 7.29 4.38 9.4
9/28/2021 9:00:00 PM 14.82 58.676 0.086 7.29 4.18 9.42
9/28/2021 9:15:00 PM 14.75 58.55 0.086 7.3 4.11 9.44
9/28/2021 9:30:00 PM 14.67 58.406 0.086 7.29 4.32 9.46
9/28/2021 9:45:00 PM 14.59 58.262 0.086 7.28 4.13 9.47
9/28/2021 10:00:00 PM 14.5 58.1 0.086 7.29 4.07 9.5
9/28/2021 10:15:00 PM 14.42 57.956 0.086 7.29 4.16 9.52
9/28/2021 10:30:00 PM 14.34 57.812 0.086 7.29 4.09 9.53
9/28/2021 10:45:00 PM 14.26 57.668 0.086 7.3 4 9.56
9/28/2021 11:00:00 PM 14.19 57.542 0.086 7.28 3.95 9.58
9/28/2021 11:15:00 PM 14.13 57.434 0.086 7.28 4.12 9.59
9/28/2021 11:30:00 PM 14.06 57.308 0.086 7.28 4.18 9.61
9/28/2021 11:45:00 PM 14 57.2 0.086 7.29 3.97 9.62
9/29/2021 12:00:00 AM 13.94 57.092 0.086 7.28 4.34 9.64
9/29/2021 12:15:00 AM 13.88 56.984 0.086 7.27 4.04 9.65
9/29/2021 12:30:00 AM 13.82 56.876 0.086 7.28 3.95 9.67
9/29/2021 12:45:00 AM 13.77 56.786 0.086 7.28 4.15 9.69
9/29/2021 1:00:00 AM 13.71 56.678 0.086 7.27 4.24 9.69
9/29/2021 1:15:00 AM 13.66 56.588 0.086 7.26 4.17 9.7
9/29/2021 1:30:00 AM 13.61 56.498 0.086 7.27 3.94 9.72
9/29/2021 1:45:00 AM 13.56 56.408 0.086 7.28 3.99 9.73
9/29/2021 2:00:00 AM 13.5 56.3 0.086 7.27 4.13 9.74
9/29/2021 2:15:00 AM 13.44 56.192 0.086 7.27 4.12 9.75
9/29/2021 2:30:00 AM 13.37 56.066 0.086 7.27 3.97 9.78
9/29/2021 2:45:00 AM 13.3 55.94 0.086 7.26 4 9.78
9/29/2021 3:00:00 AM 13.23 55.814 0.086 7.26 4.03 9.79
9/29/2021 3:15:00 AM 13.17 55.706 0.086 7.25 3.9 9.8
9/29/2021 3:30:00 AM 13.11 55.598 0.086 7.26 3.93 9.82
9/29/2021 3:45:00 AM 13.07 55.526 0.086 7.24 4.06 9.82
9/29/2021 4:00:00 AM 13.01 55.418 0.086 7.27 4.1 9.86
9/29/2021 4:15:00 AM 12.95 55.31 0.086 7.24 3.96 9.84
9/29/2021 4:30:00 AM 12.89 55.202 0.086 7.25 4.06 9.87
9/29/2021 4:45:00 AM 12.84 55.112 0.086 7.25 3.95 9.89
9/29/2021 5:00:00 AM 12.79 55.022 0.086 7.26 3.87 9.9
9/29/2021 5:15:00 AM 12.74 54.932 0.086 7.26 3.91 9.92
9/29/2021 5:30:00 AM 12.7 54.86 0.086 7.25 4.04 9.92
9/29/2021 5:45:00 AM 12.65 54.77 0.086 7.25 3.91 9.94
9/29/2021 6:00:00 AM 12.62 54.716 0.086 7.25 3.88 9.95
9/29/2021 6:15:00 AM 12.58 54.644 0.086 7.25 4.02 9.96
9/29/2021 6:30:00 AM 12.55 54.59 0.086 7.24 3.98 9.96
9/29/2021 6:45:00 AM 12.5 54.5 0.086 7.24 3.84 9.97
9/29/2021 7:00:00 AM 12.46 54.428 0.086 7.25 3.97 10
9/29/2021 7:15:00 AM 12.42 54.356 0.086 7.24 4.27 10.01
9/29/2021 7:30:00 AM 12.39 54.302 0.086 7.26 3.9 10.07
9/29/2021 7:45:00 AM 12.37 54.266 0.086 7.26 3.69 10.12
9/29/2021 8:00:00 AM 12.35 54.23 0.085 7.28 3.84 10.22
9/29/2021 8:15:00 AM 12.34 54.212 0.085 7.31 4.03 10.35
9/29/2021 8:30:00 AM 12.33 54.194 0.085 7.34 3.68 10.49
9/29/2021 8:45:00 AM 12.32 54.176 0.085 7.36 3.6 10.59
9/29/2021 9:00:00 AM 12.34 54.212 0.085 7.4 3.53 10.76
9/29/2021 9:15:00 AM 12.37 54.266 0.085 7.47 3.62 10.94
9/29/2021 9:30:00 AM 12.39 54.302 0.084 7.5 3.47 11.03
9/29/2021 9:45:00 AM 12.42 54.356 0.084 7.55 3.38 11.09
9/29/2021 10:00:00 AM 12.49 54.482 0.084 7.55 3.54 11.12
9/29/2021 10:15:00 AM 12.6 54.68 0.084 7.64 3.4 11.2
9/29/2021 10:30:00 AM 12.69 54.842 0.084 7.71 3.37 11.27
9/29/2021 10:45:00 AM 12.8 55.04 0.083 7.76 3.49 11.24
9/29/2021 11:00:00 AM 12.92 55.256 0.083 7.78 3.38 11.27
9/29/2021 11:15:00 AM 13.05 55.49 0.083 7.95 3.55 11.26
9/29/2021 11:30:00 AM 13.16 55.688 0.083 7.91 3.29 11.24
9/29/2021 11:45:00 AM 13.34 56.012 0.083 8.1 3.41 11.27
9/29/2021 12:00:00 PM 13.47 56.246 0.083 8.13 3.53 11.18
9/29/2021 12:15:00 PM 13.65 56.57 0.082 8.19 3.43 11.18
9/29/2021 12:30:00 PM 13.76 56.768 0.082 8.3 3.45 11.14
9/29/2021 12:45:00 PM 13.87 56.966 0.082 8.32 3.48 11.07
9/29/2021 1:00:00 PM 13.94 57.092 0.082 8.29 3.47 10.96
9/29/2021 1:15:00 PM 14.03 57.254 0.083 8.27 3.44 10.93
9/29/2021 1:30:00 PM 14.17 57.506 0.083 8.42 3.61 10.93
9/29/2021 1:45:00 PM 14.35 57.83 0.082 8.46 3.42 10.95
9/29/2021 2:00:00 PM 14.43 57.974 0.083 8.43 3.4 10.87
9/29/2021 2:15:00 PM 14.47 58.046 0.083 8.51 3.41 10.92
9/29/2021 2:30:00 PM 14.44 57.992 0.083 8.46 3.69 10.83
9/29/2021 2:45:00 PM 14.39 57.902 0.083 8.43 3.58 10.76
9/29/2021 3:00:00 PM 14.35 57.83 0.083 8.27 3.67 10.64
9/29/2021 3:15:00 PM 14.37 57.866 0.083 8.16 3.5 10.56
9/29/2021 3:30:00 PM 14.42 57.956 0.083 8.18 3.41 10.61
9/29/2021 3:45:00 PM 14.45 58.01 0.083 8.28 3.45 10.64
9/29/2021 4:00:00 PM 14.45 58.01 0.083 8.13 3.55 10.52
9/29/2021 4:15:00 PM 14.38 57.884 0.084 7.93 3.45 10.42
9/29/2021 4:30:00 PM 14.31 57.758 0.084 7.76 3.37 10.27
9/29/2021 4:45:00 PM 14.27 57.686 0.085 7.64 3.57 10.18
9/29/2021 5:00:00 PM 14.28 57.704 0.085 7.65 3.44 10.13
9/29/2021 5:15:00 PM 14.28 57.704 0.085 7.53 3.39 10.08
9/29/2021 5:30:00 PM 14.27 57.686 0.085 7.53 3.51 10.06
9/29/2021 5:45:00 PM 14.25 57.65 0.086 7.48 3.49 10.04
9/29/2021 6:00:00 PM 14.23 57.614 0.086 7.45 3.86 9.98
9/29/2021 6:15:00 PM 14.2 57.56 0.086 7.42 3.72 9.94
9/29/2021 6:30:00 PM 14.16 57.488 0.086 7.4 3.53 9.88
9/29/2021 6:45:00 PM 14.13 57.434 0.086 7.37 3.42 9.81
9/29/2021 7:00:00 PM 14.09 57.362 0.087 7.34 3.73 9.74
9/29/2021 7:15:00 PM 14.05 57.29 0.087 7.3 3.57 9.67
9/29/2021 7:30:00 PM 14 57.2 0.087 7.29 3.71 9.63
9/29/2021 7:45:00 PM 13.94 57.092 0.087 7.28 3.63 9.62
9/29/2021 8:00:00 PM 13.86 56.948 0.087 7.24 3.7 9.59
9/29/2021 8:15:00 PM 13.77 56.786 0.087 7.25 3.6 9.61
9/29/2021 8:30:00 PM 13.7 56.66 0.087 7.24 3.66 9.62
9/29/2021 8:45:00 PM 13.64 56.552 0.087 7.26 3.72 9.64
9/29/2021 9:00:00 PM 13.59 56.462 0.087 7.24 3.6 9.64
9/29/2021 9:15:00 PM 13.54 56.372 0.087 7.23 3.85 9.65
9/29/2021 9:30:00 PM 13.49 56.282 0.088 7.22 3.97 9.65
9/29/2021 9:45:00 PM 13.45 56.21 0.088 7.23 3.79 9.67
9/29/2021 10:00:00 PM 13.41 56.138 0.088 7.21 3.65 9.66
9/29/2021 10:15:00 PM 13.37 56.066 0.088 7.22 3.76 9.69
9/29/2021 10:30:00 PM 13.34 56.012 0.088 7.17 4.24 9.65
9/29/2021 10:45:00 PM 13.32 55.976 0.088 7.21 3.74 9.69
9/29/2021 11:00:00 PM 13.29 55.922 0.088 7.22 5.08 9.71
9/29/2021 11:15:00 PM 13.27 55.886 0.088 7.22 4.37 9.71
9/29/2021 11:30:00 PM 13.24 55.832 0.088 7.21 3.72 9.71
9/29/2021 11:45:00 PM 13.21 55.778 0.088 7.2 3.77 9.71
9/30/2021 12:00:00 AM 13.18 55.724 0.088 7.21 3.51 9.73
9/30/2021 12:15:00 AM 13.15 55.67 0.088 7.22 3.69 9.75
9/30/2021 12:30:00 AM 13.11 55.598 0.088 7.21 3.67 9.75
9/30/2021 12:45:00 AM 13.08 55.544 0.088 7.21 3.63 9.76
9/30/2021 1:00:00 AM 13.05 55.49 0.088 7.19 3.55 9.76
9/30/2021 1:15:00 AM 13.01 55.418 0.088 7.19 3.99 9.77
9/30/2021 1:30:00 AM 12.98 55.364 0.088 7.2 3.78 9.78
9/30/2021 1:45:00 AM 12.95 55.31 0.088 7.2 3.65 9.79
9/30/2021 2:00:00 AM 12.92 55.256 0.088 7.21 3.68 9.81
9/30/2021 2:15:00 AM 12.88 55.184 0.088 7.19 3.57 9.8
9/30/2021 2:30:00 AM 12.85 55.13 0.088 7.2 3.67 9.81
9/30/2021 2:45:00 AM 12.82 55.076 0.088 7.2 3.42 9.82
9/30/2021 3:00:00 AM 12.79 55.022 0.088 7.2 3.76 9.83
9/30/2021 3:15:00 AM 12.76 54.968 0.088 7.2 3.54 9.84
9/30/2021 3:30:00 AM 12.72 54.896 0.088 7.21 3.71 9.85
9/30/2021 3:45:00 AM 12.67 54.806 0.088 7.2 3.82 9.86
9/30/2021 4:00:00 AM 12.62 54.716 0.088 7.19 3.52 9.86
9/30/2021 4:15:00 AM 12.58 54.644 0.088 7.18 3.6 9.87
9/30/2021 4:30:00 AM 12.55 54.59 0.088 7.18 3.72 9.88
9/30/2021 4:45:00 AM 12.51 54.518 0.088 7.19 3.65 9.9
9/30/2021 5:00:00 AM 12.48 54.464 0.088 7.2 3.66 9.92
9/30/2021 5:15:00 AM 12.45 54.41 0.088 7.18 3.79 9.91
9/30/2021 5:30:00 AM 12.42 54.356 0.088 7.19 3.5 9.92
9/30/2021 5:45:00 AM 12.38 54.284 0.088 7.19 3.42 9.93
9/30/2021 6:00:00 AM 12.33 54.194 0.088 7.21 3.6 9.95
9/30/2021 6:15:00 AM 12.28 54.104 0.088 7.19 3.44 9.95
9/30/2021 6:30:00 AM 12.23 54.014 0.088 7.18 3.38 9.95
9/30/2021 6:45:00 AM 12.18 53.924 0.088 7.19 3.73 9.98
9/30/2021 7:00:00 AM 12.14 53.852 0.088 7.19 3.93 9.99
9/30/2021 7:15:00 AM 12.1 53.78 0.088 7.21 3.65 10.03
9/30/2021 7:30:00 AM 12.07 53.726 0.088 7.21 3.77 10.07
9/30/2021 7:45:00 AM 12.03 53.654 0.088 7.22 3.74 10.15
9/30/2021 8:00:00 AM 12 53.6 0.088 7.23 4.11 10.21
9/30/2021 8:15:00 AM 11.98 53.564 0.087 7.23 4 10.28
9/30/2021 8:30:00 AM 11.96 53.528 0.087 7.27 3.54 10.42
9/30/2021 8:45:00 AM 11.94 53.492 0.087 7.29 3.71 10.44
9/30/2021 9:00:00 AM 11.94 53.492 0.087 7.34 3.48 10.69
9/30/2021 9:15:00 AM 11.97 53.546 0.087 7.42 3.3 10.9
9/30/2021 9:30:00 AM 12.04 53.672 0.086 7.45 3.25 11
9/30/2021 9:45:00 AM 12.13 53.834 0.086 7.57 3.51 11.19
9/30/2021 10:00:00 AM 12.23 54.014 0.086 7.69 3.33 11.36
9/30/2021 10:15:00 AM 12.32 54.176 0.085 7.75 3.31 11.39
9/30/2021 10:30:00 AM